<?xml version="1.0" encoding="UTF-8" standalone="no" ?>
<gpx xmlns="http://www.topografix.com/GPX/1/1" xmlns:xsi="http://www.w3.org/2001/XMLSchema-instance" xsi:schemaLocation="http://www.topografix.com/GPX/1/1 http://www.topografix.com/GPX/1/1/gpx.xsd" version="1.1" creator="VisuGPX - https://www.visugpx.com">
  <metadata>
    <name>bourguignon-belvedere-mandeure</name>
    <desc><![CDATA[petite balade vtt sympa de 2h30]]></desc>
  </metadata>
  <trk>
    <name><![CDATA[2016-10-09 bourguignon-belvedere-mandeure]]></name>
    <desc><![CDATA[<p>Heure de départ: 10/09/2016 09:04</p><p>Heure d'arrivée: 10/09/2016 11:30</p><p>Distance: 30 km (02:26)</p><p>Temps déplacement: 02:01</p><p>Vitesse moyenne: 12,27 km/h</p><p>Vitesse moyenne mouv.: 14,84 km/h</p><p>Vitesse Max.: 40,59km/h</p><p>Altitude minimale: 332 m</p><p>Altitude maximale: 588 m</p><p>Vitesse de montée: 480,3 m/h</p><p>Vitesse de descente: -817,6 m/h</p><p>Gain d'altitude: 630 m</p><p>Perte d'altitude: -633 m</p><p>Temps de montée: 01:18</p><p>Temps de descente: 00:46</p><hr align="center" width="480" style="height: 2px; width: 517px"/>]]></desc>
    <trkseg>
      <trkpt lat="47.41404" lon="6.78415">
        <ele>337.52</ele>
        <time>2016-10-09T07:04:14Z</time>
      </trkpt>
      <trkpt lat="47.41408" lon="6.78441">
        <ele>339.41</ele>
        <time>2016-10-09T07:05:49Z</time>
      </trkpt>
      <trkpt lat="47.41427" lon="6.78445">
        <ele>339.68</ele>
        <time>2016-10-09T07:06:10Z</time>
      </trkpt>
      <trkpt lat="47.41438" lon="6.78422">
        <ele>340.13</ele>
        <time>2016-10-09T07:06:20Z</time>
      </trkpt>
      <trkpt lat="47.41446" lon="6.78395">
        <ele>340.61</ele>
        <time>2016-10-09T07:06:28Z</time>
      </trkpt>
      <trkpt lat="47.41452" lon="6.78366">
        <ele>341.26</ele>
        <time>2016-10-09T07:06:36Z</time>
      </trkpt>
      <trkpt lat="47.41458" lon="6.7834">
        <ele>341.93</ele>
        <time>2016-10-09T07:06:43Z</time>
      </trkpt>
      <trkpt lat="47.41464" lon="6.78313">
        <ele>342.41</ele>
        <time>2016-10-09T07:06:50Z</time>
      </trkpt>
      <trkpt lat="47.41469" lon="6.78287">
        <ele>342.67</ele>
        <time>2016-10-09T07:06:56Z</time>
      </trkpt>
      <trkpt lat="47.41475" lon="6.78258">
        <ele>343.08</ele>
        <time>2016-10-09T07:07:03Z</time>
      </trkpt>
      <trkpt lat="47.41482" lon="6.7823">
        <ele>343.44</ele>
        <time>2016-10-09T07:07:10Z</time>
      </trkpt>
      <trkpt lat="47.41488" lon="6.782">
        <ele>343.87</ele>
        <time>2016-10-09T07:07:17Z</time>
      </trkpt>
      <trkpt lat="47.41493" lon="6.78172">
        <ele>344.15</ele>
        <time>2016-10-09T07:07:24Z</time>
      </trkpt>
      <trkpt lat="47.41479" lon="6.78153">
        <ele>344.31</ele>
        <time>2016-10-09T07:07:32Z</time>
      </trkpt>
      <trkpt lat="47.41461" lon="6.78144">
        <ele>343.83</ele>
        <time>2016-10-09T07:07:39Z</time>
      </trkpt>
      <trkpt lat="47.41443" lon="6.78132">
        <ele>343.55</ele>
        <time>2016-10-09T07:07:45Z</time>
      </trkpt>
      <trkpt lat="47.41425" lon="6.78116">
        <ele>343.72</ele>
        <time>2016-10-09T07:07:51Z</time>
      </trkpt>
      <trkpt lat="47.41407" lon="6.78102">
        <ele>343.85</ele>
        <time>2016-10-09T07:07:57Z</time>
      </trkpt>
      <trkpt lat="47.41392" lon="6.78087">
        <ele>343.98</ele>
        <time>2016-10-09T07:08:02Z</time>
      </trkpt>
      <trkpt lat="47.41375" lon="6.78071">
        <ele>343.91</ele>
        <time>2016-10-09T07:08:08Z</time>
      </trkpt>
      <trkpt lat="47.41369" lon="6.78042">
        <ele>343.97</ele>
        <time>2016-10-09T07:08:15Z</time>
      </trkpt>
      <trkpt lat="47.41363" lon="6.78016">
        <ele>344.19</ele>
        <time>2016-10-09T07:08:21Z</time>
      </trkpt>
      <trkpt lat="47.41358" lon="6.77987">
        <ele>344.26</ele>
        <time>2016-10-09T07:08:27Z</time>
      </trkpt>
      <trkpt lat="47.41357" lon="6.77958">
        <ele>344.27</ele>
        <time>2016-10-09T07:08:32Z</time>
      </trkpt>
      <trkpt lat="47.41357" lon="6.7793">
        <ele>345.07</ele>
        <time>2016-10-09T07:08:37Z</time>
      </trkpt>
      <trkpt lat="47.41346" lon="6.77905">
        <ele>344.37</ele>
        <time>2016-10-09T07:08:43Z</time>
      </trkpt>
      <trkpt lat="47.41335" lon="6.77878">
        <ele>343.91</ele>
        <time>2016-10-09T07:08:48Z</time>
      </trkpt>
      <trkpt lat="47.41326" lon="6.77852">
        <ele>344.15</ele>
        <time>2016-10-09T07:08:53Z</time>
      </trkpt>
      <trkpt lat="47.41315" lon="6.77827">
        <ele>343.88</ele>
        <time>2016-10-09T07:08:58Z</time>
      </trkpt>
      <trkpt lat="47.41304" lon="6.77799">
        <ele>343.33</ele>
        <time>2016-10-09T07:09:03Z</time>
      </trkpt>
      <trkpt lat="47.41293" lon="6.77775">
        <ele>341.37</ele>
        <time>2016-10-09T07:09:08Z</time>
      </trkpt>
      <trkpt lat="47.41279" lon="6.77752">
        <ele>339.76</ele>
        <time>2016-10-09T07:09:13Z</time>
      </trkpt>
      <trkpt lat="47.41264" lon="6.77728">
        <ele>339.66</ele>
        <time>2016-10-09T07:09:18Z</time>
      </trkpt>
      <trkpt lat="47.41248" lon="6.77706">
        <ele>340.64</ele>
        <time>2016-10-09T07:09:23Z</time>
      </trkpt>
      <trkpt lat="47.41231" lon="6.77687">
        <ele>342.04</ele>
        <time>2016-10-09T07:09:28Z</time>
      </trkpt>
      <trkpt lat="47.41214" lon="6.77669">
        <ele>342.09</ele>
        <time>2016-10-09T07:09:33Z</time>
      </trkpt>
      <trkpt lat="47.41196" lon="6.7765">
        <ele>343.44</ele>
        <time>2016-10-09T07:09:38Z</time>
      </trkpt>
      <trkpt lat="47.41182" lon="6.77633">
        <ele>345.88</ele>
        <time>2016-10-09T07:09:42Z</time>
      </trkpt>
      <trkpt lat="47.41164" lon="6.77614">
        <ele>343.43</ele>
        <time>2016-10-09T07:09:48Z</time>
      </trkpt>
      <trkpt lat="47.41147" lon="6.77598">
        <ele>341.06</ele>
        <time>2016-10-09T07:09:53Z</time>
      </trkpt>
      <trkpt lat="47.41128" lon="6.77598">
        <ele>340.28</ele>
        <time>2016-10-09T07:09:58Z</time>
      </trkpt>
      <trkpt lat="47.41111" lon="6.77617">
        <ele>344.86</ele>
        <time>2016-10-09T07:10:03Z</time>
      </trkpt>
      <trkpt lat="47.41096" lon="6.77638">
        <ele>346.02</ele>
        <time>2016-10-09T07:10:07Z</time>
      </trkpt>
      <trkpt lat="47.41079" lon="6.7766">
        <ele>347.95</ele>
        <time>2016-10-09T07:10:12Z</time>
      </trkpt>
      <trkpt lat="47.41064" lon="6.77678">
        <ele>348.17</ele>
        <time>2016-10-09T07:10:16Z</time>
      </trkpt>
      <trkpt lat="47.41051" lon="6.77697">
        <ele>346.83</ele>
        <time>2016-10-09T07:10:20Z</time>
      </trkpt>
      <trkpt lat="47.41034" lon="6.77719">
        <ele>347.94</ele>
        <time>2016-10-09T07:10:25Z</time>
      </trkpt>
      <trkpt lat="47.41019" lon="6.77735">
        <ele>347.46</ele>
        <time>2016-10-09T07:10:29Z</time>
      </trkpt>
      <trkpt lat="47.41002" lon="6.77757">
        <ele>346.3</ele>
        <time>2016-10-09T07:10:34Z</time>
      </trkpt>
      <trkpt lat="47.40983" lon="6.77757">
        <ele>345.66</ele>
        <time>2016-10-09T07:10:39Z</time>
      </trkpt>
      <trkpt lat="47.40969" lon="6.77739">
        <ele>345.9</ele>
        <time>2016-10-09T07:10:43Z</time>
      </trkpt>
      <trkpt lat="47.40954" lon="6.77718">
        <ele>346.88</ele>
        <time>2016-10-09T07:10:49Z</time>
      </trkpt>
      <trkpt lat="47.4094" lon="6.77694">
        <ele>347.74</ele>
        <time>2016-10-09T07:10:54Z</time>
      </trkpt>
      <trkpt lat="47.40932" lon="6.77665">
        <ele>348.06</ele>
        <time>2016-10-09T07:10:59Z</time>
      </trkpt>
      <trkpt lat="47.40925" lon="6.7764">
        <ele>345.26</ele>
        <time>2016-10-09T07:11:04Z</time>
      </trkpt>
      <trkpt lat="47.40916" lon="6.77613">
        <ele>342.83</ele>
        <time>2016-10-09T07:11:09Z</time>
      </trkpt>
      <trkpt lat="47.40904" lon="6.77588">
        <ele>340.56</ele>
        <time>2016-10-09T07:11:14Z</time>
      </trkpt>
      <trkpt lat="47.4089" lon="6.77562">
        <ele>339.57</ele>
        <time>2016-10-09T07:11:19Z</time>
      </trkpt>
      <trkpt lat="47.40879" lon="6.77539">
        <ele>341.29</ele>
        <time>2016-10-09T07:11:23Z</time>
      </trkpt>
      <trkpt lat="47.40866" lon="6.77512">
        <ele>343.86</ele>
        <time>2016-10-09T07:11:28Z</time>
      </trkpt>
      <trkpt lat="47.40855" lon="6.77485">
        <ele>344.7</ele>
        <time>2016-10-09T07:11:33Z</time>
      </trkpt>
      <trkpt lat="47.40844" lon="6.77461">
        <ele>345.77</ele>
        <time>2016-10-09T07:11:37Z</time>
      </trkpt>
      <trkpt lat="47.40832" lon="6.77435">
        <ele>346.68</ele>
        <time>2016-10-09T07:11:42Z</time>
      </trkpt>
      <trkpt lat="47.40821" lon="6.77407">
        <ele>345.99</ele>
        <time>2016-10-09T07:11:47Z</time>
      </trkpt>
      <trkpt lat="47.4081" lon="6.77383">
        <ele>347.05</ele>
        <time>2016-10-09T07:11:51Z</time>
      </trkpt>
      <trkpt lat="47.40798" lon="6.77356">
        <ele>347.37</ele>
        <time>2016-10-09T07:11:56Z</time>
      </trkpt>
      <trkpt lat="47.40788" lon="6.77332">
        <ele>347.52</ele>
        <time>2016-10-09T07:12:00Z</time>
      </trkpt>
      <trkpt lat="47.40775" lon="6.77312">
        <ele>348.02</ele>
        <time>2016-10-09T07:12:04Z</time>
      </trkpt>
      <trkpt lat="47.40764" lon="6.77289">
        <ele>347.15</ele>
        <time>2016-10-09T07:12:08Z</time>
      </trkpt>
      <trkpt lat="47.40753" lon="6.77264">
        <ele>345.23</ele>
        <time>2016-10-09T07:12:12Z</time>
      </trkpt>
      <trkpt lat="47.40739" lon="6.77241">
        <ele>343.21</ele>
        <time>2016-10-09T07:12:17Z</time>
      </trkpt>
      <trkpt lat="47.40724" lon="6.77224">
        <ele>344.5</ele>
        <time>2016-10-09T07:12:21Z</time>
      </trkpt>
      <trkpt lat="47.40709" lon="6.77207">
        <ele>345.34</ele>
        <time>2016-10-09T07:12:25Z</time>
      </trkpt>
      <trkpt lat="47.40693" lon="6.77191">
        <ele>347.6</ele>
        <time>2016-10-09T07:12:29Z</time>
      </trkpt>
      <trkpt lat="47.40678" lon="6.77177">
        <ele>347.64</ele>
        <time>2016-10-09T07:12:33Z</time>
      </trkpt>
      <trkpt lat="47.40662" lon="6.77162">
        <ele>345.65</ele>
        <time>2016-10-09T07:12:37Z</time>
      </trkpt>
      <trkpt lat="47.40644" lon="6.77146">
        <ele>344.42</ele>
        <time>2016-10-09T07:12:41Z</time>
      </trkpt>
      <trkpt lat="47.40626" lon="6.77135">
        <ele>344.74</ele>
        <time>2016-10-09T07:12:45Z</time>
      </trkpt>
      <trkpt lat="47.40607" lon="6.77126">
        <ele>345.94</ele>
        <time>2016-10-09T07:12:49Z</time>
      </trkpt>
      <trkpt lat="47.40587" lon="6.77119">
        <ele>346</ele>
        <time>2016-10-09T07:12:54Z</time>
      </trkpt>
      <trkpt lat="47.40565" lon="6.77117">
        <ele>345.17</ele>
        <time>2016-10-09T07:12:59Z</time>
      </trkpt>
      <trkpt lat="47.40546" lon="6.77117">
        <ele>346.71</ele>
        <time>2016-10-09T07:13:03Z</time>
      </trkpt>
      <trkpt lat="47.40527" lon="6.77117">
        <ele>348.58</ele>
        <time>2016-10-09T07:13:08Z</time>
      </trkpt>
      <trkpt lat="47.40508" lon="6.77118">
        <ele>347.83</ele>
        <time>2016-10-09T07:13:12Z</time>
      </trkpt>
      <trkpt lat="47.40488" lon="6.77116">
        <ele>346.94</ele>
        <time>2016-10-09T07:13:16Z</time>
      </trkpt>
      <trkpt lat="47.40464" lon="6.77115">
        <ele>346.24</ele>
        <time>2016-10-09T07:13:20Z</time>
      </trkpt>
      <trkpt lat="47.40445" lon="6.77112">
        <ele>345.26</ele>
        <time>2016-10-09T07:13:24Z</time>
      </trkpt>
      <trkpt lat="47.40427" lon="6.77109">
        <ele>344.16</ele>
        <time>2016-10-09T07:13:28Z</time>
      </trkpt>
      <trkpt lat="47.40405" lon="6.77102">
        <ele>343.31</ele>
        <time>2016-10-09T07:13:33Z</time>
      </trkpt>
      <trkpt lat="47.40385" lon="6.77099">
        <ele>344.18</ele>
        <time>2016-10-09T07:13:38Z</time>
      </trkpt>
      <trkpt lat="47.40365" lon="6.77101">
        <ele>346.74</ele>
        <time>2016-10-09T07:13:43Z</time>
      </trkpt>
      <trkpt lat="47.40346" lon="6.77106">
        <ele>344.37</ele>
        <time>2016-10-09T07:13:48Z</time>
      </trkpt>
      <trkpt lat="47.40328" lon="6.77109">
        <ele>343.95</ele>
        <time>2016-10-09T07:13:52Z</time>
      </trkpt>
      <trkpt lat="47.40307" lon="6.77109">
        <ele>342.22</ele>
        <time>2016-10-09T07:13:56Z</time>
      </trkpt>
      <trkpt lat="47.40288" lon="6.77108">
        <ele>341.47</ele>
        <time>2016-10-09T07:14:00Z</time>
      </trkpt>
      <trkpt lat="47.40266" lon="6.77115">
        <ele>343.91</ele>
        <time>2016-10-09T07:14:04Z</time>
      </trkpt>
      <trkpt lat="47.40249" lon="6.77127">
        <ele>348.54</ele>
        <time>2016-10-09T07:14:09Z</time>
      </trkpt>
      <trkpt lat="47.40234" lon="6.77143">
        <ele>350.19</ele>
        <time>2016-10-09T07:14:14Z</time>
      </trkpt>
      <trkpt lat="47.40216" lon="6.77159">
        <ele>350.15</ele>
        <time>2016-10-09T07:14:20Z</time>
      </trkpt>
      <trkpt lat="47.40199" lon="6.77164">
        <ele>350.07</ele>
        <time>2016-10-09T07:14:25Z</time>
      </trkpt>
      <trkpt lat="47.4018" lon="6.77164">
        <ele>348.78</ele>
        <time>2016-10-09T07:14:29Z</time>
      </trkpt>
      <trkpt lat="47.40159" lon="6.77164">
        <ele>348.69</ele>
        <time>2016-10-09T07:14:34Z</time>
      </trkpt>
      <trkpt lat="47.4014" lon="6.77164">
        <ele>347.34</ele>
        <time>2016-10-09T07:14:39Z</time>
      </trkpt>
      <trkpt lat="47.40118" lon="6.77163">
        <ele>349.13</ele>
        <time>2016-10-09T07:14:44Z</time>
      </trkpt>
      <trkpt lat="47.40097" lon="6.77162">
        <ele>350.95</ele>
        <time>2016-10-09T07:14:49Z</time>
      </trkpt>
      <trkpt lat="47.40076" lon="6.7716">
        <ele>350.52</ele>
        <time>2016-10-09T07:14:54Z</time>
      </trkpt>
      <trkpt lat="47.40057" lon="6.77157">
        <ele>349.58</ele>
        <time>2016-10-09T07:14:59Z</time>
      </trkpt>
      <trkpt lat="47.40037" lon="6.77156">
        <ele>348.09</ele>
        <time>2016-10-09T07:15:04Z</time>
      </trkpt>
      <trkpt lat="47.40016" lon="6.77153">
        <ele>347.26</ele>
        <time>2016-10-09T07:15:09Z</time>
      </trkpt>
      <trkpt lat="47.39996" lon="6.77152">
        <ele>346.15</ele>
        <time>2016-10-09T07:15:14Z</time>
      </trkpt>
      <trkpt lat="47.39978" lon="6.77149">
        <ele>346.32</ele>
        <time>2016-10-09T07:15:19Z</time>
      </trkpt>
      <trkpt lat="47.39956" lon="6.77148">
        <ele>347.71</ele>
        <time>2016-10-09T07:15:25Z</time>
      </trkpt>
      <trkpt lat="47.39936" lon="6.77149">
        <ele>348.15</ele>
        <time>2016-10-09T07:15:30Z</time>
      </trkpt>
      <trkpt lat="47.39915" lon="6.77152">
        <ele>347.9</ele>
        <time>2016-10-09T07:15:35Z</time>
      </trkpt>
      <trkpt lat="47.39895" lon="6.77155">
        <ele>348.65</ele>
        <time>2016-10-09T07:15:40Z</time>
      </trkpt>
      <trkpt lat="47.39875" lon="6.77157">
        <ele>350.14</ele>
        <time>2016-10-09T07:15:45Z</time>
      </trkpt>
      <trkpt lat="47.39855" lon="6.7716">
        <ele>350.64</ele>
        <time>2016-10-09T07:15:50Z</time>
      </trkpt>
      <trkpt lat="47.39832" lon="6.77161">
        <ele>350.29</ele>
        <time>2016-10-09T07:15:56Z</time>
      </trkpt>
      <trkpt lat="47.39814" lon="6.77163">
        <ele>350.3</ele>
        <time>2016-10-09T07:16:01Z</time>
      </trkpt>
      <trkpt lat="47.39795" lon="6.77168">
        <ele>350.94</ele>
        <time>2016-10-09T07:16:06Z</time>
      </trkpt>
      <trkpt lat="47.39787" lon="6.77193">
        <ele>350.17</ele>
        <time>2016-10-09T07:16:13Z</time>
      </trkpt>
      <trkpt lat="47.39769" lon="6.77201">
        <ele>349.78</ele>
        <time>2016-10-09T07:16:19Z</time>
      </trkpt>
      <trkpt lat="47.39749" lon="6.77208">
        <ele>349.6</ele>
        <time>2016-10-09T07:16:26Z</time>
      </trkpt>
      <trkpt lat="47.3973" lon="6.77217">
        <ele>348.38</ele>
        <time>2016-10-09T07:16:31Z</time>
      </trkpt>
      <trkpt lat="47.39712" lon="6.77226">
        <ele>346.83</ele>
        <time>2016-10-09T07:16:35Z</time>
      </trkpt>
      <trkpt lat="47.39691" lon="6.77235">
        <ele>346.38</ele>
        <time>2016-10-09T07:16:40Z</time>
      </trkpt>
      <trkpt lat="47.39671" lon="6.77248">
        <ele>346.58</ele>
        <time>2016-10-09T07:16:45Z</time>
      </trkpt>
      <trkpt lat="47.39653" lon="6.77264">
        <ele>347.03</ele>
        <time>2016-10-09T07:16:51Z</time>
      </trkpt>
      <trkpt lat="47.39632" lon="6.77268">
        <ele>347.38</ele>
        <time>2016-10-09T07:16:56Z</time>
      </trkpt>
      <trkpt lat="47.39612" lon="6.7728">
        <ele>346.97</ele>
        <time>2016-10-09T07:17:01Z</time>
      </trkpt>
      <trkpt lat="47.39592" lon="6.77277">
        <ele>347.19</ele>
        <time>2016-10-09T07:17:06Z</time>
      </trkpt>
      <trkpt lat="47.39577" lon="6.77294">
        <ele>347.32</ele>
        <time>2016-10-09T07:17:12Z</time>
      </trkpt>
      <trkpt lat="47.39562" lon="6.77311">
        <ele>346.7</ele>
        <time>2016-10-09T07:17:17Z</time>
      </trkpt>
      <trkpt lat="47.39547" lon="6.77329">
        <ele>346.87</ele>
        <time>2016-10-09T07:17:22Z</time>
      </trkpt>
      <trkpt lat="47.39527" lon="6.77343">
        <ele>347.33</ele>
        <time>2016-10-09T07:17:27Z</time>
      </trkpt>
      <trkpt lat="47.39506" lon="6.77352">
        <ele>347.76</ele>
        <time>2016-10-09T07:17:32Z</time>
      </trkpt>
      <trkpt lat="47.39486" lon="6.77361">
        <ele>348.35</ele>
        <time>2016-10-09T07:17:37Z</time>
      </trkpt>
      <trkpt lat="47.39466" lon="6.7737">
        <ele>347.91</ele>
        <time>2016-10-09T07:17:42Z</time>
      </trkpt>
      <trkpt lat="47.39445" lon="6.77379">
        <ele>347.49</ele>
        <time>2016-10-09T07:17:47Z</time>
      </trkpt>
      <trkpt lat="47.39428" lon="6.77385">
        <ele>347.83</ele>
        <time>2016-10-09T07:17:51Z</time>
      </trkpt>
      <trkpt lat="47.39406" lon="6.77394">
        <ele>347.89</ele>
        <time>2016-10-09T07:17:56Z</time>
      </trkpt>
      <trkpt lat="47.39385" lon="6.774">
        <ele>348.25</ele>
        <time>2016-10-09T07:18:01Z</time>
      </trkpt>
      <trkpt lat="47.39365" lon="6.77408">
        <ele>348.76</ele>
        <time>2016-10-09T07:18:06Z</time>
      </trkpt>
      <trkpt lat="47.39344" lon="6.77414">
        <ele>348.4</ele>
        <time>2016-10-09T07:18:11Z</time>
      </trkpt>
      <trkpt lat="47.39324" lon="6.77421">
        <ele>348.28</ele>
        <time>2016-10-09T07:18:16Z</time>
      </trkpt>
      <trkpt lat="47.39307" lon="6.77433">
        <ele>349.41</ele>
        <time>2016-10-09T07:18:21Z</time>
      </trkpt>
      <trkpt lat="47.39301" lon="6.77458">
        <ele>349.11</ele>
        <time>2016-10-09T07:18:26Z</time>
      </trkpt>
      <trkpt lat="47.39299" lon="6.77488">
        <ele>347.53</ele>
        <time>2016-10-09T07:18:31Z</time>
      </trkpt>
      <trkpt lat="47.39299" lon="6.77518">
        <ele>347.16</ele>
        <time>2016-10-09T07:18:36Z</time>
      </trkpt>
      <trkpt lat="47.393" lon="6.77547">
        <ele>346.78</ele>
        <time>2016-10-09T07:18:41Z</time>
      </trkpt>
      <trkpt lat="47.39298" lon="6.77578">
        <ele>346.89</ele>
        <time>2016-10-09T07:18:47Z</time>
      </trkpt>
      <trkpt lat="47.39289" lon="6.77606">
        <ele>347.19</ele>
        <time>2016-10-09T07:18:53Z</time>
      </trkpt>
      <trkpt lat="47.39276" lon="6.77626">
        <ele>347.86</ele>
        <time>2016-10-09T07:18:59Z</time>
      </trkpt>
      <trkpt lat="47.39259" lon="6.7764">
        <ele>348.65</ele>
        <time>2016-10-09T07:19:05Z</time>
      </trkpt>
      <trkpt lat="47.39238" lon="6.77643">
        <ele>349.27</ele>
        <time>2016-10-09T07:19:11Z</time>
      </trkpt>
      <trkpt lat="47.39219" lon="6.77646">
        <ele>350.21</ele>
        <time>2016-10-09T07:19:16Z</time>
      </trkpt>
      <trkpt lat="47.39199" lon="6.77652">
        <ele>350.59</ele>
        <time>2016-10-09T07:19:22Z</time>
      </trkpt>
      <trkpt lat="47.3918" lon="6.7766">
        <ele>350.64</ele>
        <time>2016-10-09T07:19:27Z</time>
      </trkpt>
      <trkpt lat="47.3916" lon="6.77668">
        <ele>350.6</ele>
        <time>2016-10-09T07:19:33Z</time>
      </trkpt>
      <trkpt lat="47.39143" lon="6.77682">
        <ele>350.63</ele>
        <time>2016-10-09T07:19:40Z</time>
      </trkpt>
      <trkpt lat="47.39151" lon="6.77709">
        <ele>350.62</ele>
        <time>2016-10-09T07:19:49Z</time>
      </trkpt>
      <trkpt lat="47.39167" lon="6.77728">
        <ele>350.45</ele>
        <time>2016-10-09T07:19:59Z</time>
      </trkpt>
      <trkpt lat="47.39186" lon="6.77734">
        <ele>350.71</ele>
        <time>2016-10-09T07:20:09Z</time>
      </trkpt>
      <trkpt lat="47.39176" lon="6.77757">
        <ele>352.54</ele>
        <time>2016-10-09T07:20:33Z</time>
      </trkpt>
      <trkpt lat="47.39158" lon="6.77764">
        <ele>353.97</ele>
        <time>2016-10-09T07:20:44Z</time>
      </trkpt>
      <trkpt lat="47.39142" lon="6.77776">
        <ele>355.69</ele>
        <time>2016-10-09T07:20:54Z</time>
      </trkpt>
      <trkpt lat="47.39126" lon="6.77791">
        <ele>357.53</ele>
        <time>2016-10-09T07:21:06Z</time>
      </trkpt>
      <trkpt lat="47.39109" lon="6.77806">
        <ele>359.1</ele>
        <time>2016-10-09T07:21:18Z</time>
      </trkpt>
      <trkpt lat="47.39091" lon="6.77821">
        <ele>360.95</ele>
        <time>2016-10-09T07:21:26Z</time>
      </trkpt>
      <trkpt lat="47.39073" lon="6.77831">
        <ele>362.21</ele>
        <time>2016-10-09T07:21:34Z</time>
      </trkpt>
      <trkpt lat="47.39056" lon="6.77842">
        <ele>362.97</ele>
        <time>2016-10-09T07:21:41Z</time>
      </trkpt>
      <trkpt lat="47.39038" lon="6.77855">
        <ele>364.23</ele>
        <time>2016-10-09T07:21:49Z</time>
      </trkpt>
      <trkpt lat="47.39019" lon="6.77865">
        <ele>365.47</ele>
        <time>2016-10-09T07:21:56Z</time>
      </trkpt>
      <trkpt lat="47.38999" lon="6.77878">
        <ele>366.76</ele>
        <time>2016-10-09T07:22:02Z</time>
      </trkpt>
      <trkpt lat="47.38983" lon="6.77891">
        <ele>367.88</ele>
        <time>2016-10-09T07:22:09Z</time>
      </trkpt>
      <trkpt lat="47.38968" lon="6.77911">
        <ele>368.57</ele>
        <time>2016-10-09T07:22:17Z</time>
      </trkpt>
      <trkpt lat="47.38954" lon="6.7793">
        <ele>369.44</ele>
        <time>2016-10-09T07:22:24Z</time>
      </trkpt>
      <trkpt lat="47.38942" lon="6.7795">
        <ele>370.36</ele>
        <time>2016-10-09T07:22:30Z</time>
      </trkpt>
      <trkpt lat="47.38928" lon="6.77971">
        <ele>372.08</ele>
        <time>2016-10-09T07:22:38Z</time>
      </trkpt>
      <trkpt lat="47.38917" lon="6.77995">
        <ele>373.84</ele>
        <time>2016-10-09T07:22:45Z</time>
      </trkpt>
      <trkpt lat="47.38904" lon="6.78016">
        <ele>375.5</ele>
        <time>2016-10-09T07:22:52Z</time>
      </trkpt>
      <trkpt lat="47.38896" lon="6.78042">
        <ele>376.94</ele>
        <time>2016-10-09T07:22:59Z</time>
      </trkpt>
      <trkpt lat="47.38889" lon="6.78067">
        <ele>378.75</ele>
        <time>2016-10-09T07:23:06Z</time>
      </trkpt>
      <trkpt lat="47.38879" lon="6.78093">
        <ele>380.74</ele>
        <time>2016-10-09T07:23:13Z</time>
      </trkpt>
      <trkpt lat="47.38871" lon="6.78117">
        <ele>382.9</ele>
        <time>2016-10-09T07:23:19Z</time>
      </trkpt>
      <trkpt lat="47.38863" lon="6.78144">
        <ele>387.81</ele>
        <time>2016-10-09T07:23:24Z</time>
      </trkpt>
      <trkpt lat="47.38856" lon="6.78173">
        <ele>388.96</ele>
        <time>2016-10-09T07:23:31Z</time>
      </trkpt>
      <trkpt lat="47.38846" lon="6.78199">
        <ele>389.2</ele>
        <time>2016-10-09T07:23:37Z</time>
      </trkpt>
      <trkpt lat="47.38839" lon="6.78225">
        <ele>389.74</ele>
        <time>2016-10-09T07:23:43Z</time>
      </trkpt>
      <trkpt lat="47.38829" lon="6.7825">
        <ele>390.35</ele>
        <time>2016-10-09T07:23:49Z</time>
      </trkpt>
      <trkpt lat="47.3882" lon="6.78273">
        <ele>392.25</ele>
        <time>2016-10-09T07:23:54Z</time>
      </trkpt>
      <trkpt lat="47.38811" lon="6.78297">
        <ele>394.6</ele>
        <time>2016-10-09T07:23:58Z</time>
      </trkpt>
      <trkpt lat="47.38802" lon="6.78322">
        <ele>397.18</ele>
        <time>2016-10-09T07:24:03Z</time>
      </trkpt>
      <trkpt lat="47.38796" lon="6.78348">
        <ele>395.6</ele>
        <time>2016-10-09T07:24:08Z</time>
      </trkpt>
      <trkpt lat="47.38789" lon="6.78378">
        <ele>392.32</ele>
        <time>2016-10-09T07:24:14Z</time>
      </trkpt>
      <trkpt lat="47.38782" lon="6.78403">
        <ele>391.28</ele>
        <time>2016-10-09T07:24:19Z</time>
      </trkpt>
      <trkpt lat="47.38775" lon="6.78431">
        <ele>390.58</ele>
        <time>2016-10-09T07:24:25Z</time>
      </trkpt>
      <trkpt lat="47.38767" lon="6.7846">
        <ele>389.71</ele>
        <time>2016-10-09T07:24:31Z</time>
      </trkpt>
      <trkpt lat="47.38758" lon="6.7849">
        <ele>389.15</ele>
        <time>2016-10-09T07:24:37Z</time>
      </trkpt>
      <trkpt lat="47.38754" lon="6.78518">
        <ele>389.18</ele>
        <time>2016-10-09T07:24:43Z</time>
      </trkpt>
      <trkpt lat="47.38749" lon="6.78544">
        <ele>389.14</ele>
        <time>2016-10-09T07:24:49Z</time>
      </trkpt>
      <trkpt lat="47.38745" lon="6.78575">
        <ele>388.68</ele>
        <time>2016-10-09T07:24:55Z</time>
      </trkpt>
      <trkpt lat="47.38738" lon="6.78601">
        <ele>388.2</ele>
        <time>2016-10-09T07:25:00Z</time>
      </trkpt>
      <trkpt lat="47.3873" lon="6.7863">
        <ele>388.26</ele>
        <time>2016-10-09T07:25:06Z</time>
      </trkpt>
      <trkpt lat="47.38724" lon="6.78657">
        <ele>387.95</ele>
        <time>2016-10-09T07:25:12Z</time>
      </trkpt>
      <trkpt lat="47.38715" lon="6.78681">
        <ele>389.24</ele>
        <time>2016-10-09T07:25:17Z</time>
      </trkpt>
      <trkpt lat="47.38708" lon="6.78707">
        <ele>390.38</ele>
        <time>2016-10-09T07:25:23Z</time>
      </trkpt>
      <trkpt lat="47.38703" lon="6.78735">
        <ele>391.96</ele>
        <time>2016-10-09T07:25:29Z</time>
      </trkpt>
      <trkpt lat="47.38699" lon="6.78763">
        <ele>393.11</ele>
        <time>2016-10-09T07:25:34Z</time>
      </trkpt>
      <trkpt lat="47.38695" lon="6.78793">
        <ele>397.42</ele>
        <time>2016-10-09T07:25:39Z</time>
      </trkpt>
      <trkpt lat="47.38693" lon="6.78821">
        <ele>400.56</ele>
        <time>2016-10-09T07:25:43Z</time>
      </trkpt>
      <trkpt lat="47.3869" lon="6.78852">
        <ele>400.39</ele>
        <time>2016-10-09T07:25:48Z</time>
      </trkpt>
      <trkpt lat="47.38688" lon="6.78881">
        <ele>400.36</ele>
        <time>2016-10-09T07:25:52Z</time>
      </trkpt>
      <trkpt lat="47.38686" lon="6.78908">
        <ele>402.6</ele>
        <time>2016-10-09T07:25:56Z</time>
      </trkpt>
      <trkpt lat="47.38685" lon="6.78936">
        <ele>402.52</ele>
        <time>2016-10-09T07:26:00Z</time>
      </trkpt>
      <trkpt lat="47.38685" lon="6.78969">
        <ele>402.14</ele>
        <time>2016-10-09T07:26:05Z</time>
      </trkpt>
      <trkpt lat="47.38686" lon="6.78999">
        <ele>400.92</ele>
        <time>2016-10-09T07:26:10Z</time>
      </trkpt>
      <trkpt lat="47.38686" lon="6.79031">
        <ele>398.03</ele>
        <time>2016-10-09T07:26:15Z</time>
      </trkpt>
      <trkpt lat="47.38686" lon="6.79058">
        <ele>398.21</ele>
        <time>2016-10-09T07:26:19Z</time>
      </trkpt>
      <trkpt lat="47.38686" lon="6.79089">
        <ele>399.3</ele>
        <time>2016-10-09T07:26:24Z</time>
      </trkpt>
      <trkpt lat="47.38686" lon="6.79117">
        <ele>399.59</ele>
        <time>2016-10-09T07:26:28Z</time>
      </trkpt>
      <trkpt lat="47.38688" lon="6.7915">
        <ele>400.18</ele>
        <time>2016-10-09T07:26:33Z</time>
      </trkpt>
      <trkpt lat="47.38692" lon="6.79179">
        <ele>400.95</ele>
        <time>2016-10-09T07:26:38Z</time>
      </trkpt>
      <trkpt lat="47.38696" lon="6.7921">
        <ele>401.04</ele>
        <time>2016-10-09T07:26:43Z</time>
      </trkpt>
      <trkpt lat="47.38701" lon="6.79239">
        <ele>401</ele>
        <time>2016-10-09T07:26:48Z</time>
      </trkpt>
      <trkpt lat="47.38701" lon="6.79272">
        <ele>399.3</ele>
        <time>2016-10-09T07:26:54Z</time>
      </trkpt>
      <trkpt lat="47.38704" lon="6.79304">
        <ele>397.78</ele>
        <time>2016-10-09T07:26:59Z</time>
      </trkpt>
      <trkpt lat="47.38707" lon="6.79333">
        <ele>397.26</ele>
        <time>2016-10-09T07:27:04Z</time>
      </trkpt>
      <trkpt lat="47.3871" lon="6.79359">
        <ele>394.85</ele>
        <time>2016-10-09T07:27:08Z</time>
      </trkpt>
      <trkpt lat="47.38716" lon="6.79386">
        <ele>392.85</ele>
        <time>2016-10-09T07:27:12Z</time>
      </trkpt>
      <trkpt lat="47.3872" lon="6.79417">
        <ele>391.17</ele>
        <time>2016-10-09T07:27:16Z</time>
      </trkpt>
      <trkpt lat="47.38725" lon="6.79447">
        <ele>390.01</ele>
        <time>2016-10-09T07:27:20Z</time>
      </trkpt>
      <trkpt lat="47.38729" lon="6.79478">
        <ele>393.34</ele>
        <time>2016-10-09T07:27:24Z</time>
      </trkpt>
      <trkpt lat="47.38733" lon="6.79505">
        <ele>395.9</ele>
        <time>2016-10-09T07:27:27Z</time>
      </trkpt>
      <trkpt lat="47.38737" lon="6.79537">
        <ele>396.84</ele>
        <time>2016-10-09T07:27:31Z</time>
      </trkpt>
      <trkpt lat="47.38748" lon="6.79561">
        <ele>397.39</ele>
        <time>2016-10-09T07:27:35Z</time>
      </trkpt>
      <trkpt lat="47.38765" lon="6.79576">
        <ele>397.16</ele>
        <time>2016-10-09T07:27:39Z</time>
      </trkpt>
      <trkpt lat="47.38785" lon="6.79588">
        <ele>396.89</ele>
        <time>2016-10-09T07:27:43Z</time>
      </trkpt>
      <trkpt lat="47.38802" lon="6.79599">
        <ele>395.86</ele>
        <time>2016-10-09T07:27:47Z</time>
      </trkpt>
      <trkpt lat="47.38819" lon="6.7961">
        <ele>395.53</ele>
        <time>2016-10-09T07:27:51Z</time>
      </trkpt>
      <trkpt lat="47.38838" lon="6.79623">
        <ele>395.36</ele>
        <time>2016-10-09T07:27:57Z</time>
      </trkpt>
      <trkpt lat="47.38857" lon="6.79626">
        <ele>395.1</ele>
        <time>2016-10-09T07:28:02Z</time>
      </trkpt>
      <trkpt lat="47.38875" lon="6.79627">
        <ele>395.22</ele>
        <time>2016-10-09T07:28:07Z</time>
      </trkpt>
      <trkpt lat="47.38897" lon="6.79625">
        <ele>394.44</ele>
        <time>2016-10-09T07:28:13Z</time>
      </trkpt>
      <trkpt lat="47.38912" lon="6.7965">
        <ele>393.69</ele>
        <time>2016-10-09T07:28:16Z</time>
      </trkpt>
      <trkpt lat="47.38922" lon="6.79674">
        <ele>390.47</ele>
        <time>2016-10-09T07:28:19Z</time>
      </trkpt>
      <trkpt lat="47.38937" lon="6.7969">
        <ele>389.73</ele>
        <time>2016-10-09T07:28:22Z</time>
      </trkpt>
      <trkpt lat="47.38953" lon="6.79708">
        <ele>389.68</ele>
        <time>2016-10-09T07:28:25Z</time>
      </trkpt>
      <trkpt lat="47.38973" lon="6.79724">
        <ele>390.92</ele>
        <time>2016-10-09T07:28:29Z</time>
      </trkpt>
      <trkpt lat="47.38988" lon="6.79741">
        <ele>391.21</ele>
        <time>2016-10-09T07:28:37Z</time>
      </trkpt>
      <trkpt lat="47.38996" lon="6.79768">
        <ele>392</ele>
        <time>2016-10-09T07:29:31Z</time>
      </trkpt>
      <trkpt lat="47.39004" lon="6.79795">
        <ele>391.38</ele>
        <time>2016-10-09T07:29:39Z</time>
      </trkpt>
      <trkpt lat="47.3901" lon="6.79822">
        <ele>391.02</ele>
        <time>2016-10-09T07:29:46Z</time>
      </trkpt>
      <trkpt lat="47.38999" lon="6.79844">
        <ele>391.74</ele>
        <time>2016-10-09T07:29:58Z</time>
      </trkpt>
      <trkpt lat="47.3898" lon="6.7984">
        <ele>391.85</ele>
        <time>2016-10-09T07:30:04Z</time>
      </trkpt>
      <trkpt lat="47.38962" lon="6.79834">
        <ele>392.36</ele>
        <time>2016-10-09T07:30:10Z</time>
      </trkpt>
      <trkpt lat="47.38944" lon="6.79827">
        <ele>392.77</ele>
        <time>2016-10-09T07:30:14Z</time>
      </trkpt>
      <trkpt lat="47.38926" lon="6.79815">
        <ele>393.73</ele>
        <time>2016-10-09T07:30:18Z</time>
      </trkpt>
      <trkpt lat="47.38908" lon="6.79802">
        <ele>391.67</ele>
        <time>2016-10-09T07:30:23Z</time>
      </trkpt>
      <trkpt lat="47.38889" lon="6.79794">
        <ele>390.17</ele>
        <time>2016-10-09T07:30:28Z</time>
      </trkpt>
      <trkpt lat="47.38869" lon="6.79783">
        <ele>390.41</ele>
        <time>2016-10-09T07:30:33Z</time>
      </trkpt>
      <trkpt lat="47.38853" lon="6.7977">
        <ele>391.16</ele>
        <time>2016-10-09T07:30:37Z</time>
      </trkpt>
      <trkpt lat="47.38837" lon="6.79757">
        <ele>388.72</ele>
        <time>2016-10-09T07:31:10Z</time>
      </trkpt>
      <trkpt lat="47.38819" lon="6.79745">
        <ele>387.88</ele>
        <time>2016-10-09T07:31:16Z</time>
      </trkpt>
      <trkpt lat="47.388" lon="6.79734">
        <ele>387</ele>
        <time>2016-10-09T07:31:22Z</time>
      </trkpt>
      <trkpt lat="47.38781" lon="6.79723">
        <ele>385.19</ele>
        <time>2016-10-09T07:31:26Z</time>
      </trkpt>
      <trkpt lat="47.38763" lon="6.79719">
        <ele>384.92</ele>
        <time>2016-10-09T07:31:33Z</time>
      </trkpt>
      <trkpt lat="47.38779" lon="6.79737">
        <ele>385.71</ele>
        <time>2016-10-09T07:32:00Z</time>
      </trkpt>
      <trkpt lat="47.38794" lon="6.79753">
        <ele>386.13</ele>
        <time>2016-10-09T07:32:09Z</time>
      </trkpt>
      <trkpt lat="47.38811" lon="6.79764">
        <ele>386.49</ele>
        <time>2016-10-09T07:32:19Z</time>
      </trkpt>
      <trkpt lat="47.38829" lon="6.79776">
        <ele>386.54</ele>
        <time>2016-10-09T07:32:28Z</time>
      </trkpt>
      <trkpt lat="47.38846" lon="6.79788">
        <ele>387.05</ele>
        <time>2016-10-09T07:32:38Z</time>
      </trkpt>
      <trkpt lat="47.38862" lon="6.79803">
        <ele>387.96</ele>
        <time>2016-10-09T07:32:48Z</time>
      </trkpt>
      <trkpt lat="47.38878" lon="6.7982">
        <ele>388.29</ele>
        <time>2016-10-09T07:32:59Z</time>
      </trkpt>
      <trkpt lat="47.38894" lon="6.79834">
        <ele>388.82</ele>
        <time>2016-10-09T07:33:10Z</time>
      </trkpt>
      <trkpt lat="47.38912" lon="6.79846">
        <ele>389.67</ele>
        <time>2016-10-09T07:33:21Z</time>
      </trkpt>
      <trkpt lat="47.38929" lon="6.7986">
        <ele>391.14</ele>
        <time>2016-10-09T07:33:30Z</time>
      </trkpt>
      <trkpt lat="47.38947" lon="6.79868">
        <ele>392.73</ele>
        <time>2016-10-09T07:33:37Z</time>
      </trkpt>
      <trkpt lat="47.38961" lon="6.79886">
        <ele>393.15</ele>
        <time>2016-10-09T07:33:45Z</time>
      </trkpt>
      <trkpt lat="47.38978" lon="6.79901">
        <ele>394.22</ele>
        <time>2016-10-09T07:33:53Z</time>
      </trkpt>
      <trkpt lat="47.38995" lon="6.79914">
        <ele>395.76</ele>
        <time>2016-10-09T07:34:03Z</time>
      </trkpt>
      <trkpt lat="47.39013" lon="6.79925">
        <ele>397.69</ele>
        <time>2016-10-09T07:34:11Z</time>
      </trkpt>
      <trkpt lat="47.39032" lon="6.79914">
        <ele>399.61</ele>
        <time>2016-10-09T07:34:19Z</time>
      </trkpt>
      <trkpt lat="47.39046" lon="6.79894">
        <ele>402.01</ele>
        <time>2016-10-09T07:34:26Z</time>
      </trkpt>
      <trkpt lat="47.39061" lon="6.79876">
        <ele>404.36</ele>
        <time>2016-10-09T07:34:33Z</time>
      </trkpt>
      <trkpt lat="47.3908" lon="6.79862">
        <ele>406.81</ele>
        <time>2016-10-09T07:34:41Z</time>
      </trkpt>
      <trkpt lat="47.39099" lon="6.79857">
        <ele>408.92</ele>
        <time>2016-10-09T07:34:49Z</time>
      </trkpt>
      <trkpt lat="47.39117" lon="6.79862">
        <ele>411.23</ele>
        <time>2016-10-09T07:34:57Z</time>
      </trkpt>
      <trkpt lat="47.39136" lon="6.79869">
        <ele>412.84</ele>
        <time>2016-10-09T07:35:06Z</time>
      </trkpt>
      <trkpt lat="47.39154" lon="6.79873">
        <ele>414.58</ele>
        <time>2016-10-09T07:35:15Z</time>
      </trkpt>
      <trkpt lat="47.3917" lon="6.79888">
        <ele>416.22</ele>
        <time>2016-10-09T07:35:22Z</time>
      </trkpt>
      <trkpt lat="47.39184" lon="6.79907">
        <ele>417.75</ele>
        <time>2016-10-09T07:35:31Z</time>
      </trkpt>
      <trkpt lat="47.39198" lon="6.79926">
        <ele>418.78</ele>
        <time>2016-10-09T07:35:39Z</time>
      </trkpt>
      <trkpt lat="47.39213" lon="6.79943">
        <ele>419.11</ele>
        <time>2016-10-09T07:35:48Z</time>
      </trkpt>
      <trkpt lat="47.39228" lon="6.79959">
        <ele>418.86</ele>
        <time>2016-10-09T07:35:57Z</time>
      </trkpt>
      <trkpt lat="47.39246" lon="6.79976">
        <ele>419.99</ele>
        <time>2016-10-09T07:36:04Z</time>
      </trkpt>
      <trkpt lat="47.39261" lon="6.79993">
        <ele>421.55</ele>
        <time>2016-10-09T07:36:13Z</time>
      </trkpt>
      <trkpt lat="47.39278" lon="6.80006">
        <ele>423.95</ele>
        <time>2016-10-09T07:36:22Z</time>
      </trkpt>
      <trkpt lat="47.39294" lon="6.80022">
        <ele>426.42</ele>
        <time>2016-10-09T07:36:31Z</time>
      </trkpt>
      <trkpt lat="47.39309" lon="6.80037">
        <ele>427.71</ele>
        <time>2016-10-09T07:36:38Z</time>
      </trkpt>
      <trkpt lat="47.39325" lon="6.80053">
        <ele>429.65</ele>
        <time>2016-10-09T07:36:47Z</time>
      </trkpt>
      <trkpt lat="47.39343" lon="6.80065">
        <ele>431.18</ele>
        <time>2016-10-09T07:36:56Z</time>
      </trkpt>
      <trkpt lat="47.3936" lon="6.80077">
        <ele>432.88</ele>
        <time>2016-10-09T07:37:05Z</time>
      </trkpt>
      <trkpt lat="47.39377" lon="6.80092">
        <ele>434.34</ele>
        <time>2016-10-09T07:37:13Z</time>
      </trkpt>
      <trkpt lat="47.39392" lon="6.80112">
        <ele>436.35</ele>
        <time>2016-10-09T07:37:23Z</time>
      </trkpt>
      <trkpt lat="47.39407" lon="6.80125">
        <ele>437.55</ele>
        <time>2016-10-09T07:37:31Z</time>
      </trkpt>
      <trkpt lat="47.39424" lon="6.80138">
        <ele>438.23</ele>
        <time>2016-10-09T07:37:39Z</time>
      </trkpt>
      <trkpt lat="47.39441" lon="6.80151">
        <ele>439.64</ele>
        <time>2016-10-09T07:37:48Z</time>
      </trkpt>
      <trkpt lat="47.39458" lon="6.80158">
        <ele>440.76</ele>
        <time>2016-10-09T07:37:56Z</time>
      </trkpt>
      <trkpt lat="47.39477" lon="6.80169">
        <ele>442.2</ele>
        <time>2016-10-09T07:38:05Z</time>
      </trkpt>
      <trkpt lat="47.39492" lon="6.80182">
        <ele>443.65</ele>
        <time>2016-10-09T07:38:14Z</time>
      </trkpt>
      <trkpt lat="47.3951" lon="6.80194">
        <ele>445.14</ele>
        <time>2016-10-09T07:38:23Z</time>
      </trkpt>
      <trkpt lat="47.39526" lon="6.80205">
        <ele>447.46</ele>
        <time>2016-10-09T07:38:32Z</time>
      </trkpt>
      <trkpt lat="47.39542" lon="6.80217">
        <ele>449.91</ele>
        <time>2016-10-09T07:38:42Z</time>
      </trkpt>
      <trkpt lat="47.39559" lon="6.80227">
        <ele>451.93</ele>
        <time>2016-10-09T07:38:49Z</time>
      </trkpt>
      <trkpt lat="47.39577" lon="6.80236">
        <ele>454.79</ele>
        <time>2016-10-09T07:38:58Z</time>
      </trkpt>
      <trkpt lat="47.39593" lon="6.8025">
        <ele>456.82</ele>
        <time>2016-10-09T07:39:06Z</time>
      </trkpt>
      <trkpt lat="47.39613" lon="6.80259">
        <ele>460.03</ele>
        <time>2016-10-09T07:39:16Z</time>
      </trkpt>
      <trkpt lat="47.39634" lon="6.80269">
        <ele>462.54</ele>
        <time>2016-10-09T07:39:25Z</time>
      </trkpt>
      <trkpt lat="47.39651" lon="6.80281">
        <ele>463.54</ele>
        <time>2016-10-09T07:39:31Z</time>
      </trkpt>
      <trkpt lat="47.39668" lon="6.80293">
        <ele>463.6</ele>
        <time>2016-10-09T07:39:41Z</time>
      </trkpt>
      <trkpt lat="47.39686" lon="6.80307">
        <ele>464.29</ele>
        <time>2016-10-09T07:39:50Z</time>
      </trkpt>
      <trkpt lat="47.39703" lon="6.80319">
        <ele>465.46</ele>
        <time>2016-10-09T07:40:00Z</time>
      </trkpt>
      <trkpt lat="47.39717" lon="6.80336">
        <ele>466.53</ele>
        <time>2016-10-09T07:40:07Z</time>
      </trkpt>
      <trkpt lat="47.39728" lon="6.8036">
        <ele>467.48</ele>
        <time>2016-10-09T07:40:16Z</time>
      </trkpt>
      <trkpt lat="47.39746" lon="6.80373">
        <ele>469.82</ele>
        <time>2016-10-09T07:40:27Z</time>
      </trkpt>
      <trkpt lat="47.39765" lon="6.80373">
        <ele>472.34</ele>
        <time>2016-10-09T07:40:36Z</time>
      </trkpt>
      <trkpt lat="47.39784" lon="6.8037">
        <ele>474.41</ele>
        <time>2016-10-09T07:40:45Z</time>
      </trkpt>
      <trkpt lat="47.39802" lon="6.8036">
        <ele>476.13</ele>
        <time>2016-10-09T07:40:52Z</time>
      </trkpt>
      <trkpt lat="47.39821" lon="6.80355">
        <ele>477.98</ele>
        <time>2016-10-09T07:41:01Z</time>
      </trkpt>
      <trkpt lat="47.39839" lon="6.8036">
        <ele>479.37</ele>
        <time>2016-10-09T07:41:09Z</time>
      </trkpt>
      <trkpt lat="47.39858" lon="6.80379">
        <ele>481.08</ele>
        <time>2016-10-09T07:41:20Z</time>
      </trkpt>
      <trkpt lat="47.39875" lon="6.80398">
        <ele>483.26</ele>
        <time>2016-10-09T07:41:30Z</time>
      </trkpt>
      <trkpt lat="47.3989" lon="6.80414">
        <ele>484.12</ele>
        <time>2016-10-09T07:41:37Z</time>
      </trkpt>
      <trkpt lat="47.39904" lon="6.80438">
        <ele>485.01</ele>
        <time>2016-10-09T07:41:45Z</time>
      </trkpt>
      <trkpt lat="47.39914" lon="6.80462">
        <ele>485.69</ele>
        <time>2016-10-09T07:41:51Z</time>
      </trkpt>
      <trkpt lat="47.39923" lon="6.80489">
        <ele>486.21</ele>
        <time>2016-10-09T07:42:00Z</time>
      </trkpt>
      <trkpt lat="47.39929" lon="6.80517">
        <ele>486.57</ele>
        <time>2016-10-09T07:42:09Z</time>
      </trkpt>
      <trkpt lat="47.39934" lon="6.80544">
        <ele>485.97</ele>
        <time>2016-10-09T07:42:18Z</time>
      </trkpt>
      <trkpt lat="47.3994" lon="6.80569">
        <ele>485.33</ele>
        <time>2016-10-09T07:42:27Z</time>
      </trkpt>
      <trkpt lat="47.39945" lon="6.80596">
        <ele>486.11</ele>
        <time>2016-10-09T07:42:33Z</time>
      </trkpt>
      <trkpt lat="47.39953" lon="6.80627">
        <ele>488.96</ele>
        <time>2016-10-09T07:42:42Z</time>
      </trkpt>
      <trkpt lat="47.3996" lon="6.80655">
        <ele>491.2</ele>
        <time>2016-10-09T07:42:50Z</time>
      </trkpt>
      <trkpt lat="47.39965" lon="6.80681">
        <ele>493.37</ele>
        <time>2016-10-09T07:42:58Z</time>
      </trkpt>
      <trkpt lat="47.39971" lon="6.8071">
        <ele>495.19</ele>
        <time>2016-10-09T07:43:06Z</time>
      </trkpt>
      <trkpt lat="47.39977" lon="6.80736">
        <ele>497.03</ele>
        <time>2016-10-09T07:43:15Z</time>
      </trkpt>
      <trkpt lat="47.39979" lon="6.80764">
        <ele>497.93</ele>
        <time>2016-10-09T07:43:24Z</time>
      </trkpt>
      <trkpt lat="47.39984" lon="6.80792">
        <ele>498.95</ele>
        <time>2016-10-09T07:43:33Z</time>
      </trkpt>
      <trkpt lat="47.39993" lon="6.80817">
        <ele>499.65</ele>
        <time>2016-10-09T07:43:40Z</time>
      </trkpt>
      <trkpt lat="47.40001" lon="6.80842">
        <ele>500.57</ele>
        <time>2016-10-09T07:43:48Z</time>
      </trkpt>
      <trkpt lat="47.40006" lon="6.8087">
        <ele>501.13</ele>
        <time>2016-10-09T07:43:58Z</time>
      </trkpt>
      <trkpt lat="47.40013" lon="6.80896">
        <ele>501.8</ele>
        <time>2016-10-09T07:44:05Z</time>
      </trkpt>
      <trkpt lat="47.40021" lon="6.80922">
        <ele>502.69</ele>
        <time>2016-10-09T07:44:14Z</time>
      </trkpt>
      <trkpt lat="47.40032" lon="6.80946">
        <ele>504.53</ele>
        <time>2016-10-09T07:44:22Z</time>
      </trkpt>
      <trkpt lat="47.40044" lon="6.80969">
        <ele>506.14</ele>
        <time>2016-10-09T07:44:31Z</time>
      </trkpt>
      <trkpt lat="47.40053" lon="6.80992">
        <ele>507.95</ele>
        <time>2016-10-09T07:44:39Z</time>
      </trkpt>
      <trkpt lat="47.40064" lon="6.81019">
        <ele>510.4</ele>
        <time>2016-10-09T07:44:49Z</time>
      </trkpt>
      <trkpt lat="47.40076" lon="6.81041">
        <ele>511.77</ele>
        <time>2016-10-09T07:44:58Z</time>
      </trkpt>
      <trkpt lat="47.40087" lon="6.81063">
        <ele>512.64</ele>
        <time>2016-10-09T07:45:07Z</time>
      </trkpt>
      <trkpt lat="47.40101" lon="6.81082">
        <ele>514.16</ele>
        <time>2016-10-09T07:45:17Z</time>
      </trkpt>
      <trkpt lat="47.40115" lon="6.81101">
        <ele>515.02</ele>
        <time>2016-10-09T07:45:26Z</time>
      </trkpt>
      <trkpt lat="47.40129" lon="6.81122">
        <ele>516.57</ele>
        <time>2016-10-09T07:45:36Z</time>
      </trkpt>
      <trkpt lat="47.40148" lon="6.81123">
        <ele>519.25</ele>
        <time>2016-10-09T07:45:43Z</time>
      </trkpt>
      <trkpt lat="47.40167" lon="6.81116">
        <ele>522.42</ele>
        <time>2016-10-09T07:45:52Z</time>
      </trkpt>
      <trkpt lat="47.40184" lon="6.8112">
        <ele>524.35</ele>
        <time>2016-10-09T07:45:59Z</time>
      </trkpt>
      <trkpt lat="47.40202" lon="6.81128">
        <ele>525.35</ele>
        <time>2016-10-09T07:46:05Z</time>
      </trkpt>
      <trkpt lat="47.40218" lon="6.81141">
        <ele>526.31</ele>
        <time>2016-10-09T07:46:13Z</time>
      </trkpt>
      <trkpt lat="47.40236" lon="6.81156">
        <ele>527.86</ele>
        <time>2016-10-09T07:46:22Z</time>
      </trkpt>
      <trkpt lat="47.40253" lon="6.81171">
        <ele>528.57</ele>
        <time>2016-10-09T07:46:31Z</time>
      </trkpt>
      <trkpt lat="47.40267" lon="6.81189">
        <ele>530.49</ele>
        <time>2016-10-09T07:46:40Z</time>
      </trkpt>
      <trkpt lat="47.40284" lon="6.81203">
        <ele>531.73</ele>
        <time>2016-10-09T07:46:49Z</time>
      </trkpt>
      <trkpt lat="47.40303" lon="6.81194">
        <ele>532.67</ele>
        <time>2016-10-09T07:46:58Z</time>
      </trkpt>
      <trkpt lat="47.40323" lon="6.81196">
        <ele>533.77</ele>
        <time>2016-10-09T07:47:06Z</time>
      </trkpt>
      <trkpt lat="47.4034" lon="6.81206">
        <ele>533.98</ele>
        <time>2016-10-09T07:47:13Z</time>
      </trkpt>
      <trkpt lat="47.40357" lon="6.81218">
        <ele>534.53</ele>
        <time>2016-10-09T07:47:19Z</time>
      </trkpt>
      <trkpt lat="47.40372" lon="6.81234">
        <ele>535.46</ele>
        <time>2016-10-09T07:47:25Z</time>
      </trkpt>
      <trkpt lat="47.40386" lon="6.81251">
        <ele>536.73</ele>
        <time>2016-10-09T07:47:32Z</time>
      </trkpt>
      <trkpt lat="47.40404" lon="6.81261">
        <ele>537.79</ele>
        <time>2016-10-09T07:47:41Z</time>
      </trkpt>
      <trkpt lat="47.40418" lon="6.81244">
        <ele>538.97</ele>
        <time>2016-10-09T07:47:48Z</time>
      </trkpt>
      <trkpt lat="47.40429" lon="6.81218">
        <ele>541.07</ele>
        <time>2016-10-09T07:47:56Z</time>
      </trkpt>
      <trkpt lat="47.40439" lon="6.81195">
        <ele>542.62</ele>
        <time>2016-10-09T07:48:03Z</time>
      </trkpt>
      <trkpt lat="47.4045" lon="6.8117">
        <ele>544.34</ele>
        <time>2016-10-09T07:48:11Z</time>
      </trkpt>
      <trkpt lat="47.40459" lon="6.81144">
        <ele>545.51</ele>
        <time>2016-10-09T07:48:19Z</time>
      </trkpt>
      <trkpt lat="47.40467" lon="6.8112">
        <ele>546.63</ele>
        <time>2016-10-09T07:48:26Z</time>
      </trkpt>
      <trkpt lat="47.40468" lon="6.8109">
        <ele>547.39</ele>
        <time>2016-10-09T07:48:34Z</time>
      </trkpt>
      <trkpt lat="47.40469" lon="6.8106">
        <ele>547.93</ele>
        <time>2016-10-09T07:48:43Z</time>
      </trkpt>
      <trkpt lat="47.40479" lon="6.81037">
        <ele>548.65</ele>
        <time>2016-10-09T07:48:51Z</time>
      </trkpt>
      <trkpt lat="47.40498" lon="6.81032">
        <ele>550.22</ele>
        <time>2016-10-09T07:48:59Z</time>
      </trkpt>
      <trkpt lat="47.40514" lon="6.8105">
        <ele>551.79</ele>
        <time>2016-10-09T07:49:07Z</time>
      </trkpt>
      <trkpt lat="47.40521" lon="6.81075">
        <ele>560.85</ele>
        <time>2016-10-09T07:55:20Z</time>
      </trkpt>
      <trkpt lat="47.40526" lon="6.81048">
        <ele>561.4</ele>
        <time>2016-10-09T07:55:31Z</time>
      </trkpt>
      <trkpt lat="47.4053" lon="6.81021">
        <ele>561.63</ele>
        <time>2016-10-09T07:55:38Z</time>
      </trkpt>
      <trkpt lat="47.40533" lon="6.80994">
        <ele>562.3</ele>
        <time>2016-10-09T07:55:46Z</time>
      </trkpt>
      <trkpt lat="47.40537" lon="6.80968">
        <ele>562.21</ele>
        <time>2016-10-09T07:55:52Z</time>
      </trkpt>
      <trkpt lat="47.40543" lon="6.80939">
        <ele>561.96</ele>
        <time>2016-10-09T07:55:58Z</time>
      </trkpt>
      <trkpt lat="47.40545" lon="6.8091">
        <ele>561.43</ele>
        <time>2016-10-09T07:56:04Z</time>
      </trkpt>
      <trkpt lat="47.40544" lon="6.80878">
        <ele>559.94</ele>
        <time>2016-10-09T07:56:10Z</time>
      </trkpt>
      <trkpt lat="47.40541" lon="6.80848">
        <ele>560.06</ele>
        <time>2016-10-09T07:56:15Z</time>
      </trkpt>
      <trkpt lat="47.40536" lon="6.80821">
        <ele>560.11</ele>
        <time>2016-10-09T07:56:21Z</time>
      </trkpt>
      <trkpt lat="47.40528" lon="6.80795">
        <ele>560.98</ele>
        <time>2016-10-09T07:56:26Z</time>
      </trkpt>
      <trkpt lat="47.40517" lon="6.80773">
        <ele>559.29</ele>
        <time>2016-10-09T07:56:30Z</time>
      </trkpt>
      <trkpt lat="47.40505" lon="6.80748">
        <ele>557.93</ele>
        <time>2016-10-09T07:56:36Z</time>
      </trkpt>
      <trkpt lat="47.40494" lon="6.80722">
        <ele>559.13</ele>
        <time>2016-10-09T07:56:41Z</time>
      </trkpt>
      <trkpt lat="47.40484" lon="6.80691">
        <ele>558.39</ele>
        <time>2016-10-09T07:56:46Z</time>
      </trkpt>
      <trkpt lat="47.40476" lon="6.80666">
        <ele>556.39</ele>
        <time>2016-10-09T07:56:50Z</time>
      </trkpt>
      <trkpt lat="47.40469" lon="6.80641">
        <ele>555</ele>
        <time>2016-10-09T07:56:55Z</time>
      </trkpt>
      <trkpt lat="47.40461" lon="6.80617">
        <ele>554.99</ele>
        <time>2016-10-09T07:57:00Z</time>
      </trkpt>
      <trkpt lat="47.4045" lon="6.80591">
        <ele>556.22</ele>
        <time>2016-10-09T07:57:05Z</time>
      </trkpt>
      <trkpt lat="47.4044" lon="6.80563">
        <ele>558</ele>
        <time>2016-10-09T07:57:10Z</time>
      </trkpt>
      <trkpt lat="47.40432" lon="6.80533">
        <ele>558.89</ele>
        <time>2016-10-09T07:57:15Z</time>
      </trkpt>
      <trkpt lat="47.40426" lon="6.80504">
        <ele>559.63</ele>
        <time>2016-10-09T07:57:20Z</time>
      </trkpt>
      <trkpt lat="47.40421" lon="6.80475">
        <ele>562.55</ele>
        <time>2016-10-09T07:57:25Z</time>
      </trkpt>
      <trkpt lat="47.40417" lon="6.80446">
        <ele>562.28</ele>
        <time>2016-10-09T07:57:31Z</time>
      </trkpt>
      <trkpt lat="47.40413" lon="6.80419">
        <ele>561.01</ele>
        <time>2016-10-09T07:57:36Z</time>
      </trkpt>
      <trkpt lat="47.40405" lon="6.80392">
        <ele>559.6</ele>
        <time>2016-10-09T07:57:41Z</time>
      </trkpt>
      <trkpt lat="47.404" lon="6.80363">
        <ele>559.19</ele>
        <time>2016-10-09T07:57:47Z</time>
      </trkpt>
      <trkpt lat="47.40399" lon="6.80332">
        <ele>559.05</ele>
        <time>2016-10-09T07:57:53Z</time>
      </trkpt>
      <trkpt lat="47.40394" lon="6.80301">
        <ele>559.15</ele>
        <time>2016-10-09T07:57:59Z</time>
      </trkpt>
      <trkpt lat="47.40386" lon="6.80275">
        <ele>559.38</ele>
        <time>2016-10-09T07:58:04Z</time>
      </trkpt>
      <trkpt lat="47.40375" lon="6.80252">
        <ele>559.7</ele>
        <time>2016-10-09T07:58:09Z</time>
      </trkpt>
      <trkpt lat="47.40365" lon="6.8023">
        <ele>559.82</ele>
        <time>2016-10-09T07:58:15Z</time>
      </trkpt>
      <trkpt lat="47.40355" lon="6.80204">
        <ele>560.29</ele>
        <time>2016-10-09T07:58:21Z</time>
      </trkpt>
      <trkpt lat="47.40343" lon="6.80179">
        <ele>561.38</ele>
        <time>2016-10-09T07:58:27Z</time>
      </trkpt>
      <trkpt lat="47.40333" lon="6.80154">
        <ele>562.43</ele>
        <time>2016-10-09T07:58:33Z</time>
      </trkpt>
      <trkpt lat="47.40323" lon="6.80127">
        <ele>564.27</ele>
        <time>2016-10-09T07:58:38Z</time>
      </trkpt>
      <trkpt lat="47.40316" lon="6.80101">
        <ele>565.92</ele>
        <time>2016-10-09T07:58:43Z</time>
      </trkpt>
      <trkpt lat="47.40308" lon="6.80078">
        <ele>567.43</ele>
        <time>2016-10-09T07:58:48Z</time>
      </trkpt>
      <trkpt lat="47.40298" lon="6.80051">
        <ele>568.78</ele>
        <time>2016-10-09T07:58:53Z</time>
      </trkpt>
      <trkpt lat="47.40288" lon="6.80024">
        <ele>567.55</ele>
        <time>2016-10-09T07:58:58Z</time>
      </trkpt>
      <trkpt lat="47.4028" lon="6.79996">
        <ele>566.65</ele>
        <time>2016-10-09T07:59:03Z</time>
      </trkpt>
      <trkpt lat="47.40274" lon="6.79969">
        <ele>565.65</ele>
        <time>2016-10-09T07:59:08Z</time>
      </trkpt>
      <trkpt lat="47.40267" lon="6.7994">
        <ele>566.87</ele>
        <time>2016-10-09T07:59:14Z</time>
      </trkpt>
      <trkpt lat="47.40265" lon="6.79913">
        <ele>567.74</ele>
        <time>2016-10-09T07:59:20Z</time>
      </trkpt>
      <trkpt lat="47.40267" lon="6.79885">
        <ele>568.15</ele>
        <time>2016-10-09T07:59:26Z</time>
      </trkpt>
      <trkpt lat="47.40269" lon="6.79857">
        <ele>568.18</ele>
        <time>2016-10-09T07:59:33Z</time>
      </trkpt>
      <trkpt lat="47.40271" lon="6.7983">
        <ele>568.05</ele>
        <time>2016-10-09T07:59:40Z</time>
      </trkpt>
      <trkpt lat="47.40288" lon="6.79818">
        <ele>568.93</ele>
        <time>2016-10-09T07:59:48Z</time>
      </trkpt>
      <trkpt lat="47.40308" lon="6.79814">
        <ele>570.35</ele>
        <time>2016-10-09T07:59:55Z</time>
      </trkpt>
      <trkpt lat="47.40327" lon="6.79817">
        <ele>571.72</ele>
        <time>2016-10-09T08:00:01Z</time>
      </trkpt>
      <trkpt lat="47.40347" lon="6.79821">
        <ele>573.56</ele>
        <time>2016-10-09T08:00:07Z</time>
      </trkpt>
      <trkpt lat="47.40367" lon="6.79821">
        <ele>575.19</ele>
        <time>2016-10-09T08:00:13Z</time>
      </trkpt>
      <trkpt lat="47.40387" lon="6.79812">
        <ele>576.11</ele>
        <time>2016-10-09T08:00:18Z</time>
      </trkpt>
      <trkpt lat="47.40407" lon="6.79803">
        <ele>576.51</ele>
        <time>2016-10-09T08:00:23Z</time>
      </trkpt>
      <trkpt lat="47.40426" lon="6.79802">
        <ele>579.11</ele>
        <time>2016-10-09T08:00:27Z</time>
      </trkpt>
      <trkpt lat="47.40443" lon="6.79808">
        <ele>579.04</ele>
        <time>2016-10-09T08:00:31Z</time>
      </trkpt>
      <trkpt lat="47.40461" lon="6.79797">
        <ele>579.22</ele>
        <time>2016-10-09T08:00:36Z</time>
      </trkpt>
      <trkpt lat="47.40475" lon="6.79778">
        <ele>579.75</ele>
        <time>2016-10-09T08:00:42Z</time>
      </trkpt>
      <trkpt lat="47.40493" lon="6.79765">
        <ele>580.44</ele>
        <time>2016-10-09T08:00:48Z</time>
      </trkpt>
      <trkpt lat="47.40512" lon="6.79752">
        <ele>581.81</ele>
        <time>2016-10-09T08:00:53Z</time>
      </trkpt>
      <trkpt lat="47.4053" lon="6.7975">
        <ele>582.29</ele>
        <time>2016-10-09T08:00:58Z</time>
      </trkpt>
      <trkpt lat="47.40549" lon="6.7975">
        <ele>583.24</ele>
        <time>2016-10-09T08:01:02Z</time>
      </trkpt>
      <trkpt lat="47.40567" lon="6.79743">
        <ele>583.86</ele>
        <time>2016-10-09T08:01:07Z</time>
      </trkpt>
      <trkpt lat="47.40585" lon="6.79739">
        <ele>584.35</ele>
        <time>2016-10-09T08:01:12Z</time>
      </trkpt>
      <trkpt lat="47.40605" lon="6.7973">
        <ele>585.71</ele>
        <time>2016-10-09T08:01:17Z</time>
      </trkpt>
      <trkpt lat="47.40622" lon="6.79719">
        <ele>587.35</ele>
        <time>2016-10-09T08:01:21Z</time>
      </trkpt>
      <trkpt lat="47.4064" lon="6.79707">
        <ele>587.82</ele>
        <time>2016-10-09T08:01:25Z</time>
      </trkpt>
      <trkpt lat="47.40659" lon="6.79696">
        <ele>587.41</ele>
        <time>2016-10-09T08:01:29Z</time>
      </trkpt>
      <trkpt lat="47.40671" lon="6.79672">
        <ele>586.8</ele>
        <time>2016-10-09T08:01:40Z</time>
      </trkpt>
      <trkpt lat="47.40691" lon="6.79668">
        <ele>586.32</ele>
        <time>2016-10-09T08:01:47Z</time>
      </trkpt>
      <trkpt lat="47.40709" lon="6.79675">
        <ele>584.93</ele>
        <time>2016-10-09T08:01:52Z</time>
      </trkpt>
      <trkpt lat="47.40729" lon="6.79682">
        <ele>584.44</ele>
        <time>2016-10-09T08:01:56Z</time>
      </trkpt>
      <trkpt lat="47.40748" lon="6.79693">
        <ele>584.66</ele>
        <time>2016-10-09T08:02:02Z</time>
      </trkpt>
      <trkpt lat="47.40768" lon="6.79706">
        <ele>587.2</ele>
        <time>2016-10-09T08:02:07Z</time>
      </trkpt>
      <trkpt lat="47.40784" lon="6.79722">
        <ele>588.03</ele>
        <time>2016-10-09T08:02:12Z</time>
      </trkpt>
      <trkpt lat="47.40797" lon="6.79742">
        <ele>587.05</ele>
        <time>2016-10-09T08:02:17Z</time>
      </trkpt>
      <trkpt lat="47.40811" lon="6.79761">
        <ele>585.2</ele>
        <time>2016-10-09T08:02:22Z</time>
      </trkpt>
      <trkpt lat="47.40829" lon="6.79777">
        <ele>584.1</ele>
        <time>2016-10-09T08:02:27Z</time>
      </trkpt>
      <trkpt lat="47.40846" lon="6.79794">
        <ele>583.58</ele>
        <time>2016-10-09T08:02:33Z</time>
      </trkpt>
      <trkpt lat="47.40862" lon="6.79813">
        <ele>582.37</ele>
        <time>2016-10-09T08:02:38Z</time>
      </trkpt>
      <trkpt lat="47.40875" lon="6.79831">
        <ele>582.88</ele>
        <time>2016-10-09T08:02:42Z</time>
      </trkpt>
      <trkpt lat="47.40891" lon="6.79851">
        <ele>585.43</ele>
        <time>2016-10-09T08:02:45Z</time>
      </trkpt>
      <trkpt lat="47.40909" lon="6.7987">
        <ele>586.38</ele>
        <time>2016-10-09T08:02:50Z</time>
      </trkpt>
      <trkpt lat="47.40922" lon="6.79891">
        <ele>587.78</ele>
        <time>2016-10-09T08:02:54Z</time>
      </trkpt>
      <trkpt lat="47.40936" lon="6.79912">
        <ele>587.55</ele>
        <time>2016-10-09T08:02:57Z</time>
      </trkpt>
      <trkpt lat="47.40951" lon="6.79928">
        <ele>586.9</ele>
        <time>2016-10-09T08:03:01Z</time>
      </trkpt>
      <trkpt lat="47.40969" lon="6.7994">
        <ele>585.32</ele>
        <time>2016-10-09T08:03:06Z</time>
      </trkpt>
      <trkpt lat="47.40985" lon="6.79952">
        <ele>584.49</ele>
        <time>2016-10-09T08:03:13Z</time>
      </trkpt>
      <trkpt lat="47.41002" lon="6.79966">
        <ele>583.16</ele>
        <time>2016-10-09T08:03:17Z</time>
      </trkpt>
      <trkpt lat="47.41014" lon="6.79988">
        <ele>582.73</ele>
        <time>2016-10-09T08:03:22Z</time>
      </trkpt>
      <trkpt lat="47.41024" lon="6.80016">
        <ele>582.75</ele>
        <time>2016-10-09T08:03:28Z</time>
      </trkpt>
      <trkpt lat="47.41031" lon="6.80041">
        <ele>582.5</ele>
        <time>2016-10-09T08:03:34Z</time>
      </trkpt>
      <trkpt lat="47.41046" lon="6.80059">
        <ele>582.54</ele>
        <time>2016-10-09T08:03:46Z</time>
      </trkpt>
      <trkpt lat="47.41064" lon="6.80066">
        <ele>581.92</ele>
        <time>2016-10-09T08:03:54Z</time>
      </trkpt>
      <trkpt lat="47.41078" lon="6.80036">
        <ele>580.67</ele>
        <time>2016-10-09T08:03:58Z</time>
      </trkpt>
      <trkpt lat="47.41097" lon="6.80027">
        <ele>580.05</ele>
        <time>2016-10-09T08:04:03Z</time>
      </trkpt>
      <trkpt lat="47.41118" lon="6.80022">
        <ele>578.26</ele>
        <time>2016-10-09T08:04:09Z</time>
      </trkpt>
      <trkpt lat="47.41138" lon="6.80013">
        <ele>571.27</ele>
        <time>2016-10-09T08:04:13Z</time>
      </trkpt>
      <trkpt lat="47.41158" lon="6.80006">
        <ele>565.14</ele>
        <time>2016-10-09T08:04:17Z</time>
      </trkpt>
      <trkpt lat="47.41176" lon="6.80003">
        <ele>562.98</ele>
        <time>2016-10-09T08:04:21Z</time>
      </trkpt>
      <trkpt lat="47.41195" lon="6.80008">
        <ele>561.93</ele>
        <time>2016-10-09T08:04:25Z</time>
      </trkpt>
      <trkpt lat="47.41215" lon="6.80015">
        <ele>560.81</ele>
        <time>2016-10-09T08:04:29Z</time>
      </trkpt>
      <trkpt lat="47.41233" lon="6.80026">
        <ele>559.22</ele>
        <time>2016-10-09T08:04:33Z</time>
      </trkpt>
      <trkpt lat="47.41246" lon="6.80045">
        <ele>558.02</ele>
        <time>2016-10-09T08:04:37Z</time>
      </trkpt>
      <trkpt lat="47.41266" lon="6.80053">
        <ele>558.04</ele>
        <time>2016-10-09T08:04:41Z</time>
      </trkpt>
      <trkpt lat="47.41289" lon="6.8006">
        <ele>558.98</ele>
        <time>2016-10-09T08:04:45Z</time>
      </trkpt>
      <trkpt lat="47.41307" lon="6.80064">
        <ele>558.12</ele>
        <time>2016-10-09T08:04:48Z</time>
      </trkpt>
      <trkpt lat="47.41331" lon="6.80069">
        <ele>559.38</ele>
        <time>2016-10-09T08:04:51Z</time>
      </trkpt>
      <trkpt lat="47.41352" lon="6.80077">
        <ele>559.21</ele>
        <time>2016-10-09T08:04:54Z</time>
      </trkpt>
      <trkpt lat="47.41372" lon="6.80082">
        <ele>557.04</ele>
        <time>2016-10-09T08:04:57Z</time>
      </trkpt>
      <trkpt lat="47.41392" lon="6.80087">
        <ele>555.5</ele>
        <time>2016-10-09T08:05:00Z</time>
      </trkpt>
      <trkpt lat="47.4141" lon="6.801">
        <ele>553.84</ele>
        <time>2016-10-09T08:05:04Z</time>
      </trkpt>
      <trkpt lat="47.4143" lon="6.80117">
        <ele>553.44</ele>
        <time>2016-10-09T08:05:08Z</time>
      </trkpt>
      <trkpt lat="47.41435" lon="6.80149">
        <ele>553.46</ele>
        <time>2016-10-09T08:05:12Z</time>
      </trkpt>
      <trkpt lat="47.4144" lon="6.80179">
        <ele>554.03</ele>
        <time>2016-10-09T08:05:16Z</time>
      </trkpt>
      <trkpt lat="47.41458" lon="6.80169">
        <ele>552.92</ele>
        <time>2016-10-09T08:05:24Z</time>
      </trkpt>
      <trkpt lat="47.41477" lon="6.80159">
        <ele>550.1</ele>
        <time>2016-10-09T08:05:28Z</time>
      </trkpt>
      <trkpt lat="47.41499" lon="6.80159">
        <ele>546.93</ele>
        <time>2016-10-09T08:05:32Z</time>
      </trkpt>
      <trkpt lat="47.4152" lon="6.80169">
        <ele>544.23</ele>
        <time>2016-10-09T08:05:36Z</time>
      </trkpt>
      <trkpt lat="47.4154" lon="6.80175">
        <ele>542.92</ele>
        <time>2016-10-09T08:05:39Z</time>
      </trkpt>
      <trkpt lat="47.41552" lon="6.80198">
        <ele>542.23</ele>
        <time>2016-10-09T08:05:42Z</time>
      </trkpt>
      <trkpt lat="47.41561" lon="6.80222">
        <ele>544.49</ele>
        <time>2016-10-09T08:05:45Z</time>
      </trkpt>
      <trkpt lat="47.41579" lon="6.8023">
        <ele>546.07</ele>
        <time>2016-10-09T08:05:48Z</time>
      </trkpt>
      <trkpt lat="47.416" lon="6.80246">
        <ele>546.67</ele>
        <time>2016-10-09T08:05:51Z</time>
      </trkpt>
      <trkpt lat="47.4162" lon="6.80263">
        <ele>545.6</ele>
        <time>2016-10-09T08:05:54Z</time>
      </trkpt>
      <trkpt lat="47.41639" lon="6.8028">
        <ele>545.29</ele>
        <time>2016-10-09T08:05:57Z</time>
      </trkpt>
      <trkpt lat="47.41666" lon="6.80286">
        <ele>544.65</ele>
        <time>2016-10-09T08:06:00Z</time>
      </trkpt>
      <trkpt lat="47.41686" lon="6.80293">
        <ele>545.8</ele>
        <time>2016-10-09T08:06:02Z</time>
      </trkpt>
      <trkpt lat="47.41705" lon="6.80296">
        <ele>546.4</ele>
        <time>2016-10-09T08:06:04Z</time>
      </trkpt>
      <trkpt lat="47.41725" lon="6.80303">
        <ele>546.88</ele>
        <time>2016-10-09T08:06:06Z</time>
      </trkpt>
      <trkpt lat="47.41746" lon="6.80312">
        <ele>547.19</ele>
        <time>2016-10-09T08:06:08Z</time>
      </trkpt>
      <trkpt lat="47.41765" lon="6.80318">
        <ele>546.96</ele>
        <time>2016-10-09T08:06:10Z</time>
      </trkpt>
      <trkpt lat="47.41785" lon="6.80325">
        <ele>545.37</ele>
        <time>2016-10-09T08:06:12Z</time>
      </trkpt>
      <trkpt lat="47.41805" lon="6.80326">
        <ele>543.39</ele>
        <time>2016-10-09T08:06:14Z</time>
      </trkpt>
      <trkpt lat="47.41825" lon="6.80322">
        <ele>542.17</ele>
        <time>2016-10-09T08:06:16Z</time>
      </trkpt>
      <trkpt lat="47.41847" lon="6.80318">
        <ele>540.75</ele>
        <time>2016-10-09T08:06:19Z</time>
      </trkpt>
      <trkpt lat="47.41862" lon="6.80335">
        <ele>539.25</ele>
        <time>2016-10-09T08:06:25Z</time>
      </trkpt>
      <trkpt lat="47.41882" lon="6.8034">
        <ele>538.25</ele>
        <time>2016-10-09T08:06:33Z</time>
      </trkpt>
      <trkpt lat="47.41898" lon="6.80328">
        <ele>536.98</ele>
        <time>2016-10-09T08:06:52Z</time>
      </trkpt>
      <trkpt lat="47.41878" lon="6.80334">
        <ele>535.07</ele>
        <time>2016-10-09T08:08:29Z</time>
      </trkpt>
      <trkpt lat="47.41859" lon="6.80331">
        <ele>534.47</ele>
        <time>2016-10-09T08:08:38Z</time>
      </trkpt>
      <trkpt lat="47.41842" lon="6.80322">
        <ele>533.98</ele>
        <time>2016-10-09T08:08:46Z</time>
      </trkpt>
      <trkpt lat="47.41836" lon="6.8029">
        <ele>533.2</ele>
        <time>2016-10-09T08:08:52Z</time>
      </trkpt>
      <trkpt lat="47.41836" lon="6.80263">
        <ele>532.16</ele>
        <time>2016-10-09T08:08:57Z</time>
      </trkpt>
      <trkpt lat="47.41837" lon="6.80232">
        <ele>526.09</ele>
        <time>2016-10-09T08:09:02Z</time>
      </trkpt>
      <trkpt lat="47.41856" lon="6.80226">
        <ele>522.14</ele>
        <time>2016-10-09T08:09:15Z</time>
      </trkpt>
      <trkpt lat="47.41868" lon="6.80202">
        <ele>519.61</ele>
        <time>2016-10-09T08:10:15Z</time>
      </trkpt>
      <trkpt lat="47.41858" lon="6.80178">
        <ele>518.45</ele>
        <time>2016-10-09T08:10:25Z</time>
      </trkpt>
      <trkpt lat="47.4184" lon="6.8017">
        <ele>512.23</ele>
        <time>2016-10-09T08:10:31Z</time>
      </trkpt>
      <trkpt lat="47.41819" lon="6.80165">
        <ele>511.83</ele>
        <time>2016-10-09T08:10:37Z</time>
      </trkpt>
      <trkpt lat="47.418" lon="6.80148">
        <ele>509.84</ele>
        <time>2016-10-09T08:10:42Z</time>
      </trkpt>
      <trkpt lat="47.41782" lon="6.80134">
        <ele>506.64</ele>
        <time>2016-10-09T08:10:46Z</time>
      </trkpt>
      <trkpt lat="47.41764" lon="6.80117">
        <ele>505.4</ele>
        <time>2016-10-09T08:10:50Z</time>
      </trkpt>
      <trkpt lat="47.41749" lon="6.801">
        <ele>503.42</ele>
        <time>2016-10-09T08:10:54Z</time>
      </trkpt>
      <trkpt lat="47.41733" lon="6.80082">
        <ele>501.31</ele>
        <time>2016-10-09T08:10:59Z</time>
      </trkpt>
      <trkpt lat="47.41717" lon="6.80068">
        <ele>501.42</ele>
        <time>2016-10-09T08:11:05Z</time>
      </trkpt>
      <trkpt lat="47.417" lon="6.80051">
        <ele>501.91</ele>
        <time>2016-10-09T08:11:14Z</time>
      </trkpt>
      <trkpt lat="47.41686" lon="6.8003">
        <ele>502.07</ele>
        <time>2016-10-09T08:11:20Z</time>
      </trkpt>
      <trkpt lat="47.4167" lon="6.80009">
        <ele>502.04</ele>
        <time>2016-10-09T08:11:26Z</time>
      </trkpt>
      <trkpt lat="47.41656" lon="6.79992">
        <ele>501.82</ele>
        <time>2016-10-09T08:11:31Z</time>
      </trkpt>
      <trkpt lat="47.4164" lon="6.79973">
        <ele>500.51</ele>
        <time>2016-10-09T08:11:36Z</time>
      </trkpt>
      <trkpt lat="47.41625" lon="6.79951">
        <ele>499.14</ele>
        <time>2016-10-09T08:11:41Z</time>
      </trkpt>
      <trkpt lat="47.41612" lon="6.79931">
        <ele>496.76</ele>
        <time>2016-10-09T08:11:45Z</time>
      </trkpt>
      <trkpt lat="47.41598" lon="6.79907">
        <ele>495.93</ele>
        <time>2016-10-09T08:11:49Z</time>
      </trkpt>
      <trkpt lat="47.41585" lon="6.79888">
        <ele>494.75</ele>
        <time>2016-10-09T08:11:52Z</time>
      </trkpt>
      <trkpt lat="47.41586" lon="6.79861">
        <ele>492.34</ele>
        <time>2016-10-09T08:11:56Z</time>
      </trkpt>
      <trkpt lat="47.41604" lon="6.79868">
        <ele>490.06</ele>
        <time>2016-10-09T08:12:01Z</time>
      </trkpt>
      <trkpt lat="47.41621" lon="6.79881">
        <ele>489.17</ele>
        <time>2016-10-09T08:12:05Z</time>
      </trkpt>
      <trkpt lat="47.41637" lon="6.79895">
        <ele>489.79</ele>
        <time>2016-10-09T08:12:09Z</time>
      </trkpt>
      <trkpt lat="47.41656" lon="6.79911">
        <ele>491.04</ele>
        <time>2016-10-09T08:12:14Z</time>
      </trkpt>
      <trkpt lat="47.41671" lon="6.79927">
        <ele>490.33</ele>
        <time>2016-10-09T08:12:19Z</time>
      </trkpt>
      <trkpt lat="47.41687" lon="6.79939">
        <ele>489.81</ele>
        <time>2016-10-09T08:12:23Z</time>
      </trkpt>
      <trkpt lat="47.41705" lon="6.79945">
        <ele>489.08</ele>
        <time>2016-10-09T08:12:31Z</time>
      </trkpt>
      <trkpt lat="47.41725" lon="6.79959">
        <ele>485.23</ele>
        <time>2016-10-09T08:12:38Z</time>
      </trkpt>
      <trkpt lat="47.41735" lon="6.79983">
        <ele>482.31</ele>
        <time>2016-10-09T08:12:44Z</time>
      </trkpt>
      <trkpt lat="47.41752" lon="6.79998">
        <ele>480.32</ele>
        <time>2016-10-09T08:12:50Z</time>
      </trkpt>
      <trkpt lat="47.41767" lon="6.80015">
        <ele>480.97</ele>
        <time>2016-10-09T08:13:09Z</time>
      </trkpt>
      <trkpt lat="47.41784" lon="6.8003">
        <ele>481.65</ele>
        <time>2016-10-09T08:13:23Z</time>
      </trkpt>
      <trkpt lat="47.41802" lon="6.80037">
        <ele>482.23</ele>
        <time>2016-10-09T08:13:32Z</time>
      </trkpt>
      <trkpt lat="47.41819" lon="6.80047">
        <ele>483.87</ele>
        <time>2016-10-09T08:13:38Z</time>
      </trkpt>
      <trkpt lat="47.41842" lon="6.80043">
        <ele>483.2</ele>
        <time>2016-10-09T08:13:42Z</time>
      </trkpt>
      <trkpt lat="47.41859" lon="6.80032">
        <ele>482.71</ele>
        <time>2016-10-09T08:13:45Z</time>
      </trkpt>
      <trkpt lat="47.41869" lon="6.80007">
        <ele>482.19</ele>
        <time>2016-10-09T08:13:52Z</time>
      </trkpt>
      <trkpt lat="47.41878" lon="6.79982">
        <ele>481.05</ele>
        <time>2016-10-09T08:13:59Z</time>
      </trkpt>
      <trkpt lat="47.41886" lon="6.79955">
        <ele>480.09</ele>
        <time>2016-10-09T08:14:06Z</time>
      </trkpt>
      <trkpt lat="47.41892" lon="6.79929">
        <ele>479.56</ele>
        <time>2016-10-09T08:14:13Z</time>
      </trkpt>
      <trkpt lat="47.41896" lon="6.799">
        <ele>478.68</ele>
        <time>2016-10-09T08:14:20Z</time>
      </trkpt>
      <trkpt lat="47.41897" lon="6.79872">
        <ele>478.39</ele>
        <time>2016-10-09T08:14:26Z</time>
      </trkpt>
      <trkpt lat="47.41898" lon="6.79844">
        <ele>478.46</ele>
        <time>2016-10-09T08:14:32Z</time>
      </trkpt>
      <trkpt lat="47.41905" lon="6.79814">
        <ele>478.34</ele>
        <time>2016-10-09T08:14:37Z</time>
      </trkpt>
      <trkpt lat="47.41908" lon="6.79786">
        <ele>478</ele>
        <time>2016-10-09T08:14:42Z</time>
      </trkpt>
      <trkpt lat="47.41912" lon="6.79756">
        <ele>477.54</ele>
        <time>2016-10-09T08:14:49Z</time>
      </trkpt>
      <trkpt lat="47.41914" lon="6.79727">
        <ele>477.84</ele>
        <time>2016-10-09T08:14:54Z</time>
      </trkpt>
      <trkpt lat="47.41917" lon="6.79695">
        <ele>477.6</ele>
        <time>2016-10-09T08:15:00Z</time>
      </trkpt>
      <trkpt lat="47.41921" lon="6.79669">
        <ele>477.78</ele>
        <time>2016-10-09T08:15:05Z</time>
      </trkpt>
      <trkpt lat="47.41924" lon="6.79641">
        <ele>478.11</ele>
        <time>2016-10-09T08:15:11Z</time>
      </trkpt>
      <trkpt lat="47.41937" lon="6.79618">
        <ele>478.37</ele>
        <time>2016-10-09T08:15:16Z</time>
      </trkpt>
      <trkpt lat="47.41946" lon="6.7959">
        <ele>478.58</ele>
        <time>2016-10-09T08:15:22Z</time>
      </trkpt>
      <trkpt lat="47.41952" lon="6.79565">
        <ele>479.21</ele>
        <time>2016-10-09T08:15:27Z</time>
      </trkpt>
      <trkpt lat="47.41962" lon="6.79538">
        <ele>483.46</ele>
        <time>2016-10-09T08:15:32Z</time>
      </trkpt>
      <trkpt lat="47.41973" lon="6.79516">
        <ele>486.03</ele>
        <time>2016-10-09T08:15:36Z</time>
      </trkpt>
      <trkpt lat="47.41988" lon="6.79497">
        <ele>487.37</ele>
        <time>2016-10-09T08:15:40Z</time>
      </trkpt>
      <trkpt lat="47.42008" lon="6.79489">
        <ele>487.88</ele>
        <time>2016-10-09T08:15:44Z</time>
      </trkpt>
      <trkpt lat="47.42029" lon="6.79489">
        <ele>488.53</ele>
        <time>2016-10-09T08:15:48Z</time>
      </trkpt>
      <trkpt lat="47.4205" lon="6.79487">
        <ele>487.69</ele>
        <time>2016-10-09T08:15:52Z</time>
      </trkpt>
      <trkpt lat="47.42073" lon="6.79479">
        <ele>486.94</ele>
        <time>2016-10-09T08:15:56Z</time>
      </trkpt>
      <trkpt lat="47.42094" lon="6.79469">
        <ele>487.08</ele>
        <time>2016-10-09T08:15:59Z</time>
      </trkpt>
      <trkpt lat="47.42122" lon="6.79464">
        <ele>485.8</ele>
        <time>2016-10-09T08:16:02Z</time>
      </trkpt>
      <trkpt lat="47.42148" lon="6.79466">
        <ele>482.32</ele>
        <time>2016-10-09T08:16:05Z</time>
      </trkpt>
      <trkpt lat="47.42171" lon="6.79469">
        <ele>478.66</ele>
        <time>2016-10-09T08:16:08Z</time>
      </trkpt>
      <trkpt lat="47.42194" lon="6.79472">
        <ele>476.2</ele>
        <time>2016-10-09T08:16:11Z</time>
      </trkpt>
      <trkpt lat="47.42217" lon="6.79474">
        <ele>473.05</ele>
        <time>2016-10-09T08:16:14Z</time>
      </trkpt>
      <trkpt lat="47.42238" lon="6.79478">
        <ele>471.04</ele>
        <time>2016-10-09T08:16:17Z</time>
      </trkpt>
      <trkpt lat="47.42256" lon="6.79482">
        <ele>473.22</ele>
        <time>2016-10-09T08:16:20Z</time>
      </trkpt>
      <trkpt lat="47.4228" lon="6.79485">
        <ele>474.8</ele>
        <time>2016-10-09T08:16:24Z</time>
      </trkpt>
      <trkpt lat="47.42301" lon="6.79488">
        <ele>473.2</ele>
        <time>2016-10-09T08:16:28Z</time>
      </trkpt>
      <trkpt lat="47.42321" lon="6.79493">
        <ele>470.99</ele>
        <time>2016-10-09T08:16:32Z</time>
      </trkpt>
      <trkpt lat="47.42339" lon="6.79499">
        <ele>470.32</ele>
        <time>2016-10-09T08:16:37Z</time>
      </trkpt>
      <trkpt lat="47.4236" lon="6.79503">
        <ele>470</ele>
        <time>2016-10-09T08:16:42Z</time>
      </trkpt>
      <trkpt lat="47.42378" lon="6.79508">
        <ele>471.32</ele>
        <time>2016-10-09T08:16:46Z</time>
      </trkpt>
      <trkpt lat="47.42398" lon="6.79516">
        <ele>470.3</ele>
        <time>2016-10-09T08:16:50Z</time>
      </trkpt>
      <trkpt lat="47.42416" lon="6.79523">
        <ele>470.13</ele>
        <time>2016-10-09T08:16:54Z</time>
      </trkpt>
      <trkpt lat="47.42437" lon="6.79529">
        <ele>471</ele>
        <time>2016-10-09T08:16:59Z</time>
      </trkpt>
      <trkpt lat="47.42459" lon="6.79535">
        <ele>470.72</ele>
        <time>2016-10-09T08:17:04Z</time>
      </trkpt>
      <trkpt lat="47.42479" lon="6.7954">
        <ele>470.68</ele>
        <time>2016-10-09T08:17:09Z</time>
      </trkpt>
      <trkpt lat="47.42499" lon="6.79547">
        <ele>471.61</ele>
        <time>2016-10-09T08:17:14Z</time>
      </trkpt>
      <trkpt lat="47.42519" lon="6.79548">
        <ele>473.42</ele>
        <time>2016-10-09T08:17:19Z</time>
      </trkpt>
      <trkpt lat="47.4254" lon="6.79546">
        <ele>474.19</ele>
        <time>2016-10-09T08:17:24Z</time>
      </trkpt>
      <trkpt lat="47.42559" lon="6.79544">
        <ele>475.07</ele>
        <time>2016-10-09T08:17:28Z</time>
      </trkpt>
      <trkpt lat="47.42579" lon="6.79541">
        <ele>477.94</ele>
        <time>2016-10-09T08:17:32Z</time>
      </trkpt>
      <trkpt lat="47.42598" lon="6.79536">
        <ele>480.19</ele>
        <time>2016-10-09T08:17:36Z</time>
      </trkpt>
      <trkpt lat="47.42619" lon="6.79541">
        <ele>482.22</ele>
        <time>2016-10-09T08:17:42Z</time>
      </trkpt>
      <trkpt lat="47.42637" lon="6.79547">
        <ele>484</ele>
        <time>2016-10-09T08:17:47Z</time>
      </trkpt>
      <trkpt lat="47.42658" lon="6.79547">
        <ele>485.19</ele>
        <time>2016-10-09T08:17:51Z</time>
      </trkpt>
      <trkpt lat="47.4268" lon="6.79551">
        <ele>486.59</ele>
        <time>2016-10-09T08:17:55Z</time>
      </trkpt>
      <trkpt lat="47.42701" lon="6.79557">
        <ele>486.39</ele>
        <time>2016-10-09T08:18:01Z</time>
      </trkpt>
      <trkpt lat="47.42722" lon="6.79559">
        <ele>487.69</ele>
        <time>2016-10-09T08:18:06Z</time>
      </trkpt>
      <trkpt lat="47.42741" lon="6.79563">
        <ele>489.75</ele>
        <time>2016-10-09T08:18:10Z</time>
      </trkpt>
      <trkpt lat="47.4276" lon="6.79569">
        <ele>489.21</ele>
        <time>2016-10-09T08:18:14Z</time>
      </trkpt>
      <trkpt lat="47.42778" lon="6.79571">
        <ele>489.68</ele>
        <time>2016-10-09T08:18:18Z</time>
      </trkpt>
      <trkpt lat="47.42799" lon="6.79575">
        <ele>488.82</ele>
        <time>2016-10-09T08:18:22Z</time>
      </trkpt>
      <trkpt lat="47.42819" lon="6.79573">
        <ele>489.01</ele>
        <time>2016-10-09T08:18:25Z</time>
      </trkpt>
      <trkpt lat="47.42841" lon="6.79575">
        <ele>487.73</ele>
        <time>2016-10-09T08:18:28Z</time>
      </trkpt>
      <trkpt lat="47.42866" lon="6.79576">
        <ele>486.53</ele>
        <time>2016-10-09T08:18:32Z</time>
      </trkpt>
      <trkpt lat="47.42884" lon="6.79583">
        <ele>486.99</ele>
        <time>2016-10-09T08:18:35Z</time>
      </trkpt>
      <trkpt lat="47.42904" lon="6.79589">
        <ele>487.14</ele>
        <time>2016-10-09T08:18:39Z</time>
      </trkpt>
      <trkpt lat="47.42925" lon="6.7959">
        <ele>487.87</ele>
        <time>2016-10-09T08:18:45Z</time>
      </trkpt>
      <trkpt lat="47.42946" lon="6.79591">
        <ele>488.36</ele>
        <time>2016-10-09T08:18:51Z</time>
      </trkpt>
      <trkpt lat="47.42967" lon="6.79591">
        <ele>488.45</ele>
        <time>2016-10-09T08:18:57Z</time>
      </trkpt>
      <trkpt lat="47.42986" lon="6.79593">
        <ele>488.65</ele>
        <time>2016-10-09T08:19:02Z</time>
      </trkpt>
      <trkpt lat="47.43003" lon="6.79583">
        <ele>488.71</ele>
        <time>2016-10-09T08:19:12Z</time>
      </trkpt>
      <trkpt lat="47.43019" lon="6.79573">
        <ele>488.83</ele>
        <time>2016-10-09T08:23:49Z</time>
      </trkpt>
      <trkpt lat="47.43035" lon="6.79587">
        <ele>492.11</ele>
        <time>2016-10-09T08:25:50Z</time>
      </trkpt>
      <trkpt lat="47.43054" lon="6.79591">
        <ele>492.45</ele>
        <time>2016-10-09T08:25:58Z</time>
      </trkpt>
      <trkpt lat="47.43072" lon="6.79593">
        <ele>492.62</ele>
        <time>2016-10-09T08:26:04Z</time>
      </trkpt>
      <trkpt lat="47.43092" lon="6.79591">
        <ele>492.96</ele>
        <time>2016-10-09T08:26:11Z</time>
      </trkpt>
      <trkpt lat="47.43113" lon="6.79586">
        <ele>493.62</ele>
        <time>2016-10-09T08:26:17Z</time>
      </trkpt>
      <trkpt lat="47.4313" lon="6.79607">
        <ele>494.35</ele>
        <time>2016-10-09T08:26:23Z</time>
      </trkpt>
      <trkpt lat="47.4315" lon="6.7961">
        <ele>494.18</ele>
        <time>2016-10-09T08:26:28Z</time>
      </trkpt>
      <trkpt lat="47.43165" lon="6.79585">
        <ele>492.02</ele>
        <time>2016-10-09T08:26:32Z</time>
      </trkpt>
      <trkpt lat="47.43182" lon="6.79567">
        <ele>488.72</ele>
        <time>2016-10-09T08:26:36Z</time>
      </trkpt>
      <trkpt lat="47.43204" lon="6.79564">
        <ele>485.58</ele>
        <time>2016-10-09T08:26:41Z</time>
      </trkpt>
      <trkpt lat="47.43226" lon="6.79572">
        <ele>486.18</ele>
        <time>2016-10-09T08:26:45Z</time>
      </trkpt>
      <trkpt lat="47.43247" lon="6.79567">
        <ele>485.27</ele>
        <time>2016-10-09T08:26:49Z</time>
      </trkpt>
      <trkpt lat="47.43266" lon="6.7957">
        <ele>485.28</ele>
        <time>2016-10-09T08:26:53Z</time>
      </trkpt>
      <trkpt lat="47.43284" lon="6.79569">
        <ele>485.36</ele>
        <time>2016-10-09T08:26:57Z</time>
      </trkpt>
      <trkpt lat="47.43307" lon="6.79563">
        <ele>486.14</ele>
        <time>2016-10-09T08:27:02Z</time>
      </trkpt>
      <trkpt lat="47.43324" lon="6.79555">
        <ele>486.77</ele>
        <time>2016-10-09T08:27:05Z</time>
      </trkpt>
      <trkpt lat="47.43345" lon="6.79547">
        <ele>487.33</ele>
        <time>2016-10-09T08:27:09Z</time>
      </trkpt>
      <trkpt lat="47.43365" lon="6.79542">
        <ele>486.99</ele>
        <time>2016-10-09T08:27:13Z</time>
      </trkpt>
      <trkpt lat="47.43386" lon="6.79532">
        <ele>483.55</ele>
        <time>2016-10-09T08:27:17Z</time>
      </trkpt>
      <trkpt lat="47.43411" lon="6.79531">
        <ele>480.38</ele>
        <time>2016-10-09T08:27:20Z</time>
      </trkpt>
      <trkpt lat="47.43434" lon="6.79535">
        <ele>478.75</ele>
        <time>2016-10-09T08:27:23Z</time>
      </trkpt>
      <trkpt lat="47.43454" lon="6.79516">
        <ele>476.97</ele>
        <time>2016-10-09T08:27:27Z</time>
      </trkpt>
      <trkpt lat="47.43468" lon="6.79499">
        <ele>476.64</ele>
        <time>2016-10-09T08:27:30Z</time>
      </trkpt>
      <trkpt lat="47.4349" lon="6.79486">
        <ele>477.13</ele>
        <time>2016-10-09T08:27:35Z</time>
      </trkpt>
      <trkpt lat="47.4351" lon="6.79475">
        <ele>477.27</ele>
        <time>2016-10-09T08:27:40Z</time>
      </trkpt>
      <trkpt lat="47.43531" lon="6.79471">
        <ele>477.28</ele>
        <time>2016-10-09T08:27:45Z</time>
      </trkpt>
      <trkpt lat="47.4355" lon="6.79459">
        <ele>477.27</ele>
        <time>2016-10-09T08:27:50Z</time>
      </trkpt>
      <trkpt lat="47.43569" lon="6.79449">
        <ele>476.66</ele>
        <time>2016-10-09T08:27:54Z</time>
      </trkpt>
      <trkpt lat="47.4359" lon="6.79446">
        <ele>476.5</ele>
        <time>2016-10-09T08:27:58Z</time>
      </trkpt>
      <trkpt lat="47.43609" lon="6.79444">
        <ele>476.89</ele>
        <time>2016-10-09T08:28:02Z</time>
      </trkpt>
      <trkpt lat="47.43628" lon="6.79452">
        <ele>477.36</ele>
        <time>2016-10-09T08:28:06Z</time>
      </trkpt>
      <trkpt lat="47.43649" lon="6.79452">
        <ele>477.02</ele>
        <time>2016-10-09T08:28:11Z</time>
      </trkpt>
      <trkpt lat="47.43668" lon="6.79451">
        <ele>474.45</ele>
        <time>2016-10-09T08:28:16Z</time>
      </trkpt>
      <trkpt lat="47.43689" lon="6.79444">
        <ele>473.46</ele>
        <time>2016-10-09T08:28:21Z</time>
      </trkpt>
      <trkpt lat="47.43707" lon="6.7943">
        <ele>472.96</ele>
        <time>2016-10-09T08:28:25Z</time>
      </trkpt>
      <trkpt lat="47.43729" lon="6.79428">
        <ele>473.72</ele>
        <time>2016-10-09T08:28:30Z</time>
      </trkpt>
      <trkpt lat="47.43746" lon="6.7942">
        <ele>473.47</ele>
        <time>2016-10-09T08:28:35Z</time>
      </trkpt>
      <trkpt lat="47.43764" lon="6.79415">
        <ele>473.17</ele>
        <time>2016-10-09T08:28:40Z</time>
      </trkpt>
      <trkpt lat="47.43784" lon="6.79419">
        <ele>473.95</ele>
        <time>2016-10-09T08:28:44Z</time>
      </trkpt>
      <trkpt lat="47.43802" lon="6.79419">
        <ele>474.08</ele>
        <time>2016-10-09T08:28:48Z</time>
      </trkpt>
      <trkpt lat="47.43825" lon="6.79421">
        <ele>473.64</ele>
        <time>2016-10-09T08:28:53Z</time>
      </trkpt>
      <trkpt lat="47.43844" lon="6.79418">
        <ele>473.21</ele>
        <time>2016-10-09T08:28:57Z</time>
      </trkpt>
      <trkpt lat="47.43864" lon="6.79432">
        <ele>472.11</ele>
        <time>2016-10-09T08:29:02Z</time>
      </trkpt>
      <trkpt lat="47.43882" lon="6.79449">
        <ele>469.43</ele>
        <time>2016-10-09T08:29:06Z</time>
      </trkpt>
      <trkpt lat="47.43903" lon="6.79455">
        <ele>467.98</ele>
        <time>2016-10-09T08:29:10Z</time>
      </trkpt>
      <trkpt lat="47.43921" lon="6.79465">
        <ele>465.73</ele>
        <time>2016-10-09T08:29:13Z</time>
      </trkpt>
      <trkpt lat="47.43939" lon="6.79476">
        <ele>464.44</ele>
        <time>2016-10-09T08:29:16Z</time>
      </trkpt>
      <trkpt lat="47.4396" lon="6.79479">
        <ele>463.52</ele>
        <time>2016-10-09T08:29:19Z</time>
      </trkpt>
      <trkpt lat="47.43982" lon="6.7947">
        <ele>462.61</ele>
        <time>2016-10-09T08:29:22Z</time>
      </trkpt>
      <trkpt lat="47.44002" lon="6.79466">
        <ele>460.72</ele>
        <time>2016-10-09T08:29:25Z</time>
      </trkpt>
      <trkpt lat="47.44024" lon="6.79463">
        <ele>459.33</ele>
        <time>2016-10-09T08:29:28Z</time>
      </trkpt>
      <trkpt lat="47.44044" lon="6.79453">
        <ele>457.86</ele>
        <time>2016-10-09T08:29:31Z</time>
      </trkpt>
      <trkpt lat="47.44062" lon="6.79457">
        <ele>457.25</ele>
        <time>2016-10-09T08:29:34Z</time>
      </trkpt>
      <trkpt lat="47.4408" lon="6.7947">
        <ele>456.63</ele>
        <time>2016-10-09T08:29:38Z</time>
      </trkpt>
      <trkpt lat="47.44099" lon="6.79481">
        <ele>456.68</ele>
        <time>2016-10-09T08:29:42Z</time>
      </trkpt>
      <trkpt lat="47.44117" lon="6.79472">
        <ele>455.85</ele>
        <time>2016-10-09T08:29:46Z</time>
      </trkpt>
      <trkpt lat="47.44138" lon="6.79465">
        <ele>455.49</ele>
        <time>2016-10-09T08:29:51Z</time>
      </trkpt>
      <trkpt lat="47.4416" lon="6.79459">
        <ele>452.48</ele>
        <time>2016-10-09T08:29:55Z</time>
      </trkpt>
      <trkpt lat="47.44179" lon="6.79447">
        <ele>450.84</ele>
        <time>2016-10-09T08:29:58Z</time>
      </trkpt>
      <trkpt lat="47.44196" lon="6.79458">
        <ele>450.25</ele>
        <time>2016-10-09T08:30:04Z</time>
      </trkpt>
      <trkpt lat="47.44215" lon="6.79454">
        <ele>448.54</ele>
        <time>2016-10-09T08:30:18Z</time>
      </trkpt>
      <trkpt lat="47.44233" lon="6.79449">
        <ele>445.49</ele>
        <time>2016-10-09T08:30:24Z</time>
      </trkpt>
      <trkpt lat="47.44251" lon="6.79432">
        <ele>440.98</ele>
        <time>2016-10-09T08:30:28Z</time>
      </trkpt>
      <trkpt lat="47.44268" lon="6.79418">
        <ele>434.7</ele>
        <time>2016-10-09T08:30:32Z</time>
      </trkpt>
      <trkpt lat="47.4429" lon="6.79423">
        <ele>430.26</ele>
        <time>2016-10-09T08:30:36Z</time>
      </trkpt>
      <trkpt lat="47.44306" lon="6.7941">
        <ele>428.54</ele>
        <time>2016-10-09T08:30:40Z</time>
      </trkpt>
      <trkpt lat="47.44325" lon="6.79395">
        <ele>425.01</ele>
        <time>2016-10-09T08:30:45Z</time>
      </trkpt>
      <trkpt lat="47.44346" lon="6.79389">
        <ele>423.68</ele>
        <time>2016-10-09T08:30:49Z</time>
      </trkpt>
      <trkpt lat="47.44367" lon="6.79404">
        <ele>418.25</ele>
        <time>2016-10-09T08:30:52Z</time>
      </trkpt>
      <trkpt lat="47.44379" lon="6.79424">
        <ele>413.77</ele>
        <time>2016-10-09T08:30:55Z</time>
      </trkpt>
      <trkpt lat="47.44383" lon="6.79453">
        <ele>410.78</ele>
        <time>2016-10-09T08:30:59Z</time>
      </trkpt>
      <trkpt lat="47.44388" lon="6.79482">
        <ele>408.28</ele>
        <time>2016-10-09T08:31:03Z</time>
      </trkpt>
      <trkpt lat="47.44404" lon="6.79496">
        <ele>407.09</ele>
        <time>2016-10-09T08:31:09Z</time>
      </trkpt>
      <trkpt lat="47.44422" lon="6.79499">
        <ele>405.23</ele>
        <time>2016-10-09T08:31:20Z</time>
      </trkpt>
      <trkpt lat="47.44435" lon="6.79519">
        <ele>402.3</ele>
        <time>2016-10-09T08:31:29Z</time>
      </trkpt>
      <trkpt lat="47.44426" lon="6.79546">
        <ele>399.73</ele>
        <time>2016-10-09T08:31:37Z</time>
      </trkpt>
      <trkpt lat="47.44418" lon="6.79574">
        <ele>398.35</ele>
        <time>2016-10-09T08:31:44Z</time>
      </trkpt>
      <trkpt lat="47.44416" lon="6.796">
        <ele>394.29</ele>
        <time>2016-10-09T08:32:07Z</time>
      </trkpt>
      <trkpt lat="47.44406" lon="6.79624">
        <ele>393.71</ele>
        <time>2016-10-09T08:32:18Z</time>
      </trkpt>
      <trkpt lat="47.44401" lon="6.79654">
        <ele>393.59</ele>
        <time>2016-10-09T08:32:27Z</time>
      </trkpt>
      <trkpt lat="47.44397" lon="6.79687">
        <ele>393.44</ele>
        <time>2016-10-09T08:32:33Z</time>
      </trkpt>
      <trkpt lat="47.44399" lon="6.79715">
        <ele>393.58</ele>
        <time>2016-10-09T08:32:37Z</time>
      </trkpt>
      <trkpt lat="47.444" lon="6.79743">
        <ele>393.75</ele>
        <time>2016-10-09T08:32:42Z</time>
      </trkpt>
      <trkpt lat="47.44399" lon="6.7977">
        <ele>394.02</ele>
        <time>2016-10-09T08:32:48Z</time>
      </trkpt>
      <trkpt lat="47.44395" lon="6.79801">
        <ele>394.48</ele>
        <time>2016-10-09T08:32:55Z</time>
      </trkpt>
      <trkpt lat="47.44389" lon="6.79828">
        <ele>394.4</ele>
        <time>2016-10-09T08:32:59Z</time>
      </trkpt>
      <trkpt lat="47.44382" lon="6.79854">
        <ele>393.78</ele>
        <time>2016-10-09T08:33:06Z</time>
      </trkpt>
      <trkpt lat="47.44394" lon="6.79877">
        <ele>389.79</ele>
        <time>2016-10-09T08:33:57Z</time>
      </trkpt>
      <trkpt lat="47.44412" lon="6.79886">
        <ele>386.38</ele>
        <time>2016-10-09T08:34:03Z</time>
      </trkpt>
      <trkpt lat="47.44434" lon="6.79895">
        <ele>381.07</ele>
        <time>2016-10-09T08:34:08Z</time>
      </trkpt>
      <trkpt lat="47.44456" lon="6.79905">
        <ele>377.77</ele>
        <time>2016-10-09T08:34:12Z</time>
      </trkpt>
      <trkpt lat="47.44476" lon="6.79913">
        <ele>374.6</ele>
        <time>2016-10-09T08:34:15Z</time>
      </trkpt>
      <trkpt lat="47.44499" lon="6.7992">
        <ele>371.48</ele>
        <time>2016-10-09T08:34:18Z</time>
      </trkpt>
      <trkpt lat="47.44521" lon="6.79922">
        <ele>369.26</ele>
        <time>2016-10-09T08:34:21Z</time>
      </trkpt>
      <trkpt lat="47.44545" lon="6.79926">
        <ele>366.54</ele>
        <time>2016-10-09T08:34:24Z</time>
      </trkpt>
      <trkpt lat="47.44567" lon="6.79932">
        <ele>364.63</ele>
        <time>2016-10-09T08:34:27Z</time>
      </trkpt>
      <trkpt lat="47.44587" lon="6.79938">
        <ele>363.87</ele>
        <time>2016-10-09T08:34:30Z</time>
      </trkpt>
      <trkpt lat="47.44606" lon="6.79946">
        <ele>363.59</ele>
        <time>2016-10-09T08:34:33Z</time>
      </trkpt>
      <trkpt lat="47.44624" lon="6.79952">
        <ele>362.69</ele>
        <time>2016-10-09T08:34:36Z</time>
      </trkpt>
      <trkpt lat="47.44645" lon="6.79959">
        <ele>360.77</ele>
        <time>2016-10-09T08:34:40Z</time>
      </trkpt>
      <trkpt lat="47.44666" lon="6.79964">
        <ele>361.11</ele>
        <time>2016-10-09T08:34:44Z</time>
      </trkpt>
      <trkpt lat="47.4469" lon="6.79967">
        <ele>361.53</ele>
        <time>2016-10-09T08:34:48Z</time>
      </trkpt>
      <trkpt lat="47.44709" lon="6.79969">
        <ele>361.45</ele>
        <time>2016-10-09T08:34:52Z</time>
      </trkpt>
      <trkpt lat="47.4473" lon="6.79972">
        <ele>362.07</ele>
        <time>2016-10-09T08:34:57Z</time>
      </trkpt>
      <trkpt lat="47.44748" lon="6.79975">
        <ele>361.52</ele>
        <time>2016-10-09T08:35:01Z</time>
      </trkpt>
      <trkpt lat="47.4477" lon="6.7998">
        <ele>360.57</ele>
        <time>2016-10-09T08:35:05Z</time>
      </trkpt>
      <trkpt lat="47.44788" lon="6.79972">
        <ele>359.48</ele>
        <time>2016-10-09T08:35:11Z</time>
      </trkpt>
      <trkpt lat="47.44794" lon="6.79945">
        <ele>358.51</ele>
        <time>2016-10-09T08:35:16Z</time>
      </trkpt>
      <trkpt lat="47.44798" lon="6.79915">
        <ele>357.46</ele>
        <time>2016-10-09T08:35:20Z</time>
      </trkpt>
      <trkpt lat="47.44803" lon="6.79885">
        <ele>357.09</ele>
        <time>2016-10-09T08:35:24Z</time>
      </trkpt>
      <trkpt lat="47.44806" lon="6.79859">
        <ele>356.18</ele>
        <time>2016-10-09T08:35:28Z</time>
      </trkpt>
      <trkpt lat="47.4481" lon="6.79829">
        <ele>355.33</ele>
        <time>2016-10-09T08:35:33Z</time>
      </trkpt>
      <trkpt lat="47.44816" lon="6.79798">
        <ele>355.08</ele>
        <time>2016-10-09T08:35:38Z</time>
      </trkpt>
      <trkpt lat="47.4482" lon="6.79769">
        <ele>356.03</ele>
        <time>2016-10-09T08:35:43Z</time>
      </trkpt>
      <trkpt lat="47.44824" lon="6.79741">
        <ele>356.7</ele>
        <time>2016-10-09T08:35:48Z</time>
      </trkpt>
      <trkpt lat="47.4484" lon="6.7972">
        <ele>357.47</ele>
        <time>2016-10-09T08:35:55Z</time>
      </trkpt>
      <trkpt lat="47.44859" lon="6.7972">
        <ele>357.4</ele>
        <time>2016-10-09T08:36:00Z</time>
      </trkpt>
      <trkpt lat="47.4488" lon="6.79728">
        <ele>356.43</ele>
        <time>2016-10-09T08:36:05Z</time>
      </trkpt>
      <trkpt lat="47.449" lon="6.79742">
        <ele>354.5</ele>
        <time>2016-10-09T08:36:10Z</time>
      </trkpt>
      <trkpt lat="47.44918" lon="6.79737">
        <ele>353.91</ele>
        <time>2016-10-09T08:36:14Z</time>
      </trkpt>
      <trkpt lat="47.44937" lon="6.79724">
        <ele>352.74</ele>
        <time>2016-10-09T08:36:18Z</time>
      </trkpt>
      <trkpt lat="47.44956" lon="6.79711">
        <ele>351.21</ele>
        <time>2016-10-09T08:36:22Z</time>
      </trkpt>
      <trkpt lat="47.44975" lon="6.79695">
        <ele>350.62</ele>
        <time>2016-10-09T08:36:26Z</time>
      </trkpt>
      <trkpt lat="47.44996" lon="6.79699">
        <ele>351.45</ele>
        <time>2016-10-09T08:36:29Z</time>
      </trkpt>
      <trkpt lat="47.45018" lon="6.79716">
        <ele>348.22</ele>
        <time>2016-10-09T08:36:32Z</time>
      </trkpt>
      <trkpt lat="47.45036" lon="6.79711">
        <ele>343.29</ele>
        <time>2016-10-09T08:36:37Z</time>
      </trkpt>
      <trkpt lat="47.4504" lon="6.79673">
        <ele>340.55</ele>
        <time>2016-10-09T08:36:39Z</time>
      </trkpt>
      <trkpt lat="47.45047" lon="6.79645">
        <ele>339.36</ele>
        <time>2016-10-09T08:36:42Z</time>
      </trkpt>
      <trkpt lat="47.45057" lon="6.79622">
        <ele>338.76</ele>
        <time>2016-10-09T08:36:47Z</time>
      </trkpt>
      <trkpt lat="47.45072" lon="6.79604">
        <ele>339.27</ele>
        <time>2016-10-09T08:36:51Z</time>
      </trkpt>
      <trkpt lat="47.45085" lon="6.79586">
        <ele>338.08</ele>
        <time>2016-10-09T08:36:55Z</time>
      </trkpt>
      <trkpt lat="47.45099" lon="6.79566">
        <ele>336.04</ele>
        <time>2016-10-09T08:36:59Z</time>
      </trkpt>
      <trkpt lat="47.45114" lon="6.79545">
        <ele>335.75</ele>
        <time>2016-10-09T08:37:04Z</time>
      </trkpt>
      <trkpt lat="47.45128" lon="6.79524">
        <ele>337.24</ele>
        <time>2016-10-09T08:37:10Z</time>
      </trkpt>
      <trkpt lat="47.45135" lon="6.79495">
        <ele>337.72</ele>
        <time>2016-10-09T08:37:17Z</time>
      </trkpt>
      <trkpt lat="47.4514" lon="6.79466">
        <ele>337.84</ele>
        <time>2016-10-09T08:37:22Z</time>
      </trkpt>
      <trkpt lat="47.45148" lon="6.7944">
        <ele>337.63</ele>
        <time>2016-10-09T08:37:27Z</time>
      </trkpt>
      <trkpt lat="47.4516" lon="6.79416">
        <ele>336.51</ele>
        <time>2016-10-09T08:37:33Z</time>
      </trkpt>
      <trkpt lat="47.45168" lon="6.79385">
        <ele>335.39</ele>
        <time>2016-10-09T08:37:38Z</time>
      </trkpt>
      <trkpt lat="47.45175" lon="6.79358">
        <ele>336.18</ele>
        <time>2016-10-09T08:37:42Z</time>
      </trkpt>
      <trkpt lat="47.45181" lon="6.7933">
        <ele>336.63</ele>
        <time>2016-10-09T08:37:46Z</time>
      </trkpt>
      <trkpt lat="47.45188" lon="6.79303">
        <ele>337.39</ele>
        <time>2016-10-09T08:37:50Z</time>
      </trkpt>
      <trkpt lat="47.45193" lon="6.79271">
        <ele>334.89</ele>
        <time>2016-10-09T08:37:55Z</time>
      </trkpt>
      <trkpt lat="47.45199" lon="6.7924">
        <ele>333.54</ele>
        <time>2016-10-09T08:38:00Z</time>
      </trkpt>
      <trkpt lat="47.45206" lon="6.7921">
        <ele>334.45</ele>
        <time>2016-10-09T08:38:05Z</time>
      </trkpt>
      <trkpt lat="47.45213" lon="6.7918">
        <ele>337.12</ele>
        <time>2016-10-09T08:38:10Z</time>
      </trkpt>
      <trkpt lat="47.4522" lon="6.79149">
        <ele>338.39</ele>
        <time>2016-10-09T08:38:15Z</time>
      </trkpt>
      <trkpt lat="47.4524" lon="6.79133">
        <ele>338.33</ele>
        <time>2016-10-09T08:38:20Z</time>
      </trkpt>
      <trkpt lat="47.45256" lon="6.7911">
        <ele>337.36</ele>
        <time>2016-10-09T08:38:24Z</time>
      </trkpt>
      <trkpt lat="47.45267" lon="6.79081">
        <ele>337.31</ele>
        <time>2016-10-09T08:38:28Z</time>
      </trkpt>
      <trkpt lat="47.45275" lon="6.79052">
        <ele>337.3</ele>
        <time>2016-10-09T08:38:32Z</time>
      </trkpt>
      <trkpt lat="47.45284" lon="6.79027">
        <ele>336.01</ele>
        <time>2016-10-09T08:38:36Z</time>
      </trkpt>
      <trkpt lat="47.45297" lon="6.79005">
        <ele>335.42</ele>
        <time>2016-10-09T08:38:40Z</time>
      </trkpt>
      <trkpt lat="47.45311" lon="6.78985">
        <ele>335.16</ele>
        <time>2016-10-09T08:38:44Z</time>
      </trkpt>
      <trkpt lat="47.45325" lon="6.78965">
        <ele>334.78</ele>
        <time>2016-10-09T08:38:48Z</time>
      </trkpt>
      <trkpt lat="47.45339" lon="6.78946">
        <ele>334.32</ele>
        <time>2016-10-09T08:38:52Z</time>
      </trkpt>
      <trkpt lat="47.45353" lon="6.78927">
        <ele>333.73</ele>
        <time>2016-10-09T08:38:56Z</time>
      </trkpt>
      <trkpt lat="47.45367" lon="6.78909">
        <ele>332.84</ele>
        <time>2016-10-09T08:39:00Z</time>
      </trkpt>
      <trkpt lat="47.45381" lon="6.78891">
        <ele>332.48</ele>
        <time>2016-10-09T08:39:04Z</time>
      </trkpt>
      <trkpt lat="47.45395" lon="6.78874">
        <ele>332.12</ele>
        <time>2016-10-09T08:39:08Z</time>
      </trkpt>
      <trkpt lat="47.45411" lon="6.78852">
        <ele>332.61</ele>
        <time>2016-10-09T08:39:13Z</time>
      </trkpt>
      <trkpt lat="47.45428" lon="6.78833">
        <ele>334.56</ele>
        <time>2016-10-09T08:39:18Z</time>
      </trkpt>
      <trkpt lat="47.45444" lon="6.78814">
        <ele>335.64</ele>
        <time>2016-10-09T08:39:23Z</time>
      </trkpt>
      <trkpt lat="47.45458" lon="6.78795">
        <ele>336.93</ele>
        <time>2016-10-09T08:39:28Z</time>
      </trkpt>
      <trkpt lat="47.45475" lon="6.78776">
        <ele>337.8</ele>
        <time>2016-10-09T08:39:33Z</time>
      </trkpt>
      <trkpt lat="47.45488" lon="6.78754">
        <ele>338.05</ele>
        <time>2016-10-09T08:39:40Z</time>
      </trkpt>
      <trkpt lat="47.45479" lon="6.78727">
        <ele>338.27</ele>
        <time>2016-10-09T08:39:47Z</time>
      </trkpt>
      <trkpt lat="47.45467" lon="6.78706">
        <ele>338.48</ele>
        <time>2016-10-09T08:39:52Z</time>
      </trkpt>
      <trkpt lat="47.45455" lon="6.78684">
        <ele>339.33</ele>
        <time>2016-10-09T08:39:57Z</time>
      </trkpt>
      <trkpt lat="47.45443" lon="6.78661">
        <ele>339.35</ele>
        <time>2016-10-09T08:40:02Z</time>
      </trkpt>
      <trkpt lat="47.45432" lon="6.7864">
        <ele>339.85</ele>
        <time>2016-10-09T08:40:07Z</time>
      </trkpt>
      <trkpt lat="47.45419" lon="6.78616">
        <ele>340.05</ele>
        <time>2016-10-09T08:40:12Z</time>
      </trkpt>
      <trkpt lat="47.45407" lon="6.78593">
        <ele>340.32</ele>
        <time>2016-10-09T08:40:17Z</time>
      </trkpt>
      <trkpt lat="47.45394" lon="6.78569">
        <ele>340.75</ele>
        <time>2016-10-09T08:40:22Z</time>
      </trkpt>
      <trkpt lat="47.45383" lon="6.78546">
        <ele>340.83</ele>
        <time>2016-10-09T08:40:27Z</time>
      </trkpt>
      <trkpt lat="47.4537" lon="6.78524">
        <ele>341.7</ele>
        <time>2016-10-09T08:40:32Z</time>
      </trkpt>
      <trkpt lat="47.45356" lon="6.78501">
        <ele>342.2</ele>
        <time>2016-10-09T08:40:37Z</time>
      </trkpt>
      <trkpt lat="47.45343" lon="6.78482">
        <ele>342.56</ele>
        <time>2016-10-09T08:40:41Z</time>
      </trkpt>
      <trkpt lat="47.45328" lon="6.78467">
        <ele>342.32</ele>
        <time>2016-10-09T08:40:45Z</time>
      </trkpt>
      <trkpt lat="47.45309" lon="6.78457">
        <ele>342.44</ele>
        <time>2016-10-09T08:40:49Z</time>
      </trkpt>
      <trkpt lat="47.45306" lon="6.78428">
        <ele>342.21</ele>
        <time>2016-10-09T08:40:56Z</time>
      </trkpt>
      <trkpt lat="47.45317" lon="6.78405">
        <ele>342.29</ele>
        <time>2016-10-09T08:41:06Z</time>
      </trkpt>
      <trkpt lat="47.4531" lon="6.78373">
        <ele>342.81</ele>
        <time>2016-10-09T08:41:16Z</time>
      </trkpt>
      <trkpt lat="47.45287" lon="6.78369">
        <ele>346.24</ele>
        <time>2016-10-09T08:41:30Z</time>
      </trkpt>
      <trkpt lat="47.45271" lon="6.78356">
        <ele>348.93</ele>
        <time>2016-10-09T08:41:41Z</time>
      </trkpt>
      <trkpt lat="47.45256" lon="6.7834">
        <ele>351.56</ele>
        <time>2016-10-09T08:41:54Z</time>
      </trkpt>
      <trkpt lat="47.45239" lon="6.78329">
        <ele>353.29</ele>
        <time>2016-10-09T08:42:03Z</time>
      </trkpt>
      <trkpt lat="47.45222" lon="6.7832">
        <ele>354.51</ele>
        <time>2016-10-09T08:42:11Z</time>
      </trkpt>
      <trkpt lat="47.45202" lon="6.78312">
        <ele>355.54</ele>
        <time>2016-10-09T08:42:19Z</time>
      </trkpt>
      <trkpt lat="47.45185" lon="6.78305">
        <ele>356.4</ele>
        <time>2016-10-09T08:42:25Z</time>
      </trkpt>
      <trkpt lat="47.45166" lon="6.78295">
        <ele>357.25</ele>
        <time>2016-10-09T08:42:31Z</time>
      </trkpt>
      <trkpt lat="47.45149" lon="6.78289">
        <ele>357.86</ele>
        <time>2016-10-09T08:42:36Z</time>
      </trkpt>
      <trkpt lat="47.45129" lon="6.78281">
        <ele>358.51</ele>
        <time>2016-10-09T08:42:42Z</time>
      </trkpt>
      <trkpt lat="47.45112" lon="6.7827">
        <ele>359.01</ele>
        <time>2016-10-09T08:42:47Z</time>
      </trkpt>
      <trkpt lat="47.45095" lon="6.78257">
        <ele>359.64</ele>
        <time>2016-10-09T08:42:53Z</time>
      </trkpt>
      <trkpt lat="47.4508" lon="6.78239">
        <ele>360.67</ele>
        <time>2016-10-09T08:42:59Z</time>
      </trkpt>
      <trkpt lat="47.45065" lon="6.78221">
        <ele>361.65</ele>
        <time>2016-10-09T08:43:04Z</time>
      </trkpt>
      <trkpt lat="47.45051" lon="6.78204">
        <ele>363.34</ele>
        <time>2016-10-09T08:43:09Z</time>
      </trkpt>
      <trkpt lat="47.45036" lon="6.78183">
        <ele>365.4</ele>
        <time>2016-10-09T08:43:14Z</time>
      </trkpt>
      <trkpt lat="47.45024" lon="6.78161">
        <ele>366.35</ele>
        <time>2016-10-09T08:43:19Z</time>
      </trkpt>
      <trkpt lat="47.45013" lon="6.78136">
        <ele>366.99</ele>
        <time>2016-10-09T08:43:24Z</time>
      </trkpt>
      <trkpt lat="47.45" lon="6.78114">
        <ele>368.63</ele>
        <time>2016-10-09T08:43:29Z</time>
      </trkpt>
      <trkpt lat="47.44985" lon="6.78098">
        <ele>367.95</ele>
        <time>2016-10-09T08:43:33Z</time>
      </trkpt>
      <trkpt lat="47.44971" lon="6.78081">
        <ele>367.52</ele>
        <time>2016-10-09T08:43:37Z</time>
      </trkpt>
      <trkpt lat="47.44953" lon="6.78063">
        <ele>367.49</ele>
        <time>2016-10-09T08:43:41Z</time>
      </trkpt>
      <trkpt lat="47.44937" lon="6.78047">
        <ele>366.95</ele>
        <time>2016-10-09T08:43:46Z</time>
      </trkpt>
      <trkpt lat="47.4492" lon="6.78032">
        <ele>366.42</ele>
        <time>2016-10-09T08:43:51Z</time>
      </trkpt>
      <trkpt lat="47.44906" lon="6.78016">
        <ele>365.34</ele>
        <time>2016-10-09T08:43:55Z</time>
      </trkpt>
      <trkpt lat="47.44889" lon="6.77996">
        <ele>364.76</ele>
        <time>2016-10-09T08:43:59Z</time>
      </trkpt>
      <trkpt lat="47.44872" lon="6.7798">
        <ele>365.59</ele>
        <time>2016-10-09T08:44:03Z</time>
      </trkpt>
      <trkpt lat="47.44855" lon="6.7797">
        <ele>365.84</ele>
        <time>2016-10-09T08:44:07Z</time>
      </trkpt>
      <trkpt lat="47.44837" lon="6.77954">
        <ele>366.01</ele>
        <time>2016-10-09T08:44:12Z</time>
      </trkpt>
      <trkpt lat="47.44821" lon="6.77932">
        <ele>365.82</ele>
        <time>2016-10-09T08:44:18Z</time>
      </trkpt>
      <trkpt lat="47.44804" lon="6.77923">
        <ele>364.89</ele>
        <time>2016-10-09T08:44:22Z</time>
      </trkpt>
      <trkpt lat="47.44786" lon="6.77917">
        <ele>361.7</ele>
        <time>2016-10-09T08:45:50Z</time>
      </trkpt>
      <trkpt lat="47.44768" lon="6.77908">
        <ele>361.91</ele>
        <time>2016-10-09T08:46:26Z</time>
      </trkpt>
      <trkpt lat="47.44749" lon="6.77898">
        <ele>361.7</ele>
        <time>2016-10-09T08:46:31Z</time>
      </trkpt>
      <trkpt lat="47.44731" lon="6.77889">
        <ele>361.54</ele>
        <time>2016-10-09T08:46:35Z</time>
      </trkpt>
      <trkpt lat="47.44711" lon="6.77878">
        <ele>361.52</ele>
        <time>2016-10-09T08:46:39Z</time>
      </trkpt>
      <trkpt lat="47.44696" lon="6.77858">
        <ele>360.56</ele>
        <time>2016-10-09T08:46:44Z</time>
      </trkpt>
      <trkpt lat="47.44709" lon="6.77837">
        <ele>360.18</ele>
        <time>2016-10-09T08:46:54Z</time>
      </trkpt>
      <trkpt lat="47.44691" lon="6.77832">
        <ele>358.36</ele>
        <time>2016-10-09T08:47:00Z</time>
      </trkpt>
      <trkpt lat="47.44672" lon="6.77826">
        <ele>356.51</ele>
        <time>2016-10-09T08:47:04Z</time>
      </trkpt>
      <trkpt lat="47.44663" lon="6.77801">
        <ele>355.51</ele>
        <time>2016-10-09T08:47:09Z</time>
      </trkpt>
      <trkpt lat="47.44646" lon="6.77793">
        <ele>355.28</ele>
        <time>2016-10-09T08:47:14Z</time>
      </trkpt>
      <trkpt lat="47.44627" lon="6.77784">
        <ele>355.19</ele>
        <time>2016-10-09T08:47:20Z</time>
      </trkpt>
      <trkpt lat="47.4461" lon="6.77771">
        <ele>355.47</ele>
        <time>2016-10-09T08:47:26Z</time>
      </trkpt>
      <trkpt lat="47.44592" lon="6.77757">
        <ele>356.26</ele>
        <time>2016-10-09T08:47:32Z</time>
      </trkpt>
      <trkpt lat="47.44572" lon="6.77744">
        <ele>356.38</ele>
        <time>2016-10-09T08:47:38Z</time>
      </trkpt>
      <trkpt lat="47.44555" lon="6.77731">
        <ele>356.37</ele>
        <time>2016-10-09T08:47:44Z</time>
      </trkpt>
      <trkpt lat="47.44536" lon="6.77716">
        <ele>356.66</ele>
        <time>2016-10-09T08:47:50Z</time>
      </trkpt>
      <trkpt lat="47.44519" lon="6.77704">
        <ele>357.58</ele>
        <time>2016-10-09T08:47:55Z</time>
      </trkpt>
      <trkpt lat="47.44503" lon="6.77688">
        <ele>358.16</ele>
        <time>2016-10-09T08:48:00Z</time>
      </trkpt>
      <trkpt lat="47.44496" lon="6.77663">
        <ele>358.92</ele>
        <time>2016-10-09T08:48:05Z</time>
      </trkpt>
      <trkpt lat="47.44498" lon="6.77632">
        <ele>360.45</ele>
        <time>2016-10-09T08:48:11Z</time>
      </trkpt>
      <trkpt lat="47.44497" lon="6.77604">
        <ele>362.91</ele>
        <time>2016-10-09T08:48:16Z</time>
      </trkpt>
      <trkpt lat="47.4448" lon="6.77593">
        <ele>362.92</ele>
        <time>2016-10-09T08:48:21Z</time>
      </trkpt>
      <trkpt lat="47.4446" lon="6.77593">
        <ele>363</ele>
        <time>2016-10-09T08:48:27Z</time>
      </trkpt>
      <trkpt lat="47.44442" lon="6.77587">
        <ele>363.27</ele>
        <time>2016-10-09T08:48:32Z</time>
      </trkpt>
      <trkpt lat="47.44422" lon="6.77578">
        <ele>363.7</ele>
        <time>2016-10-09T08:48:38Z</time>
      </trkpt>
      <trkpt lat="47.44401" lon="6.77568">
        <ele>364.63</ele>
        <time>2016-10-09T08:48:44Z</time>
      </trkpt>
      <trkpt lat="47.44381" lon="6.7756">
        <ele>366.93</ele>
        <time>2016-10-09T08:48:49Z</time>
      </trkpt>
      <trkpt lat="47.44361" lon="6.7755">
        <ele>367.1</ele>
        <time>2016-10-09T08:48:54Z</time>
      </trkpt>
      <trkpt lat="47.4434" lon="6.77541">
        <ele>368.39</ele>
        <time>2016-10-09T08:48:59Z</time>
      </trkpt>
      <trkpt lat="47.44319" lon="6.77534">
        <ele>369.46</ele>
        <time>2016-10-09T08:49:04Z</time>
      </trkpt>
      <trkpt lat="47.44298" lon="6.77527">
        <ele>369.82</ele>
        <time>2016-10-09T08:49:09Z</time>
      </trkpt>
      <trkpt lat="47.44277" lon="6.77516">
        <ele>368.15</ele>
        <time>2016-10-09T08:49:14Z</time>
      </trkpt>
      <trkpt lat="47.44259" lon="6.77507">
        <ele>368.84</ele>
        <time>2016-10-09T08:49:19Z</time>
      </trkpt>
      <trkpt lat="47.44237" lon="6.77497">
        <ele>368.38</ele>
        <time>2016-10-09T08:49:24Z</time>
      </trkpt>
      <trkpt lat="47.44219" lon="6.77481">
        <ele>369.39</ele>
        <time>2016-10-09T08:49:29Z</time>
      </trkpt>
      <trkpt lat="47.44201" lon="6.77466">
        <ele>368.15</ele>
        <time>2016-10-09T08:49:34Z</time>
      </trkpt>
      <trkpt lat="47.44181" lon="6.77457">
        <ele>365.46</ele>
        <time>2016-10-09T08:49:38Z</time>
      </trkpt>
      <trkpt lat="47.44161" lon="6.77449">
        <ele>365.53</ele>
        <time>2016-10-09T08:49:42Z</time>
      </trkpt>
      <trkpt lat="47.4414" lon="6.7744">
        <ele>366.63</ele>
        <time>2016-10-09T08:49:46Z</time>
      </trkpt>
      <trkpt lat="47.44118" lon="6.77429">
        <ele>366.73</ele>
        <time>2016-10-09T08:49:50Z</time>
      </trkpt>
      <trkpt lat="47.44096" lon="6.77419">
        <ele>367.23</ele>
        <time>2016-10-09T08:49:54Z</time>
      </trkpt>
      <trkpt lat="47.44078" lon="6.77412">
        <ele>367.07</ele>
        <time>2016-10-09T08:49:57Z</time>
      </trkpt>
      <trkpt lat="47.44059" lon="6.77403">
        <ele>365.71</ele>
        <time>2016-10-09T08:50:00Z</time>
      </trkpt>
      <trkpt lat="47.4404" lon="6.77395">
        <ele>362.85</ele>
        <time>2016-10-09T08:50:03Z</time>
      </trkpt>
      <trkpt lat="47.44019" lon="6.77386">
        <ele>361.91</ele>
        <time>2016-10-09T08:50:07Z</time>
      </trkpt>
      <trkpt lat="47.43997" lon="6.77379">
        <ele>364.4</ele>
        <time>2016-10-09T08:50:11Z</time>
      </trkpt>
      <trkpt lat="47.43973" lon="6.77374">
        <ele>364.09</ele>
        <time>2016-10-09T08:50:15Z</time>
      </trkpt>
      <trkpt lat="47.43951" lon="6.7737">
        <ele>363.87</ele>
        <time>2016-10-09T08:50:19Z</time>
      </trkpt>
      <trkpt lat="47.43928" lon="6.77365">
        <ele>365.25</ele>
        <time>2016-10-09T08:50:23Z</time>
      </trkpt>
      <trkpt lat="47.43906" lon="6.77359">
        <ele>365.84</ele>
        <time>2016-10-09T08:50:27Z</time>
      </trkpt>
      <trkpt lat="47.43884" lon="6.7735">
        <ele>365.59</ele>
        <time>2016-10-09T08:50:31Z</time>
      </trkpt>
      <trkpt lat="47.43863" lon="6.77338">
        <ele>365.88</ele>
        <time>2016-10-09T08:50:35Z</time>
      </trkpt>
      <trkpt lat="47.43844" lon="6.77332">
        <ele>366.73</ele>
        <time>2016-10-09T08:50:38Z</time>
      </trkpt>
      <trkpt lat="47.43822" lon="6.77329">
        <ele>367.49</ele>
        <time>2016-10-09T08:50:42Z</time>
      </trkpt>
      <trkpt lat="47.43801" lon="6.77325">
        <ele>367.59</ele>
        <time>2016-10-09T08:50:46Z</time>
      </trkpt>
      <trkpt lat="47.43785" lon="6.77308">
        <ele>368.45</ele>
        <time>2016-10-09T08:50:51Z</time>
      </trkpt>
      <trkpt lat="47.43772" lon="6.77288">
        <ele>368.29</ele>
        <time>2016-10-09T08:51:01Z</time>
      </trkpt>
      <trkpt lat="47.4375" lon="6.77283">
        <ele>367.3</ele>
        <time>2016-10-09T08:51:09Z</time>
      </trkpt>
      <trkpt lat="47.43731" lon="6.77279">
        <ele>366.33</ele>
        <time>2016-10-09T08:51:13Z</time>
      </trkpt>
      <trkpt lat="47.4371" lon="6.77283">
        <ele>364.69</ele>
        <time>2016-10-09T08:51:20Z</time>
      </trkpt>
      <trkpt lat="47.43693" lon="6.77297">
        <ele>363.73</ele>
        <time>2016-10-09T08:51:26Z</time>
      </trkpt>
      <trkpt lat="47.43674" lon="6.77311">
        <ele>362.49</ele>
        <time>2016-10-09T08:51:33Z</time>
      </trkpt>
      <trkpt lat="47.43655" lon="6.77311">
        <ele>361.93</ele>
        <time>2016-10-09T08:51:40Z</time>
      </trkpt>
      <trkpt lat="47.43637" lon="6.77309">
        <ele>362.55</ele>
        <time>2016-10-09T08:51:46Z</time>
      </trkpt>
      <trkpt lat="47.43618" lon="6.77308">
        <ele>363.19</ele>
        <time>2016-10-09T08:51:51Z</time>
      </trkpt>
      <trkpt lat="47.43598" lon="6.7731">
        <ele>364.86</ele>
        <time>2016-10-09T08:51:56Z</time>
      </trkpt>
      <trkpt lat="47.4358" lon="6.77313">
        <ele>368.61</ele>
        <time>2016-10-09T08:52:00Z</time>
      </trkpt>
      <trkpt lat="47.4356" lon="6.77317">
        <ele>368.75</ele>
        <time>2016-10-09T08:52:04Z</time>
      </trkpt>
      <trkpt lat="47.43542" lon="6.77323">
        <ele>367.75</ele>
        <time>2016-10-09T08:52:08Z</time>
      </trkpt>
      <trkpt lat="47.43524" lon="6.77328">
        <ele>367.69</ele>
        <time>2016-10-09T08:52:12Z</time>
      </trkpt>
      <trkpt lat="47.43503" lon="6.77335">
        <ele>365.26</ele>
        <time>2016-10-09T08:52:16Z</time>
      </trkpt>
      <trkpt lat="47.43486" lon="6.77343">
        <ele>364.09</ele>
        <time>2016-10-09T08:52:19Z</time>
      </trkpt>
      <trkpt lat="47.43468" lon="6.77355">
        <ele>361.4</ele>
        <time>2016-10-09T08:52:22Z</time>
      </trkpt>
      <trkpt lat="47.4345" lon="6.77364">
        <ele>357.34</ele>
        <time>2016-10-09T08:52:25Z</time>
      </trkpt>
      <trkpt lat="47.43429" lon="6.77373">
        <ele>354.77</ele>
        <time>2016-10-09T08:52:28Z</time>
      </trkpt>
      <trkpt lat="47.43408" lon="6.77385">
        <ele>351.2</ele>
        <time>2016-10-09T08:52:32Z</time>
      </trkpt>
      <trkpt lat="47.4339" lon="6.77402">
        <ele>351.06</ele>
        <time>2016-10-09T08:52:38Z</time>
      </trkpt>
      <trkpt lat="47.43376" lon="6.77419">
        <ele>351.25</ele>
        <time>2016-10-09T08:52:44Z</time>
      </trkpt>
      <trkpt lat="47.43361" lon="6.77438">
        <ele>352.13</ele>
        <time>2016-10-09T08:52:49Z</time>
      </trkpt>
      <trkpt lat="47.43343" lon="6.77456">
        <ele>353.24</ele>
        <time>2016-10-09T08:52:53Z</time>
      </trkpt>
      <trkpt lat="47.43323" lon="6.77475">
        <ele>352.97</ele>
        <time>2016-10-09T08:52:57Z</time>
      </trkpt>
      <trkpt lat="47.43307" lon="6.77497">
        <ele>354.85</ele>
        <time>2016-10-09T08:53:00Z</time>
      </trkpt>
      <trkpt lat="47.43293" lon="6.77518">
        <ele>354.82</ele>
        <time>2016-10-09T08:53:03Z</time>
      </trkpt>
      <trkpt lat="47.43279" lon="6.77536">
        <ele>355.48</ele>
        <time>2016-10-09T08:53:06Z</time>
      </trkpt>
      <trkpt lat="47.43261" lon="6.77557">
        <ele>355.67</ele>
        <time>2016-10-09T08:53:10Z</time>
      </trkpt>
      <trkpt lat="47.43243" lon="6.77572">
        <ele>355.17</ele>
        <time>2016-10-09T08:53:13Z</time>
      </trkpt>
      <trkpt lat="47.43224" lon="6.77588">
        <ele>354.04</ele>
        <time>2016-10-09T08:53:16Z</time>
      </trkpt>
      <trkpt lat="47.43207" lon="6.77605">
        <ele>352.64</ele>
        <time>2016-10-09T08:53:19Z</time>
      </trkpt>
      <trkpt lat="47.43189" lon="6.77619">
        <ele>349.61</ele>
        <time>2016-10-09T08:53:22Z</time>
      </trkpt>
      <trkpt lat="47.43169" lon="6.77631">
        <ele>347.72</ele>
        <time>2016-10-09T08:53:25Z</time>
      </trkpt>
      <trkpt lat="47.43147" lon="6.77639">
        <ele>348.52</ele>
        <time>2016-10-09T08:53:28Z</time>
      </trkpt>
      <trkpt lat="47.43127" lon="6.77656">
        <ele>349.29</ele>
        <time>2016-10-09T08:53:31Z</time>
      </trkpt>
      <trkpt lat="47.43106" lon="6.77668">
        <ele>349.57</ele>
        <time>2016-10-09T08:53:34Z</time>
      </trkpt>
      <trkpt lat="47.43088" lon="6.77681">
        <ele>350.51</ele>
        <time>2016-10-09T08:53:37Z</time>
      </trkpt>
      <trkpt lat="47.43069" lon="6.77691">
        <ele>351.44</ele>
        <time>2016-10-09T08:53:40Z</time>
      </trkpt>
      <trkpt lat="47.43047" lon="6.77704">
        <ele>350.46</ele>
        <time>2016-10-09T08:53:44Z</time>
      </trkpt>
      <trkpt lat="47.43029" lon="6.77713">
        <ele>349.57</ele>
        <time>2016-10-09T08:53:47Z</time>
      </trkpt>
      <trkpt lat="47.43008" lon="6.77725">
        <ele>349.57</ele>
        <time>2016-10-09T08:53:50Z</time>
      </trkpt>
      <trkpt lat="47.4299" lon="6.77733">
        <ele>350.61</ele>
        <time>2016-10-09T08:53:53Z</time>
      </trkpt>
      <trkpt lat="47.42972" lon="6.77739">
        <ele>352.05</ele>
        <time>2016-10-09T08:53:56Z</time>
      </trkpt>
      <trkpt lat="47.4295" lon="6.77744">
        <ele>353.45</ele>
        <time>2016-10-09T08:54:00Z</time>
      </trkpt>
      <trkpt lat="47.4293" lon="6.77745">
        <ele>352.59</ele>
        <time>2016-10-09T08:54:04Z</time>
      </trkpt>
      <trkpt lat="47.42912" lon="6.77746">
        <ele>353.42</ele>
        <time>2016-10-09T08:54:08Z</time>
      </trkpt>
      <trkpt lat="47.42892" lon="6.77746">
        <ele>354.8</ele>
        <time>2016-10-09T08:54:13Z</time>
      </trkpt>
      <trkpt lat="47.42873" lon="6.77745">
        <ele>354.83</ele>
        <time>2016-10-09T08:54:19Z</time>
      </trkpt>
      <trkpt lat="47.42853" lon="6.77735">
        <ele>355.05</ele>
        <time>2016-10-09T08:54:27Z</time>
      </trkpt>
      <trkpt lat="47.42831" lon="6.77729">
        <ele>353.82</ele>
        <time>2016-10-09T08:54:32Z</time>
      </trkpt>
      <trkpt lat="47.42829" lon="6.77702">
        <ele>350.91</ele>
        <time>2016-10-09T08:55:58Z</time>
      </trkpt>
      <trkpt lat="47.4283" lon="6.77675">
        <ele>350.67</ele>
        <time>2016-10-09T08:56:07Z</time>
      </trkpt>
      <trkpt lat="47.42827" lon="6.77648">
        <ele>352.02</ele>
        <time>2016-10-09T08:56:19Z</time>
      </trkpt>
      <trkpt lat="47.42822" lon="6.77621">
        <ele>354.2</ele>
        <time>2016-10-09T08:56:31Z</time>
      </trkpt>
      <trkpt lat="47.42818" lon="6.77594">
        <ele>353.68</ele>
        <time>2016-10-09T08:57:32Z</time>
      </trkpt>
      <trkpt lat="47.42812" lon="6.77567">
        <ele>354.41</ele>
        <time>2016-10-09T08:57:42Z</time>
      </trkpt>
      <trkpt lat="47.42808" lon="6.77541">
        <ele>355.02</ele>
        <time>2016-10-09T08:57:50Z</time>
      </trkpt>
      <trkpt lat="47.42805" lon="6.77512">
        <ele>355.92</ele>
        <time>2016-10-09T08:58:00Z</time>
      </trkpt>
      <trkpt lat="47.42801" lon="6.77484">
        <ele>357.35</ele>
        <time>2016-10-09T08:58:08Z</time>
      </trkpt>
      <trkpt lat="47.42799" lon="6.77455">
        <ele>359.61</ele>
        <time>2016-10-09T08:58:16Z</time>
      </trkpt>
      <trkpt lat="47.42796" lon="6.77427">
        <ele>361.96</ele>
        <time>2016-10-09T08:58:25Z</time>
      </trkpt>
      <trkpt lat="47.42798" lon="6.774">
        <ele>363.43</ele>
        <time>2016-10-09T08:58:33Z</time>
      </trkpt>
      <trkpt lat="47.42799" lon="6.77373">
        <ele>364.57</ele>
        <time>2016-10-09T08:58:40Z</time>
      </trkpt>
      <trkpt lat="47.42798" lon="6.77345">
        <ele>366.28</ele>
        <time>2016-10-09T08:58:48Z</time>
      </trkpt>
      <trkpt lat="47.42796" lon="6.77316">
        <ele>367.38</ele>
        <time>2016-10-09T08:58:56Z</time>
      </trkpt>
      <trkpt lat="47.42794" lon="6.77289">
        <ele>369.02</ele>
        <time>2016-10-09T08:59:03Z</time>
      </trkpt>
      <trkpt lat="47.42791" lon="6.77261">
        <ele>370.67</ele>
        <time>2016-10-09T08:59:10Z</time>
      </trkpt>
      <trkpt lat="47.42788" lon="6.77232">
        <ele>372.51</ele>
        <time>2016-10-09T08:59:17Z</time>
      </trkpt>
      <trkpt lat="47.42787" lon="6.77205">
        <ele>373.63</ele>
        <time>2016-10-09T08:59:24Z</time>
      </trkpt>
      <trkpt lat="47.42781" lon="6.77179">
        <ele>374.41</ele>
        <time>2016-10-09T08:59:31Z</time>
      </trkpt>
      <trkpt lat="47.42776" lon="6.7715">
        <ele>375.65</ele>
        <time>2016-10-09T08:59:38Z</time>
      </trkpt>
      <trkpt lat="47.42769" lon="6.77123">
        <ele>376.64</ele>
        <time>2016-10-09T08:59:44Z</time>
      </trkpt>
      <trkpt lat="47.42763" lon="6.77097">
        <ele>377.59</ele>
        <time>2016-10-09T08:59:50Z</time>
      </trkpt>
      <trkpt lat="47.42755" lon="6.77069">
        <ele>378.86</ele>
        <time>2016-10-09T08:59:57Z</time>
      </trkpt>
      <trkpt lat="47.42747" lon="6.77043">
        <ele>379.97</ele>
        <time>2016-10-09T09:00:04Z</time>
      </trkpt>
      <trkpt lat="47.42745" lon="6.77017">
        <ele>380.65</ele>
        <time>2016-10-09T09:00:11Z</time>
      </trkpt>
      <trkpt lat="47.42752" lon="6.76991">
        <ele>381.34</ele>
        <time>2016-10-09T09:00:18Z</time>
      </trkpt>
      <trkpt lat="47.42758" lon="6.76963">
        <ele>381.27</ele>
        <time>2016-10-09T09:00:24Z</time>
      </trkpt>
      <trkpt lat="47.42762" lon="6.76937">
        <ele>380.6</ele>
        <time>2016-10-09T09:00:30Z</time>
      </trkpt>
      <trkpt lat="47.42769" lon="6.76909">
        <ele>379.94</ele>
        <time>2016-10-09T09:00:36Z</time>
      </trkpt>
      <trkpt lat="47.42771" lon="6.76882">
        <ele>379.5</ele>
        <time>2016-10-09T09:00:41Z</time>
      </trkpt>
      <trkpt lat="47.42771" lon="6.76851">
        <ele>379.43</ele>
        <time>2016-10-09T09:00:48Z</time>
      </trkpt>
      <trkpt lat="47.42768" lon="6.76821">
        <ele>379.31</ele>
        <time>2016-10-09T09:00:55Z</time>
      </trkpt>
      <trkpt lat="47.42752" lon="6.76802">
        <ele>380.07</ele>
        <time>2016-10-09T09:01:01Z</time>
      </trkpt>
      <trkpt lat="47.4274" lon="6.76779">
        <ele>381.47</ele>
        <time>2016-10-09T09:01:08Z</time>
      </trkpt>
      <trkpt lat="47.4273" lon="6.76757">
        <ele>382.94</ele>
        <time>2016-10-09T09:01:14Z</time>
      </trkpt>
      <trkpt lat="47.4271" lon="6.76745">
        <ele>384.82</ele>
        <time>2016-10-09T09:01:22Z</time>
      </trkpt>
      <trkpt lat="47.42694" lon="6.76761">
        <ele>386.43</ele>
        <time>2016-10-09T09:01:30Z</time>
      </trkpt>
      <trkpt lat="47.42695" lon="6.76789">
        <ele>387.28</ele>
        <time>2016-10-09T09:01:36Z</time>
      </trkpt>
      <trkpt lat="47.42698" lon="6.76817">
        <ele>388.31</ele>
        <time>2016-10-09T09:01:45Z</time>
      </trkpt>
      <trkpt lat="47.42693" lon="6.76843">
        <ele>389.59</ele>
        <time>2016-10-09T09:01:56Z</time>
      </trkpt>
      <trkpt lat="47.42677" lon="6.76858">
        <ele>389.65</ele>
        <time>2016-10-09T09:02:06Z</time>
      </trkpt>
      <trkpt lat="47.42666" lon="6.76883">
        <ele>390.64</ele>
        <time>2016-10-09T09:02:18Z</time>
      </trkpt>
      <trkpt lat="47.42656" lon="6.76907">
        <ele>391.52</ele>
        <time>2016-10-09T09:02:30Z</time>
      </trkpt>
      <trkpt lat="47.42648" lon="6.76933">
        <ele>392.04</ele>
        <time>2016-10-09T09:02:38Z</time>
      </trkpt>
      <trkpt lat="47.42646" lon="6.76961">
        <ele>393.34</ele>
        <time>2016-10-09T09:02:49Z</time>
      </trkpt>
      <trkpt lat="47.42643" lon="6.76988">
        <ele>394.07</ele>
        <time>2016-10-09T09:02:58Z</time>
      </trkpt>
      <trkpt lat="47.42643" lon="6.77016">
        <ele>394.12</ele>
        <time>2016-10-09T09:03:08Z</time>
      </trkpt>
      <trkpt lat="47.42643" lon="6.77045">
        <ele>395.91</ele>
        <time>2016-10-09T09:03:18Z</time>
      </trkpt>
      <trkpt lat="47.42641" lon="6.77072">
        <ele>397.7</ele>
        <time>2016-10-09T09:03:30Z</time>
      </trkpt>
      <trkpt lat="47.42637" lon="6.77099">
        <ele>399.71</ele>
        <time>2016-10-09T09:03:42Z</time>
      </trkpt>
      <trkpt lat="47.42628" lon="6.77123">
        <ele>400.61</ele>
        <time>2016-10-09T09:03:53Z</time>
      </trkpt>
      <trkpt lat="47.42621" lon="6.77148">
        <ele>401.19</ele>
        <time>2016-10-09T09:04:03Z</time>
      </trkpt>
      <trkpt lat="47.42608" lon="6.77169">
        <ele>403.58</ele>
        <time>2016-10-09T09:04:15Z</time>
      </trkpt>
      <trkpt lat="47.42596" lon="6.77191">
        <ele>405.96</ele>
        <time>2016-10-09T09:04:27Z</time>
      </trkpt>
      <trkpt lat="47.42591" lon="6.77219">
        <ele>407.91</ele>
        <time>2016-10-09T09:04:37Z</time>
      </trkpt>
      <trkpt lat="47.42581" lon="6.77242">
        <ele>409.96</ele>
        <time>2016-10-09T09:04:47Z</time>
      </trkpt>
      <trkpt lat="47.42568" lon="6.7726">
        <ele>412.25</ele>
        <time>2016-10-09T09:04:57Z</time>
      </trkpt>
      <trkpt lat="47.42551" lon="6.77271">
        <ele>416.21</ele>
        <time>2016-10-09T09:05:09Z</time>
      </trkpt>
      <trkpt lat="47.42533" lon="6.77274">
        <ele>419.26</ele>
        <time>2016-10-09T09:05:23Z</time>
      </trkpt>
      <trkpt lat="47.42522" lon="6.77253">
        <ele>422.83</ele>
        <time>2016-10-09T09:05:38Z</time>
      </trkpt>
      <trkpt lat="47.42507" lon="6.77235">
        <ele>426.82</ele>
        <time>2016-10-09T09:05:53Z</time>
      </trkpt>
      <trkpt lat="47.42497" lon="6.77211">
        <ele>431.14</ele>
        <time>2016-10-09T09:06:07Z</time>
      </trkpt>
      <trkpt lat="47.42489" lon="6.77185">
        <ele>433.75</ele>
        <time>2016-10-09T09:06:21Z</time>
      </trkpt>
      <trkpt lat="47.42481" lon="6.77161">
        <ele>436.55</ele>
        <time>2016-10-09T09:06:34Z</time>
      </trkpt>
      <trkpt lat="47.42474" lon="6.77136">
        <ele>438.72</ele>
        <time>2016-10-09T09:06:48Z</time>
      </trkpt>
      <trkpt lat="47.42466" lon="6.77112">
        <ele>441.29</ele>
        <time>2016-10-09T09:07:02Z</time>
      </trkpt>
      <trkpt lat="47.42463" lon="6.77083">
        <ele>445.84</ele>
        <time>2016-10-09T09:07:16Z</time>
      </trkpt>
      <trkpt lat="47.42452" lon="6.77063">
        <ele>448.11</ele>
        <time>2016-10-09T09:07:25Z</time>
      </trkpt>
      <trkpt lat="47.42438" lon="6.77042">
        <ele>450.56</ele>
        <time>2016-10-09T09:07:34Z</time>
      </trkpt>
      <trkpt lat="47.42426" lon="6.77022">
        <ele>452.82</ele>
        <time>2016-10-09T09:07:43Z</time>
      </trkpt>
      <trkpt lat="47.42407" lon="6.77011">
        <ele>454.2</ele>
        <time>2016-10-09T09:07:49Z</time>
      </trkpt>
      <trkpt lat="47.4239" lon="6.76999">
        <ele>456.63</ele>
        <time>2016-10-09T09:07:58Z</time>
      </trkpt>
      <trkpt lat="47.42374" lon="6.7698">
        <ele>458.87</ele>
        <time>2016-10-09T09:08:06Z</time>
      </trkpt>
      <trkpt lat="47.42359" lon="6.76961">
        <ele>460.39</ele>
        <time>2016-10-09T09:08:15Z</time>
      </trkpt>
      <trkpt lat="47.42347" lon="6.76939">
        <ele>462.21</ele>
        <time>2016-10-09T09:08:24Z</time>
      </trkpt>
      <trkpt lat="47.42334" lon="6.76917">
        <ele>463.31</ele>
        <time>2016-10-09T09:08:33Z</time>
      </trkpt>
      <trkpt lat="47.42318" lon="6.76902">
        <ele>464.47</ele>
        <time>2016-10-09T09:08:41Z</time>
      </trkpt>
      <trkpt lat="47.42303" lon="6.76884">
        <ele>465.81</ele>
        <time>2016-10-09T09:08:49Z</time>
      </trkpt>
      <trkpt lat="47.42289" lon="6.76865">
        <ele>466.89</ele>
        <time>2016-10-09T09:08:58Z</time>
      </trkpt>
      <trkpt lat="47.42287" lon="6.76837">
        <ele>467.84</ele>
        <time>2016-10-09T09:09:13Z</time>
      </trkpt>
      <trkpt lat="47.42294" lon="6.76812">
        <ele>469.03</ele>
        <time>2016-10-09T09:09:25Z</time>
      </trkpt>
      <trkpt lat="47.42288" lon="6.76785">
        <ele>471.69</ele>
        <time>2016-10-09T09:09:36Z</time>
      </trkpt>
      <trkpt lat="47.42277" lon="6.76764">
        <ele>474.47</ele>
        <time>2016-10-09T09:09:48Z</time>
      </trkpt>
      <trkpt lat="47.42274" lon="6.76736">
        <ele>475.82</ele>
        <time>2016-10-09T09:10:02Z</time>
      </trkpt>
      <trkpt lat="47.42257" lon="6.76724">
        <ele>477.06</ele>
        <time>2016-10-09T09:10:14Z</time>
      </trkpt>
      <trkpt lat="47.42237" lon="6.76714">
        <ele>470.85</ele>
        <time>2016-10-09T09:12:54Z</time>
      </trkpt>
      <trkpt lat="47.42223" lon="6.76696">
        <ele>471.04</ele>
        <time>2016-10-09T09:12:59Z</time>
      </trkpt>
      <trkpt lat="47.42208" lon="6.76675">
        <ele>471.4</ele>
        <time>2016-10-09T09:13:04Z</time>
      </trkpt>
      <trkpt lat="47.42194" lon="6.76655">
        <ele>472.35</ele>
        <time>2016-10-09T09:13:08Z</time>
      </trkpt>
      <trkpt lat="47.42182" lon="6.76633">
        <ele>473.08</ele>
        <time>2016-10-09T09:13:12Z</time>
      </trkpt>
      <trkpt lat="47.42166" lon="6.76607">
        <ele>471.92</ele>
        <time>2016-10-09T09:13:16Z</time>
      </trkpt>
      <trkpt lat="47.42152" lon="6.76588">
        <ele>470.44</ele>
        <time>2016-10-09T09:13:19Z</time>
      </trkpt>
      <trkpt lat="47.42142" lon="6.76565">
        <ele>468.16</ele>
        <time>2016-10-09T09:13:22Z</time>
      </trkpt>
      <trkpt lat="47.42131" lon="6.76539">
        <ele>465.43</ele>
        <time>2016-10-09T09:13:25Z</time>
      </trkpt>
      <trkpt lat="47.4212" lon="6.76514">
        <ele>462.41</ele>
        <time>2016-10-09T09:13:28Z</time>
      </trkpt>
      <trkpt lat="47.42109" lon="6.76489">
        <ele>459.3</ele>
        <time>2016-10-09T09:13:31Z</time>
      </trkpt>
      <trkpt lat="47.42097" lon="6.76462">
        <ele>456.09</ele>
        <time>2016-10-09T09:13:34Z</time>
      </trkpt>
      <trkpt lat="47.42083" lon="6.76428">
        <ele>453.2</ele>
        <time>2016-10-09T09:13:37Z</time>
      </trkpt>
      <trkpt lat="47.42072" lon="6.76406">
        <ele>452.33</ele>
        <time>2016-10-09T09:13:39Z</time>
      </trkpt>
      <trkpt lat="47.42058" lon="6.76378">
        <ele>451.2</ele>
        <time>2016-10-09T09:13:42Z</time>
      </trkpt>
      <trkpt lat="47.42048" lon="6.76354">
        <ele>451.08</ele>
        <time>2016-10-09T09:13:44Z</time>
      </trkpt>
      <trkpt lat="47.42039" lon="6.76328">
        <ele>449.36</ele>
        <time>2016-10-09T09:13:46Z</time>
      </trkpt>
      <trkpt lat="47.42027" lon="6.76296">
        <ele>446.71</ele>
        <time>2016-10-09T09:13:49Z</time>
      </trkpt>
      <trkpt lat="47.42016" lon="6.76266">
        <ele>444.44</ele>
        <time>2016-10-09T09:13:52Z</time>
      </trkpt>
      <trkpt lat="47.42006" lon="6.76237">
        <ele>442.9</ele>
        <time>2016-10-09T09:13:55Z</time>
      </trkpt>
      <trkpt lat="47.41999" lon="6.76208">
        <ele>441.88</ele>
        <time>2016-10-09T09:13:58Z</time>
      </trkpt>
      <trkpt lat="47.41993" lon="6.76177">
        <ele>442.36</ele>
        <time>2016-10-09T09:14:03Z</time>
      </trkpt>
      <trkpt lat="47.41986" lon="6.76146">
        <ele>440.37</ele>
        <time>2016-10-09T09:14:07Z</time>
      </trkpt>
      <trkpt lat="47.41982" lon="6.7612">
        <ele>439.35</ele>
        <time>2016-10-09T09:14:10Z</time>
      </trkpt>
      <trkpt lat="47.41979" lon="6.76093">
        <ele>438.23</ele>
        <time>2016-10-09T09:14:14Z</time>
      </trkpt>
      <trkpt lat="47.41973" lon="6.7606">
        <ele>435.93</ele>
        <time>2016-10-09T09:14:19Z</time>
      </trkpt>
      <trkpt lat="47.4197" lon="6.76031">
        <ele>434.73</ele>
        <time>2016-10-09T09:14:23Z</time>
      </trkpt>
      <trkpt lat="47.41963" lon="6.76004">
        <ele>435.03</ele>
        <time>2016-10-09T09:14:27Z</time>
      </trkpt>
      <trkpt lat="47.41956" lon="6.75978">
        <ele>436.63</ele>
        <time>2016-10-09T09:14:30Z</time>
      </trkpt>
      <trkpt lat="47.4195" lon="6.75951">
        <ele>437.14</ele>
        <time>2016-10-09T09:14:33Z</time>
      </trkpt>
      <trkpt lat="47.41946" lon="6.75917">
        <ele>438.59</ele>
        <time>2016-10-09T09:14:37Z</time>
      </trkpt>
      <trkpt lat="47.41937" lon="6.75889">
        <ele>442.57</ele>
        <time>2016-10-09T09:14:41Z</time>
      </trkpt>
      <trkpt lat="47.41928" lon="6.75864">
        <ele>443.56</ele>
        <time>2016-10-09T09:14:45Z</time>
      </trkpt>
      <trkpt lat="47.41919" lon="6.75832">
        <ele>444.21</ele>
        <time>2016-10-09T09:14:50Z</time>
      </trkpt>
      <trkpt lat="47.41908" lon="6.75807">
        <ele>444.39</ele>
        <time>2016-10-09T09:14:54Z</time>
      </trkpt>
      <trkpt lat="47.41896" lon="6.75777">
        <ele>442.38</ele>
        <time>2016-10-09T09:14:58Z</time>
      </trkpt>
      <trkpt lat="47.41881" lon="6.7575">
        <ele>440.77</ele>
        <time>2016-10-09T09:15:01Z</time>
      </trkpt>
      <trkpt lat="47.41864" lon="6.75718">
        <ele>439.19</ele>
        <time>2016-10-09T09:15:04Z</time>
      </trkpt>
      <trkpt lat="47.41843" lon="6.75693">
        <ele>434.79</ele>
        <time>2016-10-09T09:15:07Z</time>
      </trkpt>
      <trkpt lat="47.41824" lon="6.75697">
        <ele>430.93</ele>
        <time>2016-10-09T09:15:10Z</time>
      </trkpt>
      <trkpt lat="47.41833" lon="6.75727">
        <ele>428.16</ele>
        <time>2016-10-09T09:15:14Z</time>
      </trkpt>
      <trkpt lat="47.41838" lon="6.75754">
        <ele>424.32</ele>
        <time>2016-10-09T09:15:17Z</time>
      </trkpt>
      <trkpt lat="47.41845" lon="6.75782">
        <ele>421.56</ele>
        <time>2016-10-09T09:15:20Z</time>
      </trkpt>
      <trkpt lat="47.41851" lon="6.75817">
        <ele>418.72</ele>
        <time>2016-10-09T09:15:23Z</time>
      </trkpt>
      <trkpt lat="47.41856" lon="6.75843">
        <ele>416.14</ele>
        <time>2016-10-09T09:15:25Z</time>
      </trkpt>
      <trkpt lat="47.41858" lon="6.75883">
        <ele>412.81</ele>
        <time>2016-10-09T09:15:28Z</time>
      </trkpt>
      <trkpt lat="47.41861" lon="6.75913">
        <ele>410.74</ele>
        <time>2016-10-09T09:15:30Z</time>
      </trkpt>
      <trkpt lat="47.41867" lon="6.75952">
        <ele>407.81</ele>
        <time>2016-10-09T09:15:33Z</time>
      </trkpt>
      <trkpt lat="47.41872" lon="6.75983">
        <ele>406.49</ele>
        <time>2016-10-09T09:15:36Z</time>
      </trkpt>
      <trkpt lat="47.41887" lon="6.75997">
        <ele>405.85</ele>
        <time>2016-10-09T09:15:41Z</time>
      </trkpt>
      <trkpt lat="47.419" lon="6.7602">
        <ele>407.59</ele>
        <time>2016-10-09T09:16:03Z</time>
      </trkpt>
      <trkpt lat="47.41901" lon="6.76048">
        <ele>407.34</ele>
        <time>2016-10-09T09:16:09Z</time>
      </trkpt>
      <trkpt lat="47.419" lon="6.76079">
        <ele>408.62</ele>
        <time>2016-10-09T09:16:14Z</time>
      </trkpt>
      <trkpt lat="47.41898" lon="6.76107">
        <ele>408.84</ele>
        <time>2016-10-09T09:16:18Z</time>
      </trkpt>
      <trkpt lat="47.41901" lon="6.76139">
        <ele>409.74</ele>
        <time>2016-10-09T09:16:21Z</time>
      </trkpt>
      <trkpt lat="47.41903" lon="6.7617">
        <ele>410.2</ele>
        <time>2016-10-09T09:16:24Z</time>
      </trkpt>
      <trkpt lat="47.41906" lon="6.76205">
        <ele>409.09</ele>
        <time>2016-10-09T09:16:27Z</time>
      </trkpt>
      <trkpt lat="47.41909" lon="6.76242">
        <ele>406.27</ele>
        <time>2016-10-09T09:16:30Z</time>
      </trkpt>
      <trkpt lat="47.41912" lon="6.76276">
        <ele>401.78</ele>
        <time>2016-10-09T09:16:33Z</time>
      </trkpt>
      <trkpt lat="47.41915" lon="6.76311">
        <ele>398.1</ele>
        <time>2016-10-09T09:16:36Z</time>
      </trkpt>
      <trkpt lat="47.41917" lon="6.7635">
        <ele>396.04</ele>
        <time>2016-10-09T09:16:39Z</time>
      </trkpt>
      <trkpt lat="47.41921" lon="6.76389">
        <ele>394.72</ele>
        <time>2016-10-09T09:16:42Z</time>
      </trkpt>
      <trkpt lat="47.41925" lon="6.76417">
        <ele>393.74</ele>
        <time>2016-10-09T09:16:44Z</time>
      </trkpt>
      <trkpt lat="47.41931" lon="6.76453">
        <ele>393.1</ele>
        <time>2016-10-09T09:16:47Z</time>
      </trkpt>
      <trkpt lat="47.41935" lon="6.76491">
        <ele>392.16</ele>
        <time>2016-10-09T09:16:50Z</time>
      </trkpt>
      <trkpt lat="47.41939" lon="6.76531">
        <ele>389.86</ele>
        <time>2016-10-09T09:16:53Z</time>
      </trkpt>
      <trkpt lat="47.41944" lon="6.76557">
        <ele>387.93</ele>
        <time>2016-10-09T09:16:55Z</time>
      </trkpt>
      <trkpt lat="47.41947" lon="6.76586">
        <ele>387.53</ele>
        <time>2016-10-09T09:16:57Z</time>
      </trkpt>
      <trkpt lat="47.4195" lon="6.76612">
        <ele>386.09</ele>
        <time>2016-10-09T09:16:59Z</time>
      </trkpt>
      <trkpt lat="47.4195" lon="6.76639">
        <ele>385.69</ele>
        <time>2016-10-09T09:17:01Z</time>
      </trkpt>
      <trkpt lat="47.41949" lon="6.76666">
        <ele>385.08</ele>
        <time>2016-10-09T09:17:03Z</time>
      </trkpt>
      <trkpt lat="47.41948" lon="6.76693">
        <ele>384.24</ele>
        <time>2016-10-09T09:17:05Z</time>
      </trkpt>
      <trkpt lat="47.41947" lon="6.76721">
        <ele>382.9</ele>
        <time>2016-10-09T09:17:07Z</time>
      </trkpt>
      <trkpt lat="47.41946" lon="6.76753">
        <ele>381.06</ele>
        <time>2016-10-09T09:17:09Z</time>
      </trkpt>
      <trkpt lat="47.41943" lon="6.76792">
        <ele>379</ele>
        <time>2016-10-09T09:17:12Z</time>
      </trkpt>
      <trkpt lat="47.41939" lon="6.76831">
        <ele>376.71</ele>
        <time>2016-10-09T09:17:15Z</time>
      </trkpt>
      <trkpt lat="47.41932" lon="6.76869">
        <ele>376.07</ele>
        <time>2016-10-09T09:17:18Z</time>
      </trkpt>
      <trkpt lat="47.41927" lon="6.76895">
        <ele>375.77</ele>
        <time>2016-10-09T09:17:20Z</time>
      </trkpt>
      <trkpt lat="47.41921" lon="6.76922">
        <ele>376.23</ele>
        <time>2016-10-09T09:17:22Z</time>
      </trkpt>
      <trkpt lat="47.41916" lon="6.7695">
        <ele>376.87</ele>
        <time>2016-10-09T09:17:24Z</time>
      </trkpt>
      <trkpt lat="47.4191" lon="6.76978">
        <ele>376.12</ele>
        <time>2016-10-09T09:17:26Z</time>
      </trkpt>
      <trkpt lat="47.41904" lon="6.77006">
        <ele>374.22</ele>
        <time>2016-10-09T09:17:28Z</time>
      </trkpt>
      <trkpt lat="47.41898" lon="6.77035">
        <ele>373.42</ele>
        <time>2016-10-09T09:17:30Z</time>
      </trkpt>
      <trkpt lat="47.41894" lon="6.77064">
        <ele>372.97</ele>
        <time>2016-10-09T09:17:32Z</time>
      </trkpt>
      <trkpt lat="47.41889" lon="6.77092">
        <ele>371.37</ele>
        <time>2016-10-09T09:17:34Z</time>
      </trkpt>
      <trkpt lat="47.41885" lon="6.77119">
        <ele>369.81</ele>
        <time>2016-10-09T09:17:36Z</time>
      </trkpt>
      <trkpt lat="47.4188" lon="6.77148">
        <ele>368.22</ele>
        <time>2016-10-09T09:17:38Z</time>
      </trkpt>
      <trkpt lat="47.41876" lon="6.77178">
        <ele>367.1</ele>
        <time>2016-10-09T09:17:40Z</time>
      </trkpt>
      <trkpt lat="47.4187" lon="6.77219">
        <ele>364.69</ele>
        <time>2016-10-09T09:17:43Z</time>
      </trkpt>
      <trkpt lat="47.41867" lon="6.77247">
        <ele>362.84</ele>
        <time>2016-10-09T09:17:45Z</time>
      </trkpt>
      <trkpt lat="47.41866" lon="6.77276">
        <ele>362.36</ele>
        <time>2016-10-09T09:17:47Z</time>
      </trkpt>
      <trkpt lat="47.41864" lon="6.77314">
        <ele>362.86</ele>
        <time>2016-10-09T09:17:50Z</time>
      </trkpt>
      <trkpt lat="47.41861" lon="6.77342">
        <ele>362.32</ele>
        <time>2016-10-09T09:17:52Z</time>
      </trkpt>
      <trkpt lat="47.41859" lon="6.77368">
        <ele>361.46</ele>
        <time>2016-10-09T09:17:54Z</time>
      </trkpt>
      <trkpt lat="47.41861" lon="6.77404">
        <ele>359.15</ele>
        <time>2016-10-09T09:17:57Z</time>
      </trkpt>
      <trkpt lat="47.41866" lon="6.77436">
        <ele>356.92</ele>
        <time>2016-10-09T09:18:00Z</time>
      </trkpt>
      <trkpt lat="47.41868" lon="6.77466">
        <ele>356.69</ele>
        <time>2016-10-09T09:18:03Z</time>
      </trkpt>
      <trkpt lat="47.41869" lon="6.77499">
        <ele>356.63</ele>
        <time>2016-10-09T09:18:07Z</time>
      </trkpt>
      <trkpt lat="47.4187" lon="6.77531">
        <ele>361.21</ele>
        <time>2016-10-09T09:18:12Z</time>
      </trkpt>
      <trkpt lat="47.41869" lon="6.7756">
        <ele>361.11</ele>
        <time>2016-10-09T09:18:17Z</time>
      </trkpt>
      <trkpt lat="47.41867" lon="6.77589">
        <ele>361.03</ele>
        <time>2016-10-09T09:18:23Z</time>
      </trkpt>
      <trkpt lat="47.41866" lon="6.77616">
        <ele>361.26</ele>
        <time>2016-10-09T09:18:29Z</time>
      </trkpt>
      <trkpt lat="47.41877" lon="6.77641">
        <ele>361.8</ele>
        <time>2016-10-09T09:18:36Z</time>
      </trkpt>
      <trkpt lat="47.41896" lon="6.77642">
        <ele>362.58</ele>
        <time>2016-10-09T09:18:42Z</time>
      </trkpt>
      <trkpt lat="47.41913" lon="6.77652">
        <ele>363.46</ele>
        <time>2016-10-09T09:18:49Z</time>
      </trkpt>
      <trkpt lat="47.41933" lon="6.77658">
        <ele>364.05</ele>
        <time>2016-10-09T09:18:55Z</time>
      </trkpt>
      <trkpt lat="47.41952" lon="6.77663">
        <ele>364.62</ele>
        <time>2016-10-09T09:19:00Z</time>
      </trkpt>
      <trkpt lat="47.41971" lon="6.77666">
        <ele>364.96</ele>
        <time>2016-10-09T09:19:04Z</time>
      </trkpt>
      <trkpt lat="47.41993" lon="6.77662">
        <ele>366.45</ele>
        <time>2016-10-09T09:19:09Z</time>
      </trkpt>
      <trkpt lat="47.42011" lon="6.77654">
        <ele>369.38</ele>
        <time>2016-10-09T09:19:13Z</time>
      </trkpt>
      <trkpt lat="47.42031" lon="6.7765">
        <ele>372.49</ele>
        <time>2016-10-09T09:19:17Z</time>
      </trkpt>
      <trkpt lat="47.4205" lon="6.77654">
        <ele>373.85</ele>
        <time>2016-10-09T09:19:22Z</time>
      </trkpt>
      <trkpt lat="47.42067" lon="6.77662">
        <ele>372.79</ele>
        <time>2016-10-09T09:19:26Z</time>
      </trkpt>
      <trkpt lat="47.42086" lon="6.7767">
        <ele>373.87</ele>
        <time>2016-10-09T09:19:30Z</time>
      </trkpt>
      <trkpt lat="47.42106" lon="6.77674">
        <ele>375.13</ele>
        <time>2016-10-09T09:19:34Z</time>
      </trkpt>
      <trkpt lat="47.42128" lon="6.77672">
        <ele>375.63</ele>
        <time>2016-10-09T09:19:38Z</time>
      </trkpt>
      <trkpt lat="47.42148" lon="6.77673">
        <ele>375.02</ele>
        <time>2016-10-09T09:19:42Z</time>
      </trkpt>
      <trkpt lat="47.42169" lon="6.77673">
        <ele>374.22</ele>
        <time>2016-10-09T09:19:46Z</time>
      </trkpt>
      <trkpt lat="47.42191" lon="6.77671">
        <ele>373.5</ele>
        <time>2016-10-09T09:19:50Z</time>
      </trkpt>
      <trkpt lat="47.42211" lon="6.7767">
        <ele>374.61</ele>
        <time>2016-10-09T09:19:54Z</time>
      </trkpt>
      <trkpt lat="47.4223" lon="6.77668">
        <ele>375.28</ele>
        <time>2016-10-09T09:19:57Z</time>
      </trkpt>
      <trkpt lat="47.42252" lon="6.77662">
        <ele>373.1</ele>
        <time>2016-10-09T09:20:01Z</time>
      </trkpt>
      <trkpt lat="47.42261" lon="6.77638">
        <ele>371.19</ele>
        <time>2016-10-09T09:20:04Z</time>
      </trkpt>
      <trkpt lat="47.4226" lon="6.77606">
        <ele>370.09</ele>
        <time>2016-10-09T09:20:08Z</time>
      </trkpt>
      <trkpt lat="47.42282" lon="6.77615">
        <ele>369.15</ele>
        <time>2016-10-09T09:20:16Z</time>
      </trkpt>
      <trkpt lat="47.42295" lon="6.77639">
        <ele>365.26</ele>
        <time>2016-10-09T09:20:19Z</time>
      </trkpt>
      <trkpt lat="47.42308" lon="6.77665">
        <ele>362.32</ele>
        <time>2016-10-09T09:20:22Z</time>
      </trkpt>
      <trkpt lat="47.42322" lon="6.77688">
        <ele>358.38</ele>
        <time>2016-10-09T09:20:26Z</time>
      </trkpt>
      <trkpt lat="47.4234" lon="6.77692">
        <ele>353.74</ele>
        <time>2016-10-09T09:20:29Z</time>
      </trkpt>
      <trkpt lat="47.42362" lon="6.77694">
        <ele>349.37</ele>
        <time>2016-10-09T09:20:33Z</time>
      </trkpt>
      <trkpt lat="47.42384" lon="6.77697">
        <ele>344.36</ele>
        <time>2016-10-09T09:20:37Z</time>
      </trkpt>
      <trkpt lat="47.42402" lon="6.77695">
        <ele>341.2</ele>
        <time>2016-10-09T09:20:40Z</time>
      </trkpt>
      <trkpt lat="47.42423" lon="6.77693">
        <ele>338.21</ele>
        <time>2016-10-09T09:20:43Z</time>
      </trkpt>
      <trkpt lat="47.42445" lon="6.77693">
        <ele>335.26</ele>
        <time>2016-10-09T09:20:47Z</time>
      </trkpt>
      <trkpt lat="47.42467" lon="6.77693">
        <ele>335.54</ele>
        <time>2016-10-09T09:20:52Z</time>
      </trkpt>
      <trkpt lat="47.42488" lon="6.77693">
        <ele>336.69</ele>
        <time>2016-10-09T09:20:58Z</time>
      </trkpt>
      <trkpt lat="47.42508" lon="6.77693">
        <ele>340.42</ele>
        <time>2016-10-09T09:21:03Z</time>
      </trkpt>
      <trkpt lat="47.42529" lon="6.77694">
        <ele>345.47</ele>
        <time>2016-10-09T09:21:07Z</time>
      </trkpt>
      <trkpt lat="47.42549" lon="6.77693">
        <ele>347.93</ele>
        <time>2016-10-09T09:21:10Z</time>
      </trkpt>
      <trkpt lat="47.42568" lon="6.77695">
        <ele>347.06</ele>
        <time>2016-10-09T09:21:13Z</time>
      </trkpt>
      <trkpt lat="47.42589" lon="6.77698">
        <ele>345.69</ele>
        <time>2016-10-09T09:21:16Z</time>
      </trkpt>
      <trkpt lat="47.42607" lon="6.77698">
        <ele>344.3</ele>
        <time>2016-10-09T09:21:19Z</time>
      </trkpt>
      <trkpt lat="47.42626" lon="6.77693">
        <ele>343.4</ele>
        <time>2016-10-09T09:21:22Z</time>
      </trkpt>
      <trkpt lat="47.42646" lon="6.77691">
        <ele>343.4</ele>
        <time>2016-10-09T09:21:26Z</time>
      </trkpt>
      <trkpt lat="47.42669" lon="6.77699">
        <ele>342.61</ele>
        <time>2016-10-09T09:21:30Z</time>
      </trkpt>
      <trkpt lat="47.4269" lon="6.777">
        <ele>339.81</ele>
        <time>2016-10-09T09:21:34Z</time>
      </trkpt>
      <trkpt lat="47.42707" lon="6.77712">
        <ele>339.14</ele>
        <time>2016-10-09T09:21:38Z</time>
      </trkpt>
      <trkpt lat="47.42728" lon="6.77721">
        <ele>339.65</ele>
        <time>2016-10-09T09:21:43Z</time>
      </trkpt>
      <trkpt lat="47.42746" lon="6.77724">
        <ele>340.46</ele>
        <time>2016-10-09T09:21:48Z</time>
      </trkpt>
      <trkpt lat="47.42764" lon="6.77729">
        <ele>341.19</ele>
        <time>2016-10-09T09:21:53Z</time>
      </trkpt>
      <trkpt lat="47.42782" lon="6.7774">
        <ele>341.7</ele>
        <time>2016-10-09T09:21:58Z</time>
      </trkpt>
      <trkpt lat="47.42801" lon="6.77742">
        <ele>342.12</ele>
        <time>2016-10-09T09:22:04Z</time>
      </trkpt>
      <trkpt lat="47.4282" lon="6.77751">
        <ele>342.71</ele>
        <time>2016-10-09T09:22:12Z</time>
      </trkpt>
      <trkpt lat="47.42818" lon="6.7778">
        <ele>342.6</ele>
        <time>2016-10-09T09:22:22Z</time>
      </trkpt>
      <trkpt lat="47.42831" lon="6.77803">
        <ele>342.83</ele>
        <time>2016-10-09T09:22:29Z</time>
      </trkpt>
      <trkpt lat="47.42844" lon="6.77825">
        <ele>344.79</ele>
        <time>2016-10-09T09:22:34Z</time>
      </trkpt>
      <trkpt lat="47.42862" lon="6.77838">
        <ele>344.9</ele>
        <time>2016-10-09T09:22:38Z</time>
      </trkpt>
      <trkpt lat="47.42873" lon="6.77859">
        <ele>342.64</ele>
        <time>2016-10-09T09:22:44Z</time>
      </trkpt>
      <trkpt lat="47.42863" lon="6.77883">
        <ele>342.01</ele>
        <time>2016-10-09T09:22:49Z</time>
      </trkpt>
      <trkpt lat="47.42845" lon="6.77895">
        <ele>341.29</ele>
        <time>2016-10-09T09:22:55Z</time>
      </trkpt>
      <trkpt lat="47.42824" lon="6.77894">
        <ele>342.35</ele>
        <time>2016-10-09T09:23:01Z</time>
      </trkpt>
      <trkpt lat="47.42817" lon="6.77923">
        <ele>342.8</ele>
        <time>2016-10-09T09:23:06Z</time>
      </trkpt>
      <trkpt lat="47.42817" lon="6.77954">
        <ele>342.79</ele>
        <time>2016-10-09T09:23:10Z</time>
      </trkpt>
      <trkpt lat="47.42816" lon="6.77986">
        <ele>342.27</ele>
        <time>2016-10-09T09:23:14Z</time>
      </trkpt>
      <trkpt lat="47.42816" lon="6.78019">
        <ele>341.38</ele>
        <time>2016-10-09T09:23:18Z</time>
      </trkpt>
      <trkpt lat="47.42815" lon="6.78054">
        <ele>340.22</ele>
        <time>2016-10-09T09:23:22Z</time>
      </trkpt>
      <trkpt lat="47.42815" lon="6.78086">
        <ele>339.87</ele>
        <time>2016-10-09T09:23:26Z</time>
      </trkpt>
      <trkpt lat="47.42814" lon="6.78118">
        <ele>339.8</ele>
        <time>2016-10-09T09:23:30Z</time>
      </trkpt>
      <trkpt lat="47.42818" lon="6.78149">
        <ele>339.53</ele>
        <time>2016-10-09T09:23:34Z</time>
      </trkpt>
      <trkpt lat="47.42826" lon="6.7818">
        <ele>339.64</ele>
        <time>2016-10-09T09:23:38Z</time>
      </trkpt>
      <trkpt lat="47.42824" lon="6.7821">
        <ele>339.01</ele>
        <time>2016-10-09T09:23:42Z</time>
      </trkpt>
      <trkpt lat="47.42813" lon="6.78237">
        <ele>338.98</ele>
        <time>2016-10-09T09:23:47Z</time>
      </trkpt>
      <trkpt lat="47.42805" lon="6.78267">
        <ele>340.46</ele>
        <time>2016-10-09T09:23:52Z</time>
      </trkpt>
      <trkpt lat="47.42803" lon="6.78297">
        <ele>341.77</ele>
        <time>2016-10-09T09:23:56Z</time>
      </trkpt>
      <trkpt lat="47.42793" lon="6.78329">
        <ele>341.41</ele>
        <time>2016-10-09T09:24:00Z</time>
      </trkpt>
      <trkpt lat="47.42789" lon="6.78358">
        <ele>340.14</ele>
        <time>2016-10-09T09:24:03Z</time>
      </trkpt>
      <trkpt lat="47.42792" lon="6.78387">
        <ele>339.71</ele>
        <time>2016-10-09T09:24:06Z</time>
      </trkpt>
      <trkpt lat="47.42798" lon="6.78416">
        <ele>339.16</ele>
        <time>2016-10-09T09:24:09Z</time>
      </trkpt>
      <trkpt lat="47.42804" lon="6.78443">
        <ele>337.98</ele>
        <time>2016-10-09T09:24:12Z</time>
      </trkpt>
      <trkpt lat="47.42811" lon="6.78471">
        <ele>337.06</ele>
        <time>2016-10-09T09:24:15Z</time>
      </trkpt>
      <trkpt lat="47.42818" lon="6.78496">
        <ele>336.73</ele>
        <time>2016-10-09T09:24:18Z</time>
      </trkpt>
      <trkpt lat="47.42827" lon="6.7852">
        <ele>336.89</ele>
        <time>2016-10-09T09:24:21Z</time>
      </trkpt>
      <trkpt lat="47.42839" lon="6.7854">
        <ele>337.1</ele>
        <time>2016-10-09T09:24:24Z</time>
      </trkpt>
      <trkpt lat="47.42851" lon="6.78562">
        <ele>336.63</ele>
        <time>2016-10-09T09:24:27Z</time>
      </trkpt>
      <trkpt lat="47.42864" lon="6.78587">
        <ele>336.79</ele>
        <time>2016-10-09T09:24:31Z</time>
      </trkpt>
      <trkpt lat="47.42876" lon="6.78614">
        <ele>336.66</ele>
        <time>2016-10-09T09:24:35Z</time>
      </trkpt>
      <trkpt lat="47.4289" lon="6.78643">
        <ele>336.37</ele>
        <time>2016-10-09T09:24:39Z</time>
      </trkpt>
      <trkpt lat="47.42896" lon="6.78675">
        <ele>335.53</ele>
        <time>2016-10-09T09:24:43Z</time>
      </trkpt>
      <trkpt lat="47.429" lon="6.78709">
        <ele>334.77</ele>
        <time>2016-10-09T09:24:47Z</time>
      </trkpt>
      <trkpt lat="47.42891" lon="6.78734">
        <ele>334.31</ele>
        <time>2016-10-09T09:24:51Z</time>
      </trkpt>
      <trkpt lat="47.42872" lon="6.78751">
        <ele>334.26</ele>
        <time>2016-10-09T09:24:55Z</time>
      </trkpt>
      <trkpt lat="47.42855" lon="6.78773">
        <ele>335.76</ele>
        <time>2016-10-09T09:24:59Z</time>
      </trkpt>
      <trkpt lat="47.42841" lon="6.78796">
        <ele>335.35</ele>
        <time>2016-10-09T09:25:03Z</time>
      </trkpt>
      <trkpt lat="47.42823" lon="6.78809">
        <ele>334.85</ele>
        <time>2016-10-09T09:25:07Z</time>
      </trkpt>
      <trkpt lat="47.42805" lon="6.78818">
        <ele>334.76</ele>
        <time>2016-10-09T09:25:11Z</time>
      </trkpt>
      <trkpt lat="47.42787" lon="6.7883">
        <ele>334.59</ele>
        <time>2016-10-09T09:25:15Z</time>
      </trkpt>
      <trkpt lat="47.42768" lon="6.78841">
        <ele>336.17</ele>
        <time>2016-10-09T09:25:19Z</time>
      </trkpt>
      <trkpt lat="47.42747" lon="6.78849">
        <ele>337.38</ele>
        <time>2016-10-09T09:25:23Z</time>
      </trkpt>
      <trkpt lat="47.42726" lon="6.78848">
        <ele>337.94</ele>
        <time>2016-10-09T09:25:27Z</time>
      </trkpt>
      <trkpt lat="47.42705" lon="6.7886">
        <ele>337.29</ele>
        <time>2016-10-09T09:25:31Z</time>
      </trkpt>
      <trkpt lat="47.42684" lon="6.7887">
        <ele>336.77</ele>
        <time>2016-10-09T09:25:35Z</time>
      </trkpt>
      <trkpt lat="47.42662" lon="6.78876">
        <ele>337.31</ele>
        <time>2016-10-09T09:25:39Z</time>
      </trkpt>
      <trkpt lat="47.4264" lon="6.78881">
        <ele>337.96</ele>
        <time>2016-10-09T09:25:43Z</time>
      </trkpt>
      <trkpt lat="47.42618" lon="6.78883">
        <ele>338.01</ele>
        <time>2016-10-09T09:25:47Z</time>
      </trkpt>
      <trkpt lat="47.42594" lon="6.78882">
        <ele>338.04</ele>
        <time>2016-10-09T09:25:51Z</time>
      </trkpt>
      <trkpt lat="47.42576" lon="6.78882">
        <ele>338.26</ele>
        <time>2016-10-09T09:25:54Z</time>
      </trkpt>
      <trkpt lat="47.42558" lon="6.78885">
        <ele>338.49</ele>
        <time>2016-10-09T09:25:57Z</time>
      </trkpt>
      <trkpt lat="47.42535" lon="6.78893">
        <ele>339.84</ele>
        <time>2016-10-09T09:26:01Z</time>
      </trkpt>
      <trkpt lat="47.42513" lon="6.78904">
        <ele>340.16</ele>
        <time>2016-10-09T09:26:05Z</time>
      </trkpt>
      <trkpt lat="47.42492" lon="6.78918">
        <ele>338.84</ele>
        <time>2016-10-09T09:26:09Z</time>
      </trkpt>
      <trkpt lat="47.42472" lon="6.78934">
        <ele>337.96</ele>
        <time>2016-10-09T09:26:13Z</time>
      </trkpt>
      <trkpt lat="47.42458" lon="6.78961">
        <ele>336.94</ele>
        <time>2016-10-09T09:26:17Z</time>
      </trkpt>
      <trkpt lat="47.42442" lon="6.78982">
        <ele>335.94</ele>
        <time>2016-10-09T09:26:21Z</time>
      </trkpt>
      <trkpt lat="47.42422" lon="6.78993">
        <ele>337.36</ele>
        <time>2016-10-09T09:26:25Z</time>
      </trkpt>
      <trkpt lat="47.42399" lon="6.79002">
        <ele>338.97</ele>
        <time>2016-10-09T09:26:29Z</time>
      </trkpt>
      <trkpt lat="47.42375" lon="6.7901">
        <ele>338.55</ele>
        <time>2016-10-09T09:26:33Z</time>
      </trkpt>
      <trkpt lat="47.42357" lon="6.79013">
        <ele>337.83</ele>
        <time>2016-10-09T09:26:36Z</time>
      </trkpt>
      <trkpt lat="47.42338" lon="6.79014">
        <ele>337.41</ele>
        <time>2016-10-09T09:26:39Z</time>
      </trkpt>
      <trkpt lat="47.4232" lon="6.79015">
        <ele>337.61</ele>
        <time>2016-10-09T09:26:42Z</time>
      </trkpt>
      <trkpt lat="47.42302" lon="6.79013">
        <ele>337.41</ele>
        <time>2016-10-09T09:26:45Z</time>
      </trkpt>
      <trkpt lat="47.42287" lon="6.78992">
        <ele>338.73</ele>
        <time>2016-10-09T09:26:49Z</time>
      </trkpt>
      <trkpt lat="47.42274" lon="6.78964">
        <ele>340.15</ele>
        <time>2016-10-09T09:26:53Z</time>
      </trkpt>
      <trkpt lat="47.42259" lon="6.78937">
        <ele>342.07</ele>
        <time>2016-10-09T09:26:57Z</time>
      </trkpt>
      <trkpt lat="47.42244" lon="6.78912">
        <ele>341.04</ele>
        <time>2016-10-09T09:27:01Z</time>
      </trkpt>
      <trkpt lat="47.42231" lon="6.78893">
        <ele>340.41</ele>
        <time>2016-10-09T09:27:04Z</time>
      </trkpt>
      <trkpt lat="47.42216" lon="6.78869">
        <ele>340.18</ele>
        <time>2016-10-09T09:27:08Z</time>
      </trkpt>
      <trkpt lat="47.42201" lon="6.78845">
        <ele>339.51</ele>
        <time>2016-10-09T09:27:12Z</time>
      </trkpt>
      <trkpt lat="47.42188" lon="6.78826">
        <ele>339.35</ele>
        <time>2016-10-09T09:27:15Z</time>
      </trkpt>
      <trkpt lat="47.42173" lon="6.78801">
        <ele>338.91</ele>
        <time>2016-10-09T09:27:19Z</time>
      </trkpt>
      <trkpt lat="47.42155" lon="6.78778">
        <ele>338.37</ele>
        <time>2016-10-09T09:27:23Z</time>
      </trkpt>
      <trkpt lat="47.42137" lon="6.78755">
        <ele>337.89</ele>
        <time>2016-10-09T09:27:27Z</time>
      </trkpt>
      <trkpt lat="47.42119" lon="6.78734">
        <ele>338.46</ele>
        <time>2016-10-09T09:27:31Z</time>
      </trkpt>
      <trkpt lat="47.42102" lon="6.78714">
        <ele>336.96</ele>
        <time>2016-10-09T09:27:35Z</time>
      </trkpt>
      <trkpt lat="47.42082" lon="6.78697">
        <ele>337.17</ele>
        <time>2016-10-09T09:27:39Z</time>
      </trkpt>
      <trkpt lat="47.42061" lon="6.78684">
        <ele>338.18</ele>
        <time>2016-10-09T09:27:43Z</time>
      </trkpt>
      <trkpt lat="47.42038" lon="6.78673">
        <ele>339.04</ele>
        <time>2016-10-09T09:27:47Z</time>
      </trkpt>
      <trkpt lat="47.4202" lon="6.78665">
        <ele>339.79</ele>
        <time>2016-10-09T09:27:50Z</time>
      </trkpt>
      <trkpt lat="47.42002" lon="6.78659">
        <ele>339.58</ele>
        <time>2016-10-09T09:27:53Z</time>
      </trkpt>
      <trkpt lat="47.41979" lon="6.78654">
        <ele>338.97</ele>
        <time>2016-10-09T09:27:57Z</time>
      </trkpt>
      <trkpt lat="47.41961" lon="6.78649">
        <ele>339.32</ele>
        <time>2016-10-09T09:28:00Z</time>
      </trkpt>
      <trkpt lat="47.41943" lon="6.78647">
        <ele>340.17</ele>
        <time>2016-10-09T09:28:03Z</time>
      </trkpt>
      <trkpt lat="47.41925" lon="6.78645">
        <ele>340.44</ele>
        <time>2016-10-09T09:28:06Z</time>
      </trkpt>
      <trkpt lat="47.41902" lon="6.78643">
        <ele>340.5</ele>
        <time>2016-10-09T09:28:10Z</time>
      </trkpt>
      <trkpt lat="47.41879" lon="6.78645">
        <ele>340.4</ele>
        <time>2016-10-09T09:28:14Z</time>
      </trkpt>
      <trkpt lat="47.41861" lon="6.78645">
        <ele>340.22</ele>
        <time>2016-10-09T09:28:17Z</time>
      </trkpt>
      <trkpt lat="47.41842" lon="6.78647">
        <ele>339.68</ele>
        <time>2016-10-09T09:28:20Z</time>
      </trkpt>
      <trkpt lat="47.41818" lon="6.7865">
        <ele>339.41</ele>
        <time>2016-10-09T09:28:24Z</time>
      </trkpt>
      <trkpt lat="47.418" lon="6.78649">
        <ele>339.99</ele>
        <time>2016-10-09T09:28:27Z</time>
      </trkpt>
      <trkpt lat="47.41782" lon="6.78644">
        <ele>340.76</ele>
        <time>2016-10-09T09:28:30Z</time>
      </trkpt>
      <trkpt lat="47.41763" lon="6.78643">
        <ele>341.35</ele>
        <time>2016-10-09T09:28:33Z</time>
      </trkpt>
      <trkpt lat="47.4174" lon="6.78646">
        <ele>342.61</ele>
        <time>2016-10-09T09:28:37Z</time>
      </trkpt>
      <trkpt lat="47.41722" lon="6.78646">
        <ele>342.85</ele>
        <time>2016-10-09T09:28:40Z</time>
      </trkpt>
      <trkpt lat="47.41699" lon="6.78643">
        <ele>342.66</ele>
        <time>2016-10-09T09:28:44Z</time>
      </trkpt>
      <trkpt lat="47.41677" lon="6.78642">
        <ele>341.48</ele>
        <time>2016-10-09T09:28:48Z</time>
      </trkpt>
      <trkpt lat="47.41654" lon="6.78637">
        <ele>341.46</ele>
        <time>2016-10-09T09:28:52Z</time>
      </trkpt>
      <trkpt lat="47.41631" lon="6.78627">
        <ele>341.97</ele>
        <time>2016-10-09T09:28:56Z</time>
      </trkpt>
      <trkpt lat="47.41615" lon="6.78615">
        <ele>342.01</ele>
        <time>2016-10-09T09:28:59Z</time>
      </trkpt>
      <trkpt lat="47.416" lon="6.78598">
        <ele>341.47</ele>
        <time>2016-10-09T09:29:02Z</time>
      </trkpt>
      <trkpt lat="47.41588" lon="6.78578">
        <ele>340.91</ele>
        <time>2016-10-09T09:29:05Z</time>
      </trkpt>
      <trkpt lat="47.41589" lon="6.78547">
        <ele>341.48</ele>
        <time>2016-10-09T09:29:09Z</time>
      </trkpt>
      <trkpt lat="47.41591" lon="6.78512">
        <ele>342.26</ele>
        <time>2016-10-09T09:29:13Z</time>
      </trkpt>
      <trkpt lat="47.41589" lon="6.78484">
        <ele>342.65</ele>
        <time>2016-10-09T09:29:16Z</time>
      </trkpt>
      <trkpt lat="47.41586" lon="6.78454">
        <ele>342.93</ele>
        <time>2016-10-09T09:29:19Z</time>
      </trkpt>
      <trkpt lat="47.41583" lon="6.78424">
        <ele>343.44</ele>
        <time>2016-10-09T09:29:22Z</time>
      </trkpt>
      <trkpt lat="47.4158" lon="6.78394">
        <ele>343.4</ele>
        <time>2016-10-09T09:29:25Z</time>
      </trkpt>
      <trkpt lat="47.41578" lon="6.78364">
        <ele>343.69</ele>
        <time>2016-10-09T09:29:28Z</time>
      </trkpt>
      <trkpt lat="47.41575" lon="6.78334">
        <ele>344.12</ele>
        <time>2016-10-09T09:29:31Z</time>
      </trkpt>
      <trkpt lat="47.41572" lon="6.78302">
        <ele>343.49</ele>
        <time>2016-10-09T09:29:34Z</time>
      </trkpt>
      <trkpt lat="47.4157" lon="6.78268">
        <ele>343.21</ele>
        <time>2016-10-09T09:29:37Z</time>
      </trkpt>
      <trkpt lat="47.41567" lon="6.78238">
        <ele>343.69</ele>
        <time>2016-10-09T09:29:40Z</time>
      </trkpt>
      <trkpt lat="47.41563" lon="6.78212">
        <ele>344.09</ele>
        <time>2016-10-09T09:29:43Z</time>
      </trkpt>
      <trkpt lat="47.41553" lon="6.78189">
        <ele>344.16</ele>
        <time>2016-10-09T09:29:47Z</time>
      </trkpt>
      <trkpt lat="47.41535" lon="6.78176">
        <ele>343.31</ele>
        <time>2016-10-09T09:29:51Z</time>
      </trkpt>
      <trkpt lat="47.41517" lon="6.78169">
        <ele>343.12</ele>
        <time>2016-10-09T09:29:55Z</time>
      </trkpt>
      <trkpt lat="47.41497" lon="6.78169">
        <ele>342.41</ele>
        <time>2016-10-09T09:30:00Z</time>
      </trkpt>
      <trkpt lat="47.41488" lon="6.78197">
        <ele>340.76</ele>
        <time>2016-10-09T09:30:04Z</time>
      </trkpt>
      <trkpt lat="47.4148" lon="6.78231">
        <ele>338.52</ele>
        <time>2016-10-09T09:30:08Z</time>
      </trkpt>
      <trkpt lat="47.41474" lon="6.78257">
        <ele>338.08</ele>
        <time>2016-10-09T09:30:11Z</time>
      </trkpt>
      <trkpt lat="47.41468" lon="6.78287">
        <ele>337.87</ele>
        <time>2016-10-09T09:30:15Z</time>
      </trkpt>
      <trkpt lat="47.41462" lon="6.78319">
        <ele>338.1</ele>
        <time>2016-10-09T09:30:19Z</time>
      </trkpt>
      <trkpt lat="47.41456" lon="6.78348">
        <ele>338.18</ele>
        <time>2016-10-09T09:30:23Z</time>
      </trkpt>
      <trkpt lat="47.41448" lon="6.78379">
        <ele>341.25</ele>
        <time>2016-10-09T09:30:28Z</time>
      </trkpt>
      <trkpt lat="47.41441" lon="6.78404">
        <ele>341.81</ele>
        <time>2016-10-09T09:30:32Z</time>
      </trkpt>
      <trkpt lat="47.41434" lon="6.78432">
        <ele>341.76</ele>
        <time>2016-10-09T09:30:36Z</time>
      </trkpt>
      <trkpt lat="47.41417" lon="6.78449">
        <ele>340.92</ele>
        <time>2016-10-09T09:30:40Z</time>
      </trkpt>
      <trkpt lat="47.41408" lon="6.78424">
        <ele>339.61</ele>
        <time>2016-10-09T09:30:46Z</time>
      </trkpt>
    </trkseg>
  </trk>
</gpx>